<?xml version="1.0" encoding="UTF-8" standalone="no" ?>
<gpx xmlns="http://www.topografix.com/GPX/1/1" xmlns:xsi="http://www.w3.org/2001/XMLSchema-instance" xsi:schemaLocation="http://www.topografix.com/GPX/1/1 http://www.topografix.com/GPX/1/1/gpx.xsd" version="1.1" creator="VisuGPX - https://www.visugpx.com">
  <metadata>
    <name>mercredi 30 juillet 2014</name>
    <desc><![CDATA[entrainement laubreçais]]></desc>
  </metadata>
  <trk>
    <name><![CDATA[mercredi_30_juillet]]></name>
    <trkseg>
      <trkpt lat="46.75331" lon="-0.38972">
        <ele>206.308762</ele>
        <time>2014-07-30T08:02:56Z</time>
      </trkpt>
      <trkpt lat="46.75326" lon="-0.38977">
        <ele>204.439728</ele>
        <time>2014-07-30T08:02:57Z</time>
      </trkpt>
      <trkpt lat="46.75324" lon="-0.38986">
        <ele>200.805594</ele>
        <time>2014-07-30T08:03:00Z</time>
      </trkpt>
      <trkpt lat="46.75322" lon="-0.38995">
        <ele>201.263553</ele>
        <time>2014-07-30T08:03:07Z</time>
      </trkpt>
      <trkpt lat="46.75318" lon="-0.38999">
        <ele>201.60309</ele>
        <time>2014-07-30T08:03:10Z</time>
      </trkpt>
      <trkpt lat="46.75312" lon="-0.38998">
        <ele>201.923937</ele>
        <time>2014-07-30T08:03:12Z</time>
      </trkpt>
      <trkpt lat="46.75305" lon="-0.38997">
        <ele>202.135738</ele>
        <time>2014-07-30T08:03:14Z</time>
      </trkpt>
      <trkpt lat="46.753" lon="-0.38995">
        <ele>202.339427</ele>
        <time>2014-07-30T08:03:16Z</time>
      </trkpt>
      <trkpt lat="46.75294" lon="-0.38992">
        <ele>202.484934</ele>
        <time>2014-07-30T08:03:18Z</time>
      </trkpt>
      <trkpt lat="46.75289" lon="-0.38987">
        <ele>202.705295</ele>
        <time>2014-07-30T08:03:20Z</time>
      </trkpt>
      <trkpt lat="46.75283" lon="-0.38982">
        <ele>202.88425</ele>
        <time>2014-07-30T08:03:22Z</time>
      </trkpt>
      <trkpt lat="46.75278" lon="-0.38976">
        <ele>203.130269</ele>
        <time>2014-07-30T08:03:24Z</time>
      </trkpt>
      <trkpt lat="46.75273" lon="-0.38971">
        <ele>203.342157</ele>
        <time>2014-07-30T08:03:26Z</time>
      </trkpt>
      <trkpt lat="46.75268" lon="-0.38966">
        <ele>203.494721</ele>
        <time>2014-07-30T08:03:28Z</time>
      </trkpt>
      <trkpt lat="46.75263" lon="-0.38961">
        <ele>203.614517</ele>
        <time>2014-07-30T08:03:30Z</time>
      </trkpt>
      <trkpt lat="46.75257" lon="-0.38957">
        <ele>203.754789</ele>
        <time>2014-07-30T08:03:32Z</time>
      </trkpt>
      <trkpt lat="46.7525" lon="-0.38953">
        <ele>203.914219</ele>
        <time>2014-07-30T08:03:34Z</time>
      </trkpt>
      <trkpt lat="46.75244" lon="-0.3895">
        <ele>204.019913</ele>
        <time>2014-07-30T08:03:36Z</time>
      </trkpt>
      <trkpt lat="46.75238" lon="-0.3895">
        <ele>203.981704</ele>
        <time>2014-07-30T08:03:38Z</time>
      </trkpt>
      <trkpt lat="46.75232" lon="-0.38954">
        <ele>203.83939</ele>
        <time>2014-07-30T08:03:40Z</time>
      </trkpt>
      <trkpt lat="46.75227" lon="-0.3896">
        <ele>203.709378</ele>
        <time>2014-07-30T08:03:42Z</time>
      </trkpt>
      <trkpt lat="46.75222" lon="-0.38964">
        <ele>203.712124</ele>
        <time>2014-07-30T08:03:44Z</time>
      </trkpt>
      <trkpt lat="46.75216" lon="-0.38964">
        <ele>203.691363</ele>
        <time>2014-07-30T08:03:46Z</time>
      </trkpt>
      <trkpt lat="46.75209" lon="-0.38962">
        <ele>203.752932</ele>
        <time>2014-07-30T08:03:48Z</time>
      </trkpt>
      <trkpt lat="46.75204" lon="-0.38959">
        <ele>204.074914</ele>
        <time>2014-07-30T08:03:50Z</time>
      </trkpt>
      <trkpt lat="46.75199" lon="-0.38955">
        <ele>204.330161</ele>
        <time>2014-07-30T08:03:52Z</time>
      </trkpt>
      <trkpt lat="46.75194" lon="-0.38952">
        <ele>204.522771</ele>
        <time>2014-07-30T08:03:54Z</time>
      </trkpt>
      <trkpt lat="46.7519" lon="-0.38949">
        <ele>204.694258</ele>
        <time>2014-07-30T08:03:56Z</time>
      </trkpt>
      <trkpt lat="46.75184" lon="-0.38944">
        <ele>204.973538</ele>
        <time>2014-07-30T08:03:59Z</time>
      </trkpt>
      <trkpt lat="46.75179" lon="-0.38942">
        <ele>205.39548</ele>
        <time>2014-07-30T08:04:01Z</time>
      </trkpt>
      <trkpt lat="46.75174" lon="-0.3894">
        <ele>205.759873</ele>
        <time>2014-07-30T08:04:03Z</time>
      </trkpt>
      <trkpt lat="46.75169" lon="-0.38938">
        <ele>206.126605</ele>
        <time>2014-07-30T08:04:05Z</time>
      </trkpt>
      <trkpt lat="46.75165" lon="-0.38935">
        <ele>206.57266</ele>
        <time>2014-07-30T08:04:07Z</time>
      </trkpt>
      <trkpt lat="46.75161" lon="-0.38931">
        <ele>207.098742</ele>
        <time>2014-07-30T08:04:09Z</time>
      </trkpt>
      <trkpt lat="46.75156" lon="-0.38928">
        <ele>207.712849</ele>
        <time>2014-07-30T08:04:11Z</time>
      </trkpt>
      <trkpt lat="46.75152" lon="-0.38924">
        <ele>208.297429</ele>
        <time>2014-07-30T08:04:13Z</time>
      </trkpt>
      <trkpt lat="46.75147" lon="-0.38922">
        <ele>208.769399</ele>
        <time>2014-07-30T08:04:15Z</time>
      </trkpt>
      <trkpt lat="46.75142" lon="-0.3892">
        <ele>209.295434</ele>
        <time>2014-07-30T08:04:17Z</time>
      </trkpt>
      <trkpt lat="46.75137" lon="-0.38918">
        <ele>209.668259</ele>
        <time>2014-07-30T08:04:19Z</time>
      </trkpt>
      <trkpt lat="46.75132" lon="-0.38917">
        <ele>210.079734</ele>
        <time>2014-07-30T08:04:21Z</time>
      </trkpt>
      <trkpt lat="46.75127" lon="-0.38916">
        <ele>210.508242</ele>
        <time>2014-07-30T08:04:23Z</time>
      </trkpt>
      <trkpt lat="46.75122" lon="-0.38914">
        <ele>211.047673</ele>
        <time>2014-07-30T08:04:25Z</time>
      </trkpt>
      <trkpt lat="46.75117" lon="-0.38913">
        <ele>211.496636</ele>
        <time>2014-07-30T08:04:27Z</time>
      </trkpt>
      <trkpt lat="46.75111" lon="-0.38915">
        <ele>212.312117</ele>
        <time>2014-07-30T08:04:30Z</time>
      </trkpt>
      <trkpt lat="46.75105" lon="-0.38916">
        <ele>213.242712</ele>
        <time>2014-07-30T08:04:33Z</time>
      </trkpt>
      <trkpt lat="46.751" lon="-0.38919">
        <ele>213.922065</ele>
        <time>2014-07-30T08:04:35Z</time>
      </trkpt>
      <trkpt lat="46.75096" lon="-0.38922">
        <ele>214.56718</ele>
        <time>2014-07-30T08:04:37Z</time>
      </trkpt>
      <trkpt lat="46.75091" lon="-0.38925">
        <ele>215.241663</ele>
        <time>2014-07-30T08:04:39Z</time>
      </trkpt>
      <trkpt lat="46.75086" lon="-0.38927">
        <ele>215.658911</ele>
        <time>2014-07-30T08:04:41Z</time>
      </trkpt>
      <trkpt lat="46.75081" lon="-0.38929">
        <ele>215.991685</ele>
        <time>2014-07-30T08:04:43Z</time>
      </trkpt>
      <trkpt lat="46.75076" lon="-0.38931">
        <ele>216.464027</ele>
        <time>2014-07-30T08:04:45Z</time>
      </trkpt>
      <trkpt lat="46.75072" lon="-0.38932">
        <ele>217.037799</ele>
        <time>2014-07-30T08:04:47Z</time>
      </trkpt>
      <trkpt lat="46.75067" lon="-0.38934">
        <ele>217.552126</ele>
        <time>2014-07-30T08:04:49Z</time>
      </trkpt>
      <trkpt lat="46.75062" lon="-0.38935">
        <ele>217.946931</ele>
        <time>2014-07-30T08:04:51Z</time>
      </trkpt>
      <trkpt lat="46.75057" lon="-0.38933">
        <ele>218.378191</ele>
        <time>2014-07-30T08:04:53Z</time>
      </trkpt>
      <trkpt lat="46.75055" lon="-0.38927">
        <ele>218.782351</ele>
        <time>2014-07-30T08:04:55Z</time>
      </trkpt>
      <trkpt lat="46.75055" lon="-0.3892">
        <ele>219.169719</ele>
        <time>2014-07-30T08:04:57Z</time>
      </trkpt>
      <trkpt lat="46.75055" lon="-0.38912">
        <ele>219.567182</ele>
        <time>2014-07-30T08:04:59Z</time>
      </trkpt>
      <trkpt lat="46.75055" lon="-0.38904">
        <ele>219.949827</ele>
        <time>2014-07-30T08:05:01Z</time>
      </trkpt>
      <trkpt lat="46.75055" lon="-0.38896">
        <ele>220.381048</ele>
        <time>2014-07-30T08:05:03Z</time>
      </trkpt>
      <trkpt lat="46.75055" lon="-0.38889">
        <ele>220.85945</ele>
        <time>2014-07-30T08:05:05Z</time>
      </trkpt>
      <trkpt lat="46.75056" lon="-0.38881">
        <ele>221.400934</ele>
        <time>2014-07-30T08:05:07Z</time>
      </trkpt>
      <trkpt lat="46.75057" lon="-0.38874">
        <ele>221.963204</ele>
        <time>2014-07-30T08:05:09Z</time>
      </trkpt>
      <trkpt lat="46.75058" lon="-0.38866">
        <ele>222.361148</ele>
        <time>2014-07-30T08:05:11Z</time>
      </trkpt>
      <trkpt lat="46.75059" lon="-0.38858">
        <ele>222.683084</ele>
        <time>2014-07-30T08:05:13Z</time>
      </trkpt>
      <trkpt lat="46.7506" lon="-0.38851">
        <ele>222.921496</ele>
        <time>2014-07-30T08:05:15Z</time>
      </trkpt>
      <trkpt lat="46.7506" lon="-0.38844">
        <ele>223.131631</ele>
        <time>2014-07-30T08:05:17Z</time>
      </trkpt>
      <trkpt lat="46.75061" lon="-0.38835">
        <ele>223.419082</ele>
        <time>2014-07-30T08:05:20Z</time>
      </trkpt>
      <trkpt lat="46.75062" lon="-0.38826">
        <ele>223.873201</ele>
        <time>2014-07-30T08:05:23Z</time>
      </trkpt>
      <trkpt lat="46.75063" lon="-0.38817">
        <ele>224.144776</ele>
        <time>2014-07-30T08:05:26Z</time>
      </trkpt>
      <trkpt lat="46.75063" lon="-0.38808">
        <ele>224.299022</ele>
        <time>2014-07-30T08:05:29Z</time>
      </trkpt>
      <trkpt lat="46.75063" lon="-0.388">
        <ele>224.556806</ele>
        <time>2014-07-30T08:05:32Z</time>
      </trkpt>
      <trkpt lat="46.75062" lon="-0.38792">
        <ele>224.799943</ele>
        <time>2014-07-30T08:05:35Z</time>
      </trkpt>
      <trkpt lat="46.75062" lon="-0.38783">
        <ele>225.155015</ele>
        <time>2014-07-30T08:05:38Z</time>
      </trkpt>
      <trkpt lat="46.75062" lon="-0.38775">
        <ele>225.275128</ele>
        <time>2014-07-30T08:05:41Z</time>
      </trkpt>
      <trkpt lat="46.75061" lon="-0.38766">
        <ele>225.468209</ele>
        <time>2014-07-30T08:05:44Z</time>
      </trkpt>
      <trkpt lat="46.7506" lon="-0.3876">
        <ele>225.592131</ele>
        <time>2014-07-30T08:05:46Z</time>
      </trkpt>
      <trkpt lat="46.75059" lon="-0.3875">
        <ele>225.862746</ele>
        <time>2014-07-30T08:05:49Z</time>
      </trkpt>
      <trkpt lat="46.75057" lon="-0.38741">
        <ele>226.170069</ele>
        <time>2014-07-30T08:05:52Z</time>
      </trkpt>
      <trkpt lat="46.75056" lon="-0.38734">
        <ele>226.388007</ele>
        <time>2014-07-30T08:05:54Z</time>
      </trkpt>
      <trkpt lat="46.75055" lon="-0.38728">
        <ele>226.610534</ele>
        <time>2014-07-30T08:05:56Z</time>
      </trkpt>
      <trkpt lat="46.75054" lon="-0.38721">
        <ele>226.933277</ele>
        <time>2014-07-30T08:05:58Z</time>
      </trkpt>
      <trkpt lat="46.75053" lon="-0.38714">
        <ele>227.354294</ele>
        <time>2014-07-30T08:06:00Z</time>
      </trkpt>
      <trkpt lat="46.75052" lon="-0.38705">
        <ele>227.911817</ele>
        <time>2014-07-30T08:06:03Z</time>
      </trkpt>
      <trkpt lat="46.75051" lon="-0.38696">
        <ele>228.244245</ele>
        <time>2014-07-30T08:06:06Z</time>
      </trkpt>
      <trkpt lat="46.75049" lon="-0.38687">
        <ele>228.377554</ele>
        <time>2014-07-30T08:06:09Z</time>
      </trkpt>
      <trkpt lat="46.75047" lon="-0.38678">
        <ele>228.500951</ele>
        <time>2014-07-30T08:06:12Z</time>
      </trkpt>
      <trkpt lat="46.75044" lon="-0.38669">
        <ele>228.810859</ele>
        <time>2014-07-30T08:06:15Z</time>
      </trkpt>
      <trkpt lat="46.75042" lon="-0.3866">
        <ele>229.246609</ele>
        <time>2014-07-30T08:06:18Z</time>
      </trkpt>
      <trkpt lat="46.7504" lon="-0.38653">
        <ele>229.676011</ele>
        <time>2014-07-30T08:06:20Z</time>
      </trkpt>
      <trkpt lat="46.75039" lon="-0.38646">
        <ele>229.928965</ele>
        <time>2014-07-30T08:06:22Z</time>
      </trkpt>
      <trkpt lat="46.75036" lon="-0.38639">
        <ele>230.207073</ele>
        <time>2014-07-30T08:06:24Z</time>
      </trkpt>
      <trkpt lat="46.75034" lon="-0.38632">
        <ele>230.542386</ele>
        <time>2014-07-30T08:06:26Z</time>
      </trkpt>
      <trkpt lat="46.75032" lon="-0.38625">
        <ele>230.693503</ele>
        <time>2014-07-30T08:06:28Z</time>
      </trkpt>
      <trkpt lat="46.75029" lon="-0.38619">
        <ele>230.83478</ele>
        <time>2014-07-30T08:06:30Z</time>
      </trkpt>
      <trkpt lat="46.75027" lon="-0.38613">
        <ele>230.95008</ele>
        <time>2014-07-30T08:06:32Z</time>
      </trkpt>
      <trkpt lat="46.75025" lon="-0.38606">
        <ele>231.192105</ele>
        <time>2014-07-30T08:06:34Z</time>
      </trkpt>
      <trkpt lat="46.75024" lon="-0.386">
        <ele>231.44318</ele>
        <time>2014-07-30T08:06:36Z</time>
      </trkpt>
      <trkpt lat="46.75022" lon="-0.38594">
        <ele>231.622839</ele>
        <time>2014-07-30T08:06:38Z</time>
      </trkpt>
      <trkpt lat="46.7502" lon="-0.38588">
        <ele>231.79234</ele>
        <time>2014-07-30T08:06:40Z</time>
      </trkpt>
      <trkpt lat="46.75018" lon="-0.38581">
        <ele>232.032967</ele>
        <time>2014-07-30T08:06:42Z</time>
      </trkpt>
      <trkpt lat="46.75017" lon="-0.38574">
        <ele>232.344666</ele>
        <time>2014-07-30T08:06:44Z</time>
      </trkpt>
      <trkpt lat="46.75015" lon="-0.38568">
        <ele>232.65281</ele>
        <time>2014-07-30T08:06:46Z</time>
      </trkpt>
      <trkpt lat="46.75013" lon="-0.38561">
        <ele>232.92477</ele>
        <time>2014-07-30T08:06:48Z</time>
      </trkpt>
      <trkpt lat="46.7501" lon="-0.38554">
        <ele>233.221884</ele>
        <time>2014-07-30T08:06:50Z</time>
      </trkpt>
      <trkpt lat="46.75009" lon="-0.38547">
        <ele>233.560175</ele>
        <time>2014-07-30T08:06:52Z</time>
      </trkpt>
      <trkpt lat="46.75006" lon="-0.3854">
        <ele>233.908074</ele>
        <time>2014-07-30T08:06:54Z</time>
      </trkpt>
      <trkpt lat="46.75004" lon="-0.38533">
        <ele>234.17467</ele>
        <time>2014-07-30T08:06:56Z</time>
      </trkpt>
      <trkpt lat="46.75002" lon="-0.38527">
        <ele>234.670809</ele>
        <time>2014-07-30T08:06:58Z</time>
      </trkpt>
      <trkpt lat="46.75" lon="-0.38521">
        <ele>234.970123</ele>
        <time>2014-07-30T08:07:00Z</time>
      </trkpt>
      <trkpt lat="46.74997" lon="-0.38514">
        <ele>235.211615</ele>
        <time>2014-07-30T08:07:02Z</time>
      </trkpt>
      <trkpt lat="46.74994" lon="-0.38508">
        <ele>235.416234</ele>
        <time>2014-07-30T08:07:04Z</time>
      </trkpt>
      <trkpt lat="46.74991" lon="-0.38502">
        <ele>235.506286</ele>
        <time>2014-07-30T08:07:06Z</time>
      </trkpt>
      <trkpt lat="46.74988" lon="-0.38496">
        <ele>235.512664</ele>
        <time>2014-07-30T08:07:08Z</time>
      </trkpt>
      <trkpt lat="46.74985" lon="-0.3849">
        <ele>235.612378</ele>
        <time>2014-07-30T08:07:10Z</time>
      </trkpt>
      <trkpt lat="46.74982" lon="-0.38484">
        <ele>235.613754</ele>
        <time>2014-07-30T08:07:12Z</time>
      </trkpt>
      <trkpt lat="46.74979" lon="-0.38478">
        <ele>235.592148</ele>
        <time>2014-07-30T08:07:14Z</time>
      </trkpt>
      <trkpt lat="46.74976" lon="-0.38471">
        <ele>235.673878</ele>
        <time>2014-07-30T08:07:16Z</time>
      </trkpt>
      <trkpt lat="46.74973" lon="-0.38464">
        <ele>235.733978</ele>
        <time>2014-07-30T08:07:18Z</time>
      </trkpt>
      <trkpt lat="46.74969" lon="-0.38457">
        <ele>235.745492</ele>
        <time>2014-07-30T08:07:20Z</time>
      </trkpt>
      <trkpt lat="46.74966" lon="-0.38449">
        <ele>235.785498</ele>
        <time>2014-07-30T08:07:22Z</time>
      </trkpt>
      <trkpt lat="46.74962" lon="-0.38442">
        <ele>235.802198</ele>
        <time>2014-07-30T08:07:24Z</time>
      </trkpt>
      <trkpt lat="46.74959" lon="-0.38435">
        <ele>235.827768</ele>
        <time>2014-07-30T08:07:26Z</time>
      </trkpt>
      <trkpt lat="46.74955" lon="-0.38429">
        <ele>235.876123</ele>
        <time>2014-07-30T08:07:28Z</time>
      </trkpt>
      <trkpt lat="46.74952" lon="-0.38423">
        <ele>235.990273</ele>
        <time>2014-07-30T08:07:30Z</time>
      </trkpt>
      <trkpt lat="46.7495" lon="-0.38418">
        <ele>236.206033</ele>
        <time>2014-07-30T08:07:32Z</time>
      </trkpt>
      <trkpt lat="46.74947" lon="-0.38413">
        <ele>236.353207</ele>
        <time>2014-07-30T08:07:34Z</time>
      </trkpt>
      <trkpt lat="46.74944" lon="-0.38407">
        <ele>236.439417</ele>
        <time>2014-07-30T08:07:36Z</time>
      </trkpt>
      <trkpt lat="46.74941" lon="-0.38402">
        <ele>236.496335</ele>
        <time>2014-07-30T08:07:38Z</time>
      </trkpt>
      <trkpt lat="46.74939" lon="-0.38395">
        <ele>236.473567</ele>
        <time>2014-07-30T08:07:40Z</time>
      </trkpt>
      <trkpt lat="46.74937" lon="-0.38389">
        <ele>236.694966</ele>
        <time>2014-07-30T08:07:42Z</time>
      </trkpt>
      <trkpt lat="46.74935" lon="-0.38383">
        <ele>236.972274</ele>
        <time>2014-07-30T08:07:44Z</time>
      </trkpt>
      <trkpt lat="46.74934" lon="-0.38373">
        <ele>237.293439</ele>
        <time>2014-07-30T08:07:47Z</time>
      </trkpt>
      <trkpt lat="46.74932" lon="-0.38367">
        <ele>237.360776</ele>
        <time>2014-07-30T08:07:49Z</time>
      </trkpt>
      <trkpt lat="46.74932" lon="-0.3836">
        <ele>237.409047</ele>
        <time>2014-07-30T08:07:51Z</time>
      </trkpt>
      <trkpt lat="46.74931" lon="-0.38351">
        <ele>237.616049</ele>
        <time>2014-07-30T08:07:54Z</time>
      </trkpt>
      <trkpt lat="46.74931" lon="-0.38342">
        <ele>238.012854</ele>
        <time>2014-07-30T08:07:57Z</time>
      </trkpt>
      <trkpt lat="46.74931" lon="-0.38335">
        <ele>238.237735</ele>
        <time>2014-07-30T08:07:59Z</time>
      </trkpt>
      <trkpt lat="46.7493" lon="-0.38327">
        <ele>238.26813</ele>
        <time>2014-07-30T08:08:01Z</time>
      </trkpt>
      <trkpt lat="46.7493" lon="-0.38319">
        <ele>238.46043</ele>
        <time>2014-07-30T08:08:03Z</time>
      </trkpt>
      <trkpt lat="46.74931" lon="-0.38311">
        <ele>238.733727</ele>
        <time>2014-07-30T08:08:05Z</time>
      </trkpt>
      <trkpt lat="46.74931" lon="-0.38304">
        <ele>239.120887</ele>
        <time>2014-07-30T08:08:07Z</time>
      </trkpt>
      <trkpt lat="46.74931" lon="-0.38296">
        <ele>239.517401</ele>
        <time>2014-07-30T08:08:09Z</time>
      </trkpt>
      <trkpt lat="46.7493" lon="-0.38288">
        <ele>239.940203</ele>
        <time>2014-07-30T08:08:11Z</time>
      </trkpt>
      <trkpt lat="46.7493" lon="-0.3828">
        <ele>240.265281</ele>
        <time>2014-07-30T08:08:13Z</time>
      </trkpt>
      <trkpt lat="46.74929" lon="-0.38272">
        <ele>240.644124</ele>
        <time>2014-07-30T08:08:15Z</time>
      </trkpt>
      <trkpt lat="46.74929" lon="-0.38264">
        <ele>240.989192</ele>
        <time>2014-07-30T08:08:17Z</time>
      </trkpt>
      <trkpt lat="46.74929" lon="-0.38256">
        <ele>241.073583</ele>
        <time>2014-07-30T08:08:19Z</time>
      </trkpt>
      <trkpt lat="46.74929" lon="-0.38249">
        <ele>241.351083</ele>
        <time>2014-07-30T08:08:21Z</time>
      </trkpt>
      <trkpt lat="46.7493" lon="-0.38241">
        <ele>241.690084</ele>
        <time>2014-07-30T08:08:23Z</time>
      </trkpt>
      <trkpt lat="46.7493" lon="-0.38234">
        <ele>241.926366</ele>
        <time>2014-07-30T08:08:25Z</time>
      </trkpt>
      <trkpt lat="46.7493" lon="-0.38227">
        <ele>242.077487</ele>
        <time>2014-07-30T08:08:27Z</time>
      </trkpt>
      <trkpt lat="46.7493" lon="-0.3822">
        <ele>242.225021</ele>
        <time>2014-07-30T08:08:29Z</time>
      </trkpt>
      <trkpt lat="46.74929" lon="-0.38212">
        <ele>242.446113</ele>
        <time>2014-07-30T08:08:31Z</time>
      </trkpt>
      <trkpt lat="46.74928" lon="-0.38204">
        <ele>242.695042</ele>
        <time>2014-07-30T08:08:33Z</time>
      </trkpt>
      <trkpt lat="46.74926" lon="-0.38197">
        <ele>242.905464</ele>
        <time>2014-07-30T08:08:35Z</time>
      </trkpt>
      <trkpt lat="46.74925" lon="-0.38189">
        <ele>242.99236</ele>
        <time>2014-07-30T08:08:37Z</time>
      </trkpt>
      <trkpt lat="46.74924" lon="-0.38182">
        <ele>243.069435</ele>
        <time>2014-07-30T08:08:39Z</time>
      </trkpt>
      <trkpt lat="46.74923" lon="-0.38174">
        <ele>243.193132</ele>
        <time>2014-07-30T08:08:41Z</time>
      </trkpt>
      <trkpt lat="46.74922" lon="-0.38166">
        <ele>243.33723</ele>
        <time>2014-07-30T08:08:43Z</time>
      </trkpt>
      <trkpt lat="46.74921" lon="-0.38158">
        <ele>243.454407</ele>
        <time>2014-07-30T08:08:45Z</time>
      </trkpt>
      <trkpt lat="46.74919" lon="-0.3815">
        <ele>243.544626</ele>
        <time>2014-07-30T08:08:47Z</time>
      </trkpt>
      <trkpt lat="46.74916" lon="-0.38142">
        <ele>243.543284</ele>
        <time>2014-07-30T08:08:49Z</time>
      </trkpt>
      <trkpt lat="46.74914" lon="-0.38134">
        <ele>243.565452</ele>
        <time>2014-07-30T08:08:51Z</time>
      </trkpt>
      <trkpt lat="46.74912" lon="-0.38128">
        <ele>243.587347</ele>
        <time>2014-07-30T08:08:53Z</time>
      </trkpt>
      <trkpt lat="46.74908" lon="-0.38124">
        <ele>243.57093</ele>
        <time>2014-07-30T08:08:56Z</time>
      </trkpt>
      <trkpt lat="46.74907" lon="-0.38131">
        <ele>240.539785</ele>
        <time>2014-07-30T08:09:17Z</time>
      </trkpt>
      <trkpt lat="46.74907" lon="-0.38124">
        <ele>237.782344</ele>
        <time>2014-07-30T08:09:36Z</time>
      </trkpt>
      <trkpt lat="46.74904" lon="-0.38119">
        <ele>240.646811</ele>
        <time>2014-07-30T08:11:04Z</time>
      </trkpt>
      <trkpt lat="46.74903" lon="-0.38113">
        <ele>241.044728</ele>
        <time>2014-07-30T08:11:08Z</time>
      </trkpt>
      <trkpt lat="46.749" lon="-0.38107">
        <ele>241.267175</ele>
        <time>2014-07-30T08:11:10Z</time>
      </trkpt>
      <trkpt lat="46.74898" lon="-0.38099">
        <ele>241.371612</ele>
        <time>2014-07-30T08:11:12Z</time>
      </trkpt>
      <trkpt lat="46.74895" lon="-0.38093">
        <ele>241.391485</ele>
        <time>2014-07-30T08:11:14Z</time>
      </trkpt>
      <trkpt lat="46.74894" lon="-0.38086">
        <ele>241.208814</ele>
        <time>2014-07-30T08:11:16Z</time>
      </trkpt>
      <trkpt lat="46.74892" lon="-0.38079">
        <ele>241.080794</ele>
        <time>2014-07-30T08:11:18Z</time>
      </trkpt>
      <trkpt lat="46.74889" lon="-0.38073">
        <ele>240.838581</ele>
        <time>2014-07-30T08:11:20Z</time>
      </trkpt>
      <trkpt lat="46.74886" lon="-0.38064">
        <ele>240.54792</ele>
        <time>2014-07-30T08:11:22Z</time>
      </trkpt>
      <trkpt lat="46.74884" lon="-0.38057">
        <ele>240.302972</ele>
        <time>2014-07-30T08:11:24Z</time>
      </trkpt>
      <trkpt lat="46.74881" lon="-0.38049">
        <ele>239.972473</ele>
        <time>2014-07-30T08:11:26Z</time>
      </trkpt>
      <trkpt lat="46.74879" lon="-0.38041">
        <ele>239.751699</ele>
        <time>2014-07-30T08:11:28Z</time>
      </trkpt>
      <trkpt lat="46.74877" lon="-0.38033">
        <ele>239.572453</ele>
        <time>2014-07-30T08:11:30Z</time>
      </trkpt>
      <trkpt lat="46.74874" lon="-0.38026">
        <ele>239.443271</ele>
        <time>2014-07-30T08:11:32Z</time>
      </trkpt>
      <trkpt lat="46.74871" lon="-0.38018">
        <ele>239.443262</ele>
        <time>2014-07-30T08:11:34Z</time>
      </trkpt>
      <trkpt lat="46.74868" lon="-0.3801">
        <ele>239.319648</ele>
        <time>2014-07-30T08:11:36Z</time>
      </trkpt>
      <trkpt lat="46.74867" lon="-0.38003">
        <ele>239.155105</ele>
        <time>2014-07-30T08:11:38Z</time>
      </trkpt>
      <trkpt lat="46.74864" lon="-0.37996">
        <ele>238.905049</ele>
        <time>2014-07-30T08:11:40Z</time>
      </trkpt>
      <trkpt lat="46.74862" lon="-0.37988">
        <ele>238.764043</ele>
        <time>2014-07-30T08:11:42Z</time>
      </trkpt>
      <trkpt lat="46.74859" lon="-0.37981">
        <ele>238.694506</ele>
        <time>2014-07-30T08:11:44Z</time>
      </trkpt>
      <trkpt lat="46.74856" lon="-0.37973">
        <ele>238.552324</ele>
        <time>2014-07-30T08:11:46Z</time>
      </trkpt>
      <trkpt lat="46.74853" lon="-0.37964">
        <ele>238.353012</ele>
        <time>2014-07-30T08:11:48Z</time>
      </trkpt>
      <trkpt lat="46.7485" lon="-0.37957">
        <ele>238.129758</ele>
        <time>2014-07-30T08:11:50Z</time>
      </trkpt>
      <trkpt lat="46.74847" lon="-0.37948">
        <ele>238.026917</ele>
        <time>2014-07-30T08:11:52Z</time>
      </trkpt>
      <trkpt lat="46.74844" lon="-0.3794">
        <ele>237.830626</ele>
        <time>2014-07-30T08:11:54Z</time>
      </trkpt>
      <trkpt lat="46.7484" lon="-0.37934">
        <ele>237.671933</ele>
        <time>2014-07-30T08:11:56Z</time>
      </trkpt>
      <trkpt lat="46.74837" lon="-0.37925">
        <ele>237.573188</ele>
        <time>2014-07-30T08:11:58Z</time>
      </trkpt>
      <trkpt lat="46.74834" lon="-0.37919">
        <ele>237.374219</ele>
        <time>2014-07-30T08:12:00Z</time>
      </trkpt>
      <trkpt lat="46.7483" lon="-0.37911">
        <ele>237.320337</ele>
        <time>2014-07-30T08:12:02Z</time>
      </trkpt>
      <trkpt lat="46.74828" lon="-0.37905">
        <ele>237.284909</ele>
        <time>2014-07-30T08:12:04Z</time>
      </trkpt>
      <trkpt lat="46.74826" lon="-0.37899">
        <ele>237.209777</ele>
        <time>2014-07-30T08:12:06Z</time>
      </trkpt>
      <trkpt lat="46.74823" lon="-0.37894">
        <ele>237.211336</ele>
        <time>2014-07-30T08:12:08Z</time>
      </trkpt>
      <trkpt lat="46.7482" lon="-0.37887">
        <ele>237.189036</ele>
        <time>2014-07-30T08:12:10Z</time>
      </trkpt>
      <trkpt lat="46.74818" lon="-0.3788">
        <ele>237.224334</ele>
        <time>2014-07-30T08:12:12Z</time>
      </trkpt>
      <trkpt lat="46.74815" lon="-0.37872">
        <ele>237.351635</ele>
        <time>2014-07-30T08:12:14Z</time>
      </trkpt>
      <trkpt lat="46.74812" lon="-0.37863">
        <ele>237.510473</ele>
        <time>2014-07-30T08:12:16Z</time>
      </trkpt>
      <trkpt lat="46.7481" lon="-0.37856">
        <ele>237.569776</ele>
        <time>2014-07-30T08:12:18Z</time>
      </trkpt>
      <trkpt lat="46.74808" lon="-0.37849">
        <ele>237.552902</ele>
        <time>2014-07-30T08:12:20Z</time>
      </trkpt>
      <trkpt lat="46.74806" lon="-0.37841">
        <ele>237.479721</ele>
        <time>2014-07-30T08:12:22Z</time>
      </trkpt>
      <trkpt lat="46.74804" lon="-0.37833">
        <ele>237.578697</ele>
        <time>2014-07-30T08:12:24Z</time>
      </trkpt>
      <trkpt lat="46.74802" lon="-0.37826">
        <ele>237.709172</ele>
        <time>2014-07-30T08:12:26Z</time>
      </trkpt>
      <trkpt lat="46.74799" lon="-0.37818">
        <ele>237.813966</ele>
        <time>2014-07-30T08:12:28Z</time>
      </trkpt>
      <trkpt lat="46.74796" lon="-0.3781">
        <ele>237.903092</ele>
        <time>2014-07-30T08:12:30Z</time>
      </trkpt>
      <trkpt lat="46.74794" lon="-0.37805">
        <ele>238.039825</ele>
        <time>2014-07-30T08:12:32Z</time>
      </trkpt>
      <trkpt lat="46.74791" lon="-0.37798">
        <ele>238.116105</ele>
        <time>2014-07-30T08:12:34Z</time>
      </trkpt>
      <trkpt lat="46.74789" lon="-0.37791">
        <ele>238.311024</ele>
        <time>2014-07-30T08:12:36Z</time>
      </trkpt>
      <trkpt lat="46.74787" lon="-0.37783">
        <ele>238.540631</ele>
        <time>2014-07-30T08:12:38Z</time>
      </trkpt>
      <trkpt lat="46.74785" lon="-0.37777">
        <ele>238.735161</ele>
        <time>2014-07-30T08:12:40Z</time>
      </trkpt>
      <trkpt lat="46.74782" lon="-0.37769">
        <ele>238.764871</ele>
        <time>2014-07-30T08:12:42Z</time>
      </trkpt>
      <trkpt lat="46.74779" lon="-0.37761">
        <ele>238.804277</ele>
        <time>2014-07-30T08:12:44Z</time>
      </trkpt>
      <trkpt lat="46.74777" lon="-0.37754">
        <ele>238.929537</ele>
        <time>2014-07-30T08:12:46Z</time>
      </trkpt>
      <trkpt lat="46.74775" lon="-0.37748">
        <ele>239.109004</ele>
        <time>2014-07-30T08:12:48Z</time>
      </trkpt>
      <trkpt lat="46.74772" lon="-0.37741">
        <ele>239.188274</ele>
        <time>2014-07-30T08:12:50Z</time>
      </trkpt>
      <trkpt lat="46.74769" lon="-0.37732">
        <ele>239.398124</ele>
        <time>2014-07-30T08:12:53Z</time>
      </trkpt>
      <trkpt lat="46.74767" lon="-0.37723">
        <ele>239.661072</ele>
        <time>2014-07-30T08:12:55Z</time>
      </trkpt>
      <trkpt lat="46.74764" lon="-0.37716">
        <ele>239.821623</ele>
        <time>2014-07-30T08:12:57Z</time>
      </trkpt>
      <trkpt lat="46.74761" lon="-0.37708">
        <ele>239.943018</ele>
        <time>2014-07-30T08:12:59Z</time>
      </trkpt>
      <trkpt lat="46.74758" lon="-0.377">
        <ele>240.01331</ele>
        <time>2014-07-30T08:13:01Z</time>
      </trkpt>
      <trkpt lat="46.74755" lon="-0.37692">
        <ele>240.060449</ele>
        <time>2014-07-30T08:13:03Z</time>
      </trkpt>
      <trkpt lat="46.74753" lon="-0.37685">
        <ele>240.135317</ele>
        <time>2014-07-30T08:13:05Z</time>
      </trkpt>
      <trkpt lat="46.74751" lon="-0.37678">
        <ele>239.997435</ele>
        <time>2014-07-30T08:13:07Z</time>
      </trkpt>
      <trkpt lat="46.74748" lon="-0.37668">
        <ele>239.902596</ele>
        <time>2014-07-30T08:13:10Z</time>
      </trkpt>
      <trkpt lat="46.74746" lon="-0.37661">
        <ele>239.921585</ele>
        <time>2014-07-30T08:13:12Z</time>
      </trkpt>
      <trkpt lat="46.74742" lon="-0.37653">
        <ele>239.968839</ele>
        <time>2014-07-30T08:13:14Z</time>
      </trkpt>
      <trkpt lat="46.74739" lon="-0.37645">
        <ele>239.968014</ele>
        <time>2014-07-30T08:13:16Z</time>
      </trkpt>
      <trkpt lat="46.74735" lon="-0.37636">
        <ele>240.024731</ele>
        <time>2014-07-30T08:13:18Z</time>
      </trkpt>
      <trkpt lat="46.74732" lon="-0.37627">
        <ele>240.011716</ele>
        <time>2014-07-30T08:13:20Z</time>
      </trkpt>
      <trkpt lat="46.74729" lon="-0.3762">
        <ele>240.02094</ele>
        <time>2014-07-30T08:13:22Z</time>
      </trkpt>
      <trkpt lat="46.74726" lon="-0.37614">
        <ele>239.986094</ele>
        <time>2014-07-30T08:13:24Z</time>
      </trkpt>
      <trkpt lat="46.74724" lon="-0.37607">
        <ele>239.902244</ele>
        <time>2014-07-30T08:13:26Z</time>
      </trkpt>
      <trkpt lat="46.74721" lon="-0.376">
        <ele>239.755937</ele>
        <time>2014-07-30T08:13:28Z</time>
      </trkpt>
      <trkpt lat="46.74718" lon="-0.37592">
        <ele>239.73343</ele>
        <time>2014-07-30T08:13:30Z</time>
      </trkpt>
      <trkpt lat="46.74715" lon="-0.37585">
        <ele>239.856027</ele>
        <time>2014-07-30T08:13:32Z</time>
      </trkpt>
      <trkpt lat="46.74712" lon="-0.37579">
        <ele>239.890845</ele>
        <time>2014-07-30T08:13:34Z</time>
      </trkpt>
      <trkpt lat="46.74708" lon="-0.37573">
        <ele>239.767589</ele>
        <time>2014-07-30T08:13:36Z</time>
      </trkpt>
      <trkpt lat="46.74705" lon="-0.37567">
        <ele>239.640336</ele>
        <time>2014-07-30T08:13:38Z</time>
      </trkpt>
      <trkpt lat="46.74701" lon="-0.3756">
        <ele>239.655756</ele>
        <time>2014-07-30T08:13:40Z</time>
      </trkpt>
      <trkpt lat="46.74698" lon="-0.37555">
        <ele>239.735161</ele>
        <time>2014-07-30T08:13:42Z</time>
      </trkpt>
      <trkpt lat="46.74695" lon="-0.3755">
        <ele>239.850237</ele>
        <time>2014-07-30T08:13:44Z</time>
      </trkpt>
      <trkpt lat="46.74692" lon="-0.37544">
        <ele>239.861261</ele>
        <time>2014-07-30T08:13:46Z</time>
      </trkpt>
      <trkpt lat="46.74689" lon="-0.37538">
        <ele>239.956874</ele>
        <time>2014-07-30T08:13:48Z</time>
      </trkpt>
      <trkpt lat="46.74685" lon="-0.37529">
        <ele>240.076384</ele>
        <time>2014-07-30T08:13:51Z</time>
      </trkpt>
      <trkpt lat="46.74682" lon="-0.37523">
        <ele>240.117697</ele>
        <time>2014-07-30T08:13:53Z</time>
      </trkpt>
      <trkpt lat="46.74679" lon="-0.37518">
        <ele>240.165469</ele>
        <time>2014-07-30T08:13:55Z</time>
      </trkpt>
      <trkpt lat="46.74676" lon="-0.37511">
        <ele>240.295583</ele>
        <time>2014-07-30T08:13:57Z</time>
      </trkpt>
      <trkpt lat="46.74673" lon="-0.37504">
        <ele>240.553292</ele>
        <time>2014-07-30T08:13:59Z</time>
      </trkpt>
      <trkpt lat="46.74669" lon="-0.37498">
        <ele>240.666677</ele>
        <time>2014-07-30T08:14:01Z</time>
      </trkpt>
      <trkpt lat="46.74665" lon="-0.3749">
        <ele>240.721605</ele>
        <time>2014-07-30T08:14:03Z</time>
      </trkpt>
      <trkpt lat="46.74661" lon="-0.37485">
        <ele>240.757746</ele>
        <time>2014-07-30T08:14:05Z</time>
      </trkpt>
      <trkpt lat="46.74658" lon="-0.37478">
        <ele>240.772101</ele>
        <time>2014-07-30T08:14:07Z</time>
      </trkpt>
      <trkpt lat="46.74654" lon="-0.37472">
        <ele>240.682627</ele>
        <time>2014-07-30T08:14:09Z</time>
      </trkpt>
      <trkpt lat="46.74651" lon="-0.37466">
        <ele>240.684159</ele>
        <time>2014-07-30T08:14:11Z</time>
      </trkpt>
      <trkpt lat="46.74647" lon="-0.37461">
        <ele>240.70194</ele>
        <time>2014-07-30T08:14:13Z</time>
      </trkpt>
      <trkpt lat="46.74645" lon="-0.37454">
        <ele>240.748759</ele>
        <time>2014-07-30T08:14:15Z</time>
      </trkpt>
      <trkpt lat="46.74641" lon="-0.37446">
        <ele>240.920569</ele>
        <time>2014-07-30T08:14:18Z</time>
      </trkpt>
      <trkpt lat="46.74639" lon="-0.37439">
        <ele>241.105024</ele>
        <time>2014-07-30T08:14:20Z</time>
      </trkpt>
      <trkpt lat="46.74636" lon="-0.37432">
        <ele>241.244117</ele>
        <time>2014-07-30T08:14:22Z</time>
      </trkpt>
      <trkpt lat="46.74632" lon="-0.37425">
        <ele>241.458073</ele>
        <time>2014-07-30T08:14:24Z</time>
      </trkpt>
      <trkpt lat="46.74628" lon="-0.37418">
        <ele>241.578448</ele>
        <time>2014-07-30T08:14:26Z</time>
      </trkpt>
      <trkpt lat="46.74625" lon="-0.37411">
        <ele>241.611205</ele>
        <time>2014-07-30T08:14:28Z</time>
      </trkpt>
      <trkpt lat="46.74622" lon="-0.37404">
        <ele>241.448563</ele>
        <time>2014-07-30T08:14:30Z</time>
      </trkpt>
      <trkpt lat="46.74618" lon="-0.37396">
        <ele>241.428705</ele>
        <time>2014-07-30T08:14:32Z</time>
      </trkpt>
      <trkpt lat="46.74615" lon="-0.37391">
        <ele>241.451336</ele>
        <time>2014-07-30T08:14:34Z</time>
      </trkpt>
      <trkpt lat="46.74612" lon="-0.37385">
        <ele>241.401969</ele>
        <time>2014-07-30T08:14:36Z</time>
      </trkpt>
      <trkpt lat="46.74609" lon="-0.37376">
        <ele>241.382198</ele>
        <time>2014-07-30T08:14:38Z</time>
      </trkpt>
      <trkpt lat="46.74606" lon="-0.3737">
        <ele>241.411379</ele>
        <time>2014-07-30T08:14:40Z</time>
      </trkpt>
      <trkpt lat="46.74604" lon="-0.37364">
        <ele>241.555888</ele>
        <time>2014-07-30T08:14:42Z</time>
      </trkpt>
      <trkpt lat="46.74601" lon="-0.37357">
        <ele>241.683586</ele>
        <time>2014-07-30T08:14:44Z</time>
      </trkpt>
      <trkpt lat="46.74599" lon="-0.37351">
        <ele>241.752973</ele>
        <time>2014-07-30T08:14:46Z</time>
      </trkpt>
      <trkpt lat="46.74596" lon="-0.37345">
        <ele>241.874675</ele>
        <time>2014-07-30T08:14:48Z</time>
      </trkpt>
      <trkpt lat="46.74593" lon="-0.37339">
        <ele>241.974049</ele>
        <time>2014-07-30T08:14:50Z</time>
      </trkpt>
      <trkpt lat="46.7459" lon="-0.37333">
        <ele>242.111959</ele>
        <time>2014-07-30T08:14:52Z</time>
      </trkpt>
      <trkpt lat="46.74588" lon="-0.37326">
        <ele>242.255498</ele>
        <time>2014-07-30T08:14:54Z</time>
      </trkpt>
      <trkpt lat="46.74585" lon="-0.3732">
        <ele>242.300354</ele>
        <time>2014-07-30T08:14:56Z</time>
      </trkpt>
      <trkpt lat="46.74581" lon="-0.37313">
        <ele>242.361648</ele>
        <time>2014-07-30T08:14:58Z</time>
      </trkpt>
      <trkpt lat="46.74579" lon="-0.37307">
        <ele>242.422294</ele>
        <time>2014-07-30T08:15:00Z</time>
      </trkpt>
      <trkpt lat="46.74576" lon="-0.37301">
        <ele>242.467386</ele>
        <time>2014-07-30T08:15:02Z</time>
      </trkpt>
      <trkpt lat="46.74573" lon="-0.37295">
        <ele>242.569996</ele>
        <time>2014-07-30T08:15:04Z</time>
      </trkpt>
      <trkpt lat="46.7457" lon="-0.3729">
        <ele>242.643058</ele>
        <time>2014-07-30T08:15:06Z</time>
      </trkpt>
      <trkpt lat="46.74567" lon="-0.37283">
        <ele>242.659304</ele>
        <time>2014-07-30T08:15:08Z</time>
      </trkpt>
      <trkpt lat="46.74564" lon="-0.37277">
        <ele>242.704805</ele>
        <time>2014-07-30T08:15:10Z</time>
      </trkpt>
      <trkpt lat="46.74561" lon="-0.3727">
        <ele>242.838935</ele>
        <time>2014-07-30T08:15:12Z</time>
      </trkpt>
      <trkpt lat="46.74557" lon="-0.37264">
        <ele>242.863909</ele>
        <time>2014-07-30T08:15:14Z</time>
      </trkpt>
      <trkpt lat="46.74554" lon="-0.37257">
        <ele>242.969974</ele>
        <time>2014-07-30T08:15:16Z</time>
      </trkpt>
      <trkpt lat="46.74551" lon="-0.37252">
        <ele>243.016999</ele>
        <time>2014-07-30T08:15:18Z</time>
      </trkpt>
      <trkpt lat="46.74547" lon="-0.37247">
        <ele>243.084704</ele>
        <time>2014-07-30T08:15:20Z</time>
      </trkpt>
      <trkpt lat="46.74544" lon="-0.37241">
        <ele>243.378023</ele>
        <time>2014-07-30T08:15:22Z</time>
      </trkpt>
      <trkpt lat="46.74541" lon="-0.37235">
        <ele>243.684841</ele>
        <time>2014-07-30T08:15:24Z</time>
      </trkpt>
      <trkpt lat="46.74538" lon="-0.3723">
        <ele>243.896199</ele>
        <time>2014-07-30T08:15:26Z</time>
      </trkpt>
      <trkpt lat="46.74535" lon="-0.37224">
        <ele>244.01264</ele>
        <time>2014-07-30T08:15:28Z</time>
      </trkpt>
      <trkpt lat="46.74532" lon="-0.37217">
        <ele>244.15021</ele>
        <time>2014-07-30T08:15:30Z</time>
      </trkpt>
      <trkpt lat="46.74528" lon="-0.37211">
        <ele>244.25342</ele>
        <time>2014-07-30T08:15:32Z</time>
      </trkpt>
      <trkpt lat="46.74525" lon="-0.37206">
        <ele>244.329577</ele>
        <time>2014-07-30T08:15:34Z</time>
      </trkpt>
      <trkpt lat="46.7452" lon="-0.37201">
        <ele>244.384462</ele>
        <time>2014-07-30T08:15:36Z</time>
      </trkpt>
      <trkpt lat="46.74517" lon="-0.37196">
        <ele>244.573232</ele>
        <time>2014-07-30T08:15:38Z</time>
      </trkpt>
      <trkpt lat="46.74512" lon="-0.3719">
        <ele>244.852596</ele>
        <time>2014-07-30T08:15:40Z</time>
      </trkpt>
      <trkpt lat="46.74508" lon="-0.37182">
        <ele>244.892822</ele>
        <time>2014-07-30T08:15:42Z</time>
      </trkpt>
      <trkpt lat="46.74505" lon="-0.37176">
        <ele>244.797339</ele>
        <time>2014-07-30T08:15:44Z</time>
      </trkpt>
      <trkpt lat="46.74502" lon="-0.3717">
        <ele>244.805378</ele>
        <time>2014-07-30T08:15:46Z</time>
      </trkpt>
      <trkpt lat="46.74499" lon="-0.37164">
        <ele>244.947895</ele>
        <time>2014-07-30T08:15:48Z</time>
      </trkpt>
      <trkpt lat="46.74495" lon="-0.37157">
        <ele>245.075365</ele>
        <time>2014-07-30T08:15:50Z</time>
      </trkpt>
      <trkpt lat="46.74491" lon="-0.3715">
        <ele>245.210202</ele>
        <time>2014-07-30T08:15:52Z</time>
      </trkpt>
      <trkpt lat="46.74488" lon="-0.37144">
        <ele>245.340781</ele>
        <time>2014-07-30T08:15:54Z</time>
      </trkpt>
      <trkpt lat="46.74485" lon="-0.37137">
        <ele>245.439483</ele>
        <time>2014-07-30T08:15:56Z</time>
      </trkpt>
      <trkpt lat="46.74481" lon="-0.37131">
        <ele>245.472527</ele>
        <time>2014-07-30T08:15:58Z</time>
      </trkpt>
      <trkpt lat="46.74478" lon="-0.37124">
        <ele>245.599939</ele>
        <time>2014-07-30T08:16:00Z</time>
      </trkpt>
      <trkpt lat="46.74475" lon="-0.37118">
        <ele>245.786413</ele>
        <time>2014-07-30T08:16:02Z</time>
      </trkpt>
      <trkpt lat="46.74472" lon="-0.37112">
        <ele>245.906308</ele>
        <time>2014-07-30T08:16:04Z</time>
      </trkpt>
      <trkpt lat="46.74469" lon="-0.37105">
        <ele>245.801028</ele>
        <time>2014-07-30T08:16:06Z</time>
      </trkpt>
      <trkpt lat="46.74465" lon="-0.37098">
        <ele>245.63057</ele>
        <time>2014-07-30T08:16:08Z</time>
      </trkpt>
      <trkpt lat="46.74462" lon="-0.37092">
        <ele>245.635738</ele>
        <time>2014-07-30T08:16:10Z</time>
      </trkpt>
      <trkpt lat="46.74459" lon="-0.37087">
        <ele>245.668509</ele>
        <time>2014-07-30T08:16:12Z</time>
      </trkpt>
      <trkpt lat="46.74455" lon="-0.37081">
        <ele>245.620912</ele>
        <time>2014-07-30T08:16:14Z</time>
      </trkpt>
      <trkpt lat="46.74451" lon="-0.37076">
        <ele>245.598447</ele>
        <time>2014-07-30T08:16:16Z</time>
      </trkpt>
      <trkpt lat="46.74448" lon="-0.3707">
        <ele>245.543271</ele>
        <time>2014-07-30T08:16:18Z</time>
      </trkpt>
      <trkpt lat="46.74445" lon="-0.37062">
        <ele>245.495786</ele>
        <time>2014-07-30T08:16:21Z</time>
      </trkpt>
      <trkpt lat="46.74442" lon="-0.37055">
        <ele>245.567533</ele>
        <time>2014-07-30T08:16:23Z</time>
      </trkpt>
      <trkpt lat="46.74438" lon="-0.37048">
        <ele>245.540943</ele>
        <time>2014-07-30T08:16:25Z</time>
      </trkpt>
      <trkpt lat="46.74435" lon="-0.37039">
        <ele>245.48954</ele>
        <time>2014-07-30T08:16:27Z</time>
      </trkpt>
      <trkpt lat="46.74431" lon="-0.37031">
        <ele>245.507825</ele>
        <time>2014-07-30T08:16:29Z</time>
      </trkpt>
      <trkpt lat="46.74428" lon="-0.37025">
        <ele>245.560354</ele>
        <time>2014-07-30T08:16:31Z</time>
      </trkpt>
      <trkpt lat="46.74424" lon="-0.37019">
        <ele>245.556529</ele>
        <time>2014-07-30T08:16:33Z</time>
      </trkpt>
      <trkpt lat="46.7442" lon="-0.37013">
        <ele>245.593655</ele>
        <time>2014-07-30T08:16:35Z</time>
      </trkpt>
      <trkpt lat="46.74415" lon="-0.37007">
        <ele>245.612399</ele>
        <time>2014-07-30T08:16:37Z</time>
      </trkpt>
      <trkpt lat="46.74411" lon="-0.37">
        <ele>245.619349</ele>
        <time>2014-07-30T08:16:39Z</time>
      </trkpt>
      <trkpt lat="46.74409" lon="-0.36994">
        <ele>245.524</ele>
        <time>2014-07-30T08:16:41Z</time>
      </trkpt>
      <trkpt lat="46.74406" lon="-0.36988">
        <ele>245.501297</ele>
        <time>2014-07-30T08:16:43Z</time>
      </trkpt>
      <trkpt lat="46.74403" lon="-0.36981">
        <ele>245.408675</ele>
        <time>2014-07-30T08:16:45Z</time>
      </trkpt>
      <trkpt lat="46.744" lon="-0.36975">
        <ele>245.396323</ele>
        <time>2014-07-30T08:16:47Z</time>
      </trkpt>
      <trkpt lat="46.74397" lon="-0.3697">
        <ele>245.385626</ele>
        <time>2014-07-30T08:16:49Z</time>
      </trkpt>
      <trkpt lat="46.74394" lon="-0.36965">
        <ele>245.379725</ele>
        <time>2014-07-30T08:16:51Z</time>
      </trkpt>
      <trkpt lat="46.74391" lon="-0.36958">
        <ele>245.412157</ele>
        <time>2014-07-30T08:16:53Z</time>
      </trkpt>
      <trkpt lat="46.74387" lon="-0.3695">
        <ele>245.442984</ele>
        <time>2014-07-30T08:16:55Z</time>
      </trkpt>
      <trkpt lat="46.74385" lon="-0.36944">
        <ele>245.412506</ele>
        <time>2014-07-30T08:16:57Z</time>
      </trkpt>
      <trkpt lat="46.74382" lon="-0.36938">
        <ele>245.408049</ele>
        <time>2014-07-30T08:16:59Z</time>
      </trkpt>
      <trkpt lat="46.74379" lon="-0.36932">
        <ele>245.428805</ele>
        <time>2014-07-30T08:17:01Z</time>
      </trkpt>
      <trkpt lat="46.74376" lon="-0.36925">
        <ele>245.46136</ele>
        <time>2014-07-30T08:17:03Z</time>
      </trkpt>
      <trkpt lat="46.74372" lon="-0.36918">
        <ele>245.411033</ele>
        <time>2014-07-30T08:17:05Z</time>
      </trkpt>
      <trkpt lat="46.74368" lon="-0.36912">
        <ele>245.399698</ele>
        <time>2014-07-30T08:17:07Z</time>
      </trkpt>
      <trkpt lat="46.74365" lon="-0.36905">
        <ele>245.461794</ele>
        <time>2014-07-30T08:17:09Z</time>
      </trkpt>
      <trkpt lat="46.74362" lon="-0.36899">
        <ele>245.491674</ele>
        <time>2014-07-30T08:17:11Z</time>
      </trkpt>
      <trkpt lat="46.74358" lon="-0.36893">
        <ele>245.541825</ele>
        <time>2014-07-30T08:17:13Z</time>
      </trkpt>
      <trkpt lat="46.74355" lon="-0.36885">
        <ele>245.614065</ele>
        <time>2014-07-30T08:17:16Z</time>
      </trkpt>
      <trkpt lat="46.74352" lon="-0.36879">
        <ele>245.742191</ele>
        <time>2014-07-30T08:17:18Z</time>
      </trkpt>
      <trkpt lat="46.74349" lon="-0.36873">
        <ele>245.936364</ele>
        <time>2014-07-30T08:17:20Z</time>
      </trkpt>
      <trkpt lat="46.74346" lon="-0.36866">
        <ele>246.09685</ele>
        <time>2014-07-30T08:17:22Z</time>
      </trkpt>
      <trkpt lat="46.74342" lon="-0.36859">
        <ele>246.114166</ele>
        <time>2014-07-30T08:17:24Z</time>
      </trkpt>
      <trkpt lat="46.74338" lon="-0.3685">
        <ele>246.058782</ele>
        <time>2014-07-30T08:17:26Z</time>
      </trkpt>
      <trkpt lat="46.74333" lon="-0.36841">
        <ele>246.086178</ele>
        <time>2014-07-30T08:17:28Z</time>
      </trkpt>
      <trkpt lat="46.74329" lon="-0.36836">
        <ele>246.124245</ele>
        <time>2014-07-30T08:17:30Z</time>
      </trkpt>
      <trkpt lat="46.74326" lon="-0.36829">
        <ele>246.083395</ele>
        <time>2014-07-30T08:17:32Z</time>
      </trkpt>
      <trkpt lat="46.74323" lon="-0.36821">
        <ele>246.038807</ele>
        <time>2014-07-30T08:17:34Z</time>
      </trkpt>
      <trkpt lat="46.7432" lon="-0.36814">
        <ele>246.042253</ele>
        <time>2014-07-30T08:17:36Z</time>
      </trkpt>
      <trkpt lat="46.74319" lon="-0.36806">
        <ele>246.17717</ele>
        <time>2014-07-30T08:17:38Z</time>
      </trkpt>
      <trkpt lat="46.74318" lon="-0.36798">
        <ele>246.166616</ele>
        <time>2014-07-30T08:17:40Z</time>
      </trkpt>
      <trkpt lat="46.74318" lon="-0.36789">
        <ele>246.11284</ele>
        <time>2014-07-30T08:17:42Z</time>
      </trkpt>
      <trkpt lat="46.74318" lon="-0.36779">
        <ele>245.935505</ele>
        <time>2014-07-30T08:17:44Z</time>
      </trkpt>
      <trkpt lat="46.74318" lon="-0.36771">
        <ele>245.829787</ele>
        <time>2014-07-30T08:17:46Z</time>
      </trkpt>
      <trkpt lat="46.7432" lon="-0.36763">
        <ele>245.659329</ele>
        <time>2014-07-30T08:17:48Z</time>
      </trkpt>
      <trkpt lat="46.74323" lon="-0.36755">
        <ele>245.312224</ele>
        <time>2014-07-30T08:17:50Z</time>
      </trkpt>
      <trkpt lat="46.74325" lon="-0.36747">
        <ele>245.001675</ele>
        <time>2014-07-30T08:17:52Z</time>
      </trkpt>
      <trkpt lat="46.74327" lon="-0.36738">
        <ele>244.752461</ele>
        <time>2014-07-30T08:17:54Z</time>
      </trkpt>
      <trkpt lat="46.7433" lon="-0.36728">
        <ele>244.589792</ele>
        <time>2014-07-30T08:17:56Z</time>
      </trkpt>
      <trkpt lat="46.74332" lon="-0.3672">
        <ele>244.384918</ele>
        <time>2014-07-30T08:17:58Z</time>
      </trkpt>
      <trkpt lat="46.74334" lon="-0.36711">
        <ele>244.102144</ele>
        <time>2014-07-30T08:18:01Z</time>
      </trkpt>
      <trkpt lat="46.74336" lon="-0.36702">
        <ele>243.791056</ele>
        <time>2014-07-30T08:18:04Z</time>
      </trkpt>
      <trkpt lat="46.74338" lon="-0.36695">
        <ele>243.557883</ele>
        <time>2014-07-30T08:18:06Z</time>
      </trkpt>
      <trkpt lat="46.7434" lon="-0.36688">
        <ele>243.282089</ele>
        <time>2014-07-30T08:18:08Z</time>
      </trkpt>
      <trkpt lat="46.74342" lon="-0.36681">
        <ele>243.135119</ele>
        <time>2014-07-30T08:18:10Z</time>
      </trkpt>
      <trkpt lat="46.74343" lon="-0.36675">
        <ele>242.981518</ele>
        <time>2014-07-30T08:18:12Z</time>
      </trkpt>
      <trkpt lat="46.74345" lon="-0.36668">
        <ele>242.816283</ele>
        <time>2014-07-30T08:18:14Z</time>
      </trkpt>
      <trkpt lat="46.74346" lon="-0.36661">
        <ele>242.705909</ele>
        <time>2014-07-30T08:18:16Z</time>
      </trkpt>
      <trkpt lat="46.74348" lon="-0.36653">
        <ele>242.719663</ele>
        <time>2014-07-30T08:18:18Z</time>
      </trkpt>
      <trkpt lat="46.7435" lon="-0.36646">
        <ele>242.773701</ele>
        <time>2014-07-30T08:18:20Z</time>
      </trkpt>
      <trkpt lat="46.74351" lon="-0.36638">
        <ele>242.698618</ele>
        <time>2014-07-30T08:18:22Z</time>
      </trkpt>
      <trkpt lat="46.74352" lon="-0.36631">
        <ele>242.549506</ele>
        <time>2014-07-30T08:18:24Z</time>
      </trkpt>
      <trkpt lat="46.74354" lon="-0.36623">
        <ele>242.407367</ele>
        <time>2014-07-30T08:18:26Z</time>
      </trkpt>
      <trkpt lat="46.74355" lon="-0.36615">
        <ele>242.483194</ele>
        <time>2014-07-30T08:18:28Z</time>
      </trkpt>
      <trkpt lat="46.74356" lon="-0.36607">
        <ele>242.619577</ele>
        <time>2014-07-30T08:18:30Z</time>
      </trkpt>
      <trkpt lat="46.74356" lon="-0.36599">
        <ele>242.762139</ele>
        <time>2014-07-30T08:18:32Z</time>
      </trkpt>
      <trkpt lat="46.74356" lon="-0.3659">
        <ele>242.975829</ele>
        <time>2014-07-30T08:18:34Z</time>
      </trkpt>
      <trkpt lat="46.74356" lon="-0.36581">
        <ele>243.164075</ele>
        <time>2014-07-30T08:18:36Z</time>
      </trkpt>
      <trkpt lat="46.74357" lon="-0.36573">
        <ele>243.296476</ele>
        <time>2014-07-30T08:18:38Z</time>
      </trkpt>
      <trkpt lat="46.74357" lon="-0.36565">
        <ele>243.349028</ele>
        <time>2014-07-30T08:18:40Z</time>
      </trkpt>
      <trkpt lat="46.74358" lon="-0.36559">
        <ele>243.293133</ele>
        <time>2014-07-30T08:18:42Z</time>
      </trkpt>
      <trkpt lat="46.74359" lon="-0.36552">
        <ele>243.198001</ele>
        <time>2014-07-30T08:18:44Z</time>
      </trkpt>
      <trkpt lat="46.74361" lon="-0.36544">
        <ele>243.18825</ele>
        <time>2014-07-30T08:18:46Z</time>
      </trkpt>
      <trkpt lat="46.74362" lon="-0.36536">
        <ele>243.076487</ele>
        <time>2014-07-30T08:18:48Z</time>
      </trkpt>
      <trkpt lat="46.74364" lon="-0.36528">
        <ele>243.045146</ele>
        <time>2014-07-30T08:18:50Z</time>
      </trkpt>
      <trkpt lat="46.74365" lon="-0.36519">
        <ele>243.076998</ele>
        <time>2014-07-30T08:18:52Z</time>
      </trkpt>
      <trkpt lat="46.74367" lon="-0.3651">
        <ele>243.22541</ele>
        <time>2014-07-30T08:18:54Z</time>
      </trkpt>
      <trkpt lat="46.74368" lon="-0.36501">
        <ele>243.267706</ele>
        <time>2014-07-30T08:18:56Z</time>
      </trkpt>
      <trkpt lat="46.7437" lon="-0.36493">
        <ele>243.392362</ele>
        <time>2014-07-30T08:18:58Z</time>
      </trkpt>
      <trkpt lat="46.74372" lon="-0.36485">
        <ele>243.48006</ele>
        <time>2014-07-30T08:19:00Z</time>
      </trkpt>
      <trkpt lat="46.74373" lon="-0.36477">
        <ele>243.691556</ele>
        <time>2014-07-30T08:19:02Z</time>
      </trkpt>
      <trkpt lat="46.74375" lon="-0.3647">
        <ele>244.10045</ele>
        <time>2014-07-30T08:19:04Z</time>
      </trkpt>
      <trkpt lat="46.74377" lon="-0.36463">
        <ele>244.39556</ele>
        <time>2014-07-30T08:19:06Z</time>
      </trkpt>
      <trkpt lat="46.74378" lon="-0.36455">
        <ele>244.534653</ele>
        <time>2014-07-30T08:19:08Z</time>
      </trkpt>
      <trkpt lat="46.7438" lon="-0.36447">
        <ele>244.812208</ele>
        <time>2014-07-30T08:19:10Z</time>
      </trkpt>
      <trkpt lat="46.74382" lon="-0.36439">
        <ele>245.010544</ele>
        <time>2014-07-30T08:19:12Z</time>
      </trkpt>
      <trkpt lat="46.74383" lon="-0.36432">
        <ele>245.346191</ele>
        <time>2014-07-30T08:19:14Z</time>
      </trkpt>
      <trkpt lat="46.74384" lon="-0.36423">
        <ele>245.58647</ele>
        <time>2014-07-30T08:19:16Z</time>
      </trkpt>
      <trkpt lat="46.74383" lon="-0.36416">
        <ele>245.69764</ele>
        <time>2014-07-30T08:19:18Z</time>
      </trkpt>
      <trkpt lat="46.74382" lon="-0.36409">
        <ele>245.846367</ele>
        <time>2014-07-30T08:19:20Z</time>
      </trkpt>
      <trkpt lat="46.74379" lon="-0.36402">
        <ele>245.92341</ele>
        <time>2014-07-30T08:19:22Z</time>
      </trkpt>
      <trkpt lat="46.74374" lon="-0.36395">
        <ele>245.934865</ele>
        <time>2014-07-30T08:19:24Z</time>
      </trkpt>
      <trkpt lat="46.74368" lon="-0.36392">
        <ele>246.056501</ele>
        <time>2014-07-30T08:19:26Z</time>
      </trkpt>
      <trkpt lat="46.74363" lon="-0.36389">
        <ele>246.189635</ele>
        <time>2014-07-30T08:19:28Z</time>
      </trkpt>
      <trkpt lat="46.74357" lon="-0.36387">
        <ele>246.385631</ele>
        <time>2014-07-30T08:19:30Z</time>
      </trkpt>
      <trkpt lat="46.74352" lon="-0.36385">
        <ele>246.555701</ele>
        <time>2014-07-30T08:19:32Z</time>
      </trkpt>
      <trkpt lat="46.74346" lon="-0.36382">
        <ele>246.731895</ele>
        <time>2014-07-30T08:19:34Z</time>
      </trkpt>
      <trkpt lat="46.74341" lon="-0.36381">
        <ele>246.906713</ele>
        <time>2014-07-30T08:19:36Z</time>
      </trkpt>
      <trkpt lat="46.74335" lon="-0.36381">
        <ele>246.97135</ele>
        <time>2014-07-30T08:19:38Z</time>
      </trkpt>
      <trkpt lat="46.7433" lon="-0.3638">
        <ele>247.131124</ele>
        <time>2014-07-30T08:19:40Z</time>
      </trkpt>
      <trkpt lat="46.74324" lon="-0.36378">
        <ele>247.355252</ele>
        <time>2014-07-30T08:19:42Z</time>
      </trkpt>
      <trkpt lat="46.74319" lon="-0.36377">
        <ele>247.507629</ele>
        <time>2014-07-30T08:19:44Z</time>
      </trkpt>
      <trkpt lat="46.74313" lon="-0.36375">
        <ele>247.560937</ele>
        <time>2014-07-30T08:19:46Z</time>
      </trkpt>
      <trkpt lat="46.74308" lon="-0.36373">
        <ele>247.665101</ele>
        <time>2014-07-30T08:19:48Z</time>
      </trkpt>
      <trkpt lat="46.74302" lon="-0.36371">
        <ele>247.677491</ele>
        <time>2014-07-30T08:19:50Z</time>
      </trkpt>
      <trkpt lat="46.74297" lon="-0.36369">
        <ele>247.785501</ele>
        <time>2014-07-30T08:19:52Z</time>
      </trkpt>
      <trkpt lat="46.7429" lon="-0.36366">
        <ele>247.923843</ele>
        <time>2014-07-30T08:19:54Z</time>
      </trkpt>
      <trkpt lat="46.74283" lon="-0.36363">
        <ele>248.028934</ele>
        <time>2014-07-30T08:19:56Z</time>
      </trkpt>
      <trkpt lat="46.74278" lon="-0.3636">
        <ele>248.078963</ele>
        <time>2014-07-30T08:19:58Z</time>
      </trkpt>
      <trkpt lat="46.74272" lon="-0.36357">
        <ele>248.062542</ele>
        <time>2014-07-30T08:20:00Z</time>
      </trkpt>
      <trkpt lat="46.74266" lon="-0.36356">
        <ele>248.109027</ele>
        <time>2014-07-30T08:20:02Z</time>
      </trkpt>
      <trkpt lat="46.74262" lon="-0.36356">
        <ele>248.269972</ele>
        <time>2014-07-30T08:20:04Z</time>
      </trkpt>
      <trkpt lat="46.74257" lon="-0.36355">
        <ele>248.358688</ele>
        <time>2014-07-30T08:20:06Z</time>
      </trkpt>
      <trkpt lat="46.74252" lon="-0.36354">
        <ele>248.438043</ele>
        <time>2014-07-30T08:20:08Z</time>
      </trkpt>
      <trkpt lat="46.74247" lon="-0.36353">
        <ele>248.568518</ele>
        <time>2014-07-30T08:20:10Z</time>
      </trkpt>
      <trkpt lat="46.74241" lon="-0.36352">
        <ele>248.683051</ele>
        <time>2014-07-30T08:20:12Z</time>
      </trkpt>
      <trkpt lat="46.74236" lon="-0.36352">
        <ele>248.898091</ele>
        <time>2014-07-30T08:20:14Z</time>
      </trkpt>
      <trkpt lat="46.7423" lon="-0.36351">
        <ele>249.182769</ele>
        <time>2014-07-30T08:20:16Z</time>
      </trkpt>
      <trkpt lat="46.74224" lon="-0.3635">
        <ele>249.459475</ele>
        <time>2014-07-30T08:20:18Z</time>
      </trkpt>
      <trkpt lat="46.74217" lon="-0.36348">
        <ele>249.566168</ele>
        <time>2014-07-30T08:20:20Z</time>
      </trkpt>
      <trkpt lat="46.7421" lon="-0.36347">
        <ele>249.703148</ele>
        <time>2014-07-30T08:20:22Z</time>
      </trkpt>
      <trkpt lat="46.74203" lon="-0.36346">
        <ele>249.852736</ele>
        <time>2014-07-30T08:20:24Z</time>
      </trkpt>
      <trkpt lat="46.74198" lon="-0.36345">
        <ele>250.035507</ele>
        <time>2014-07-30T08:20:26Z</time>
      </trkpt>
      <trkpt lat="46.74191" lon="-0.36345">
        <ele>250.332418</ele>
        <time>2014-07-30T08:20:29Z</time>
      </trkpt>
      <trkpt lat="46.74186" lon="-0.36344">
        <ele>250.44031</ele>
        <time>2014-07-30T08:20:31Z</time>
      </trkpt>
      <trkpt lat="46.74181" lon="-0.36343">
        <ele>250.666521</ele>
        <time>2014-07-30T08:20:33Z</time>
      </trkpt>
      <trkpt lat="46.74175" lon="-0.36343">
        <ele>250.801006</ele>
        <time>2014-07-30T08:20:35Z</time>
      </trkpt>
      <trkpt lat="46.74169" lon="-0.36342">
        <ele>250.916127</ele>
        <time>2014-07-30T08:20:37Z</time>
      </trkpt>
      <trkpt lat="46.74163" lon="-0.36341">
        <ele>250.942812</ele>
        <time>2014-07-30T08:20:39Z</time>
      </trkpt>
      <trkpt lat="46.74157" lon="-0.36339">
        <ele>250.871267</ele>
        <time>2014-07-30T08:20:41Z</time>
      </trkpt>
      <trkpt lat="46.74152" lon="-0.36337">
        <ele>250.957153</ele>
        <time>2014-07-30T08:20:43Z</time>
      </trkpt>
      <trkpt lat="46.74146" lon="-0.36335">
        <ele>251.091167</ele>
        <time>2014-07-30T08:20:45Z</time>
      </trkpt>
      <trkpt lat="46.7414" lon="-0.36333">
        <ele>251.227569</ele>
        <time>2014-07-30T08:20:47Z</time>
      </trkpt>
      <trkpt lat="46.74134" lon="-0.3633">
        <ele>251.40678</ele>
        <time>2014-07-30T08:20:49Z</time>
      </trkpt>
      <trkpt lat="46.74128" lon="-0.36328">
        <ele>251.490432</ele>
        <time>2014-07-30T08:20:51Z</time>
      </trkpt>
      <trkpt lat="46.74121" lon="-0.36325">
        <ele>251.584204</ele>
        <time>2014-07-30T08:20:53Z</time>
      </trkpt>
      <trkpt lat="46.74116" lon="-0.36322">
        <ele>251.667738</ele>
        <time>2014-07-30T08:20:55Z</time>
      </trkpt>
      <trkpt lat="46.7411" lon="-0.36319">
        <ele>251.658508</ele>
        <time>2014-07-30T08:20:57Z</time>
      </trkpt>
      <trkpt lat="46.74105" lon="-0.36316">
        <ele>251.699261</ele>
        <time>2014-07-30T08:20:59Z</time>
      </trkpt>
      <trkpt lat="46.74101" lon="-0.36314">
        <ele>251.761773</ele>
        <time>2014-07-30T08:21:01Z</time>
      </trkpt>
      <trkpt lat="46.74095" lon="-0.36311">
        <ele>251.805893</ele>
        <time>2014-07-30T08:21:03Z</time>
      </trkpt>
      <trkpt lat="46.7409" lon="-0.36309">
        <ele>251.898437</ele>
        <time>2014-07-30T08:21:05Z</time>
      </trkpt>
      <trkpt lat="46.74085" lon="-0.36306">
        <ele>252.027043</ele>
        <time>2014-07-30T08:21:07Z</time>
      </trkpt>
      <trkpt lat="46.7408" lon="-0.36303">
        <ele>252.172783</ele>
        <time>2014-07-30T08:21:09Z</time>
      </trkpt>
      <trkpt lat="46.74073" lon="-0.363">
        <ele>252.29523</ele>
        <time>2014-07-30T08:21:11Z</time>
      </trkpt>
      <trkpt lat="46.74067" lon="-0.36297">
        <ele>252.394779</ele>
        <time>2014-07-30T08:21:13Z</time>
      </trkpt>
      <trkpt lat="46.74061" lon="-0.36294">
        <ele>252.486762</ele>
        <time>2014-07-30T08:21:15Z</time>
      </trkpt>
      <trkpt lat="46.74056" lon="-0.36291">
        <ele>252.495806</ele>
        <time>2014-07-30T08:21:17Z</time>
      </trkpt>
      <trkpt lat="46.7405" lon="-0.36288">
        <ele>252.646544</ele>
        <time>2014-07-30T08:21:20Z</time>
      </trkpt>
      <trkpt lat="46.74045" lon="-0.36283">
        <ele>252.703396</ele>
        <time>2014-07-30T08:21:22Z</time>
      </trkpt>
      <trkpt lat="46.74039" lon="-0.36279">
        <ele>252.657644</ele>
        <time>2014-07-30T08:21:24Z</time>
      </trkpt>
      <trkpt lat="46.74035" lon="-0.36275">
        <ele>252.680194</ele>
        <time>2014-07-30T08:21:26Z</time>
      </trkpt>
      <trkpt lat="46.7403" lon="-0.36271">
        <ele>252.7382</ele>
        <time>2014-07-30T08:21:28Z</time>
      </trkpt>
      <trkpt lat="46.74026" lon="-0.36266">
        <ele>252.704665</ele>
        <time>2014-07-30T08:21:30Z</time>
      </trkpt>
      <trkpt lat="46.74021" lon="-0.36261">
        <ele>252.554977</ele>
        <time>2014-07-30T08:21:32Z</time>
      </trkpt>
      <trkpt lat="46.74015" lon="-0.36256">
        <ele>252.541719</ele>
        <time>2014-07-30T08:21:34Z</time>
      </trkpt>
      <trkpt lat="46.7401" lon="-0.36252">
        <ele>252.556013</ele>
        <time>2014-07-30T08:21:36Z</time>
      </trkpt>
      <trkpt lat="46.74004" lon="-0.36246">
        <ele>252.373484</ele>
        <time>2014-07-30T08:21:38Z</time>
      </trkpt>
      <trkpt lat="46.73999" lon="-0.36241">
        <ele>252.148095</ele>
        <time>2014-07-30T08:21:40Z</time>
      </trkpt>
      <trkpt lat="46.73994" lon="-0.36237">
        <ele>252.004469</ele>
        <time>2014-07-30T08:21:42Z</time>
      </trkpt>
      <trkpt lat="46.73988" lon="-0.36232">
        <ele>251.84337</ele>
        <time>2014-07-30T08:21:44Z</time>
      </trkpt>
      <trkpt lat="46.73984" lon="-0.36229">
        <ele>251.692839</ele>
        <time>2014-07-30T08:21:46Z</time>
      </trkpt>
      <trkpt lat="46.73979" lon="-0.36224">
        <ele>251.512281</ele>
        <time>2014-07-30T08:21:48Z</time>
      </trkpt>
      <trkpt lat="46.73975" lon="-0.3622">
        <ele>251.375291</ele>
        <time>2014-07-30T08:21:50Z</time>
      </trkpt>
      <trkpt lat="46.7397" lon="-0.36215">
        <ele>251.304289</ele>
        <time>2014-07-30T08:21:52Z</time>
      </trkpt>
      <trkpt lat="46.73965" lon="-0.36209">
        <ele>251.244831</ele>
        <time>2014-07-30T08:21:54Z</time>
      </trkpt>
      <trkpt lat="46.73959" lon="-0.36204">
        <ele>251.089034</ele>
        <time>2014-07-30T08:21:56Z</time>
      </trkpt>
      <trkpt lat="46.73954" lon="-0.362">
        <ele>250.836174</ele>
        <time>2014-07-30T08:21:58Z</time>
      </trkpt>
      <trkpt lat="46.73949" lon="-0.36195">
        <ele>250.583725</ele>
        <time>2014-07-30T08:22:00Z</time>
      </trkpt>
      <trkpt lat="46.73943" lon="-0.3619">
        <ele>250.49479</ele>
        <time>2014-07-30T08:22:02Z</time>
      </trkpt>
      <trkpt lat="46.73939" lon="-0.36187">
        <ele>250.223723</ele>
        <time>2014-07-30T08:22:04Z</time>
      </trkpt>
      <trkpt lat="46.73935" lon="-0.36183">
        <ele>250.087671</ele>
        <time>2014-07-30T08:22:06Z</time>
      </trkpt>
      <trkpt lat="46.73929" lon="-0.36178">
        <ele>250.034314</ele>
        <time>2014-07-30T08:22:08Z</time>
      </trkpt>
      <trkpt lat="46.73923" lon="-0.36173">
        <ele>249.80415</ele>
        <time>2014-07-30T08:22:11Z</time>
      </trkpt>
      <trkpt lat="46.73918" lon="-0.36168">
        <ele>249.600774</ele>
        <time>2014-07-30T08:22:13Z</time>
      </trkpt>
      <trkpt lat="46.73913" lon="-0.36163">
        <ele>249.559448</ele>
        <time>2014-07-30T08:22:15Z</time>
      </trkpt>
      <trkpt lat="46.73908" lon="-0.36159">
        <ele>249.532882</ele>
        <time>2014-07-30T08:22:17Z</time>
      </trkpt>
      <trkpt lat="46.73904" lon="-0.36153">
        <ele>249.564996</ele>
        <time>2014-07-30T08:22:19Z</time>
      </trkpt>
      <trkpt lat="46.73899" lon="-0.36148">
        <ele>249.526121</ele>
        <time>2014-07-30T08:22:21Z</time>
      </trkpt>
      <trkpt lat="46.73894" lon="-0.36142">
        <ele>249.419383</ele>
        <time>2014-07-30T08:22:23Z</time>
      </trkpt>
      <trkpt lat="46.73889" lon="-0.36136">
        <ele>249.191562</ele>
        <time>2014-07-30T08:22:25Z</time>
      </trkpt>
      <trkpt lat="46.73885" lon="-0.3613">
        <ele>249.096444</ele>
        <time>2014-07-30T08:22:27Z</time>
      </trkpt>
      <trkpt lat="46.7388" lon="-0.36123">
        <ele>248.852399</ele>
        <time>2014-07-30T08:22:29Z</time>
      </trkpt>
      <trkpt lat="46.73875" lon="-0.36116">
        <ele>248.629562</ele>
        <time>2014-07-30T08:22:31Z</time>
      </trkpt>
      <trkpt lat="46.73871" lon="-0.3611">
        <ele>248.437273</ele>
        <time>2014-07-30T08:22:33Z</time>
      </trkpt>
      <trkpt lat="46.73867" lon="-0.36104">
        <ele>248.308218</ele>
        <time>2014-07-30T08:22:35Z</time>
      </trkpt>
      <trkpt lat="46.73862" lon="-0.36097">
        <ele>248.24152</ele>
        <time>2014-07-30T08:22:37Z</time>
      </trkpt>
      <trkpt lat="46.73858" lon="-0.36091">
        <ele>248.161305</ele>
        <time>2014-07-30T08:22:39Z</time>
      </trkpt>
      <trkpt lat="46.73854" lon="-0.36085">
        <ele>247.897926</ele>
        <time>2014-07-30T08:22:41Z</time>
      </trkpt>
      <trkpt lat="46.7385" lon="-0.36081">
        <ele>247.657496</ele>
        <time>2014-07-30T08:22:43Z</time>
      </trkpt>
      <trkpt lat="46.73846" lon="-0.36075">
        <ele>247.421007</ele>
        <time>2014-07-30T08:22:45Z</time>
      </trkpt>
      <trkpt lat="46.73842" lon="-0.36069">
        <ele>247.256662</ele>
        <time>2014-07-30T08:22:47Z</time>
      </trkpt>
      <trkpt lat="46.73837" lon="-0.36063">
        <ele>247.082843</ele>
        <time>2014-07-30T08:22:49Z</time>
      </trkpt>
      <trkpt lat="46.73833" lon="-0.36056">
        <ele>246.864695</ele>
        <time>2014-07-30T08:22:51Z</time>
      </trkpt>
      <trkpt lat="46.73827" lon="-0.36049">
        <ele>246.590067</ele>
        <time>2014-07-30T08:22:53Z</time>
      </trkpt>
      <trkpt lat="46.73822" lon="-0.36042">
        <ele>246.340014</ele>
        <time>2014-07-30T08:22:55Z</time>
      </trkpt>
      <trkpt lat="46.73817" lon="-0.36035">
        <ele>246.124899</ele>
        <time>2014-07-30T08:22:58Z</time>
      </trkpt>
      <trkpt lat="46.73813" lon="-0.3603">
        <ele>246.057813</ele>
        <time>2014-07-30T08:23:00Z</time>
      </trkpt>
      <trkpt lat="46.73808" lon="-0.36023">
        <ele>245.906225</ele>
        <time>2014-07-30T08:23:02Z</time>
      </trkpt>
      <trkpt lat="46.73803" lon="-0.36017">
        <ele>245.814315</ele>
        <time>2014-07-30T08:23:04Z</time>
      </trkpt>
      <trkpt lat="46.73798" lon="-0.36011">
        <ele>245.761243</ele>
        <time>2014-07-30T08:23:06Z</time>
      </trkpt>
      <trkpt lat="46.73794" lon="-0.36005">
        <ele>245.608308</ele>
        <time>2014-07-30T08:23:08Z</time>
      </trkpt>
      <trkpt lat="46.7379" lon="-0.36001">
        <ele>245.413866</ele>
        <time>2014-07-30T08:23:10Z</time>
      </trkpt>
      <trkpt lat="46.73786" lon="-0.35996">
        <ele>245.32853</ele>
        <time>2014-07-30T08:23:12Z</time>
      </trkpt>
      <trkpt lat="46.73782" lon="-0.3599">
        <ele>245.308806</ele>
        <time>2014-07-30T08:23:14Z</time>
      </trkpt>
      <trkpt lat="46.73776" lon="-0.35984">
        <ele>245.32686</ele>
        <time>2014-07-30T08:23:16Z</time>
      </trkpt>
      <trkpt lat="46.73771" lon="-0.35979">
        <ele>245.232494</ele>
        <time>2014-07-30T08:23:18Z</time>
      </trkpt>
      <trkpt lat="46.73766" lon="-0.35975">
        <ele>245.084932</ele>
        <time>2014-07-30T08:23:20Z</time>
      </trkpt>
      <trkpt lat="46.73761" lon="-0.35969">
        <ele>245.124984</ele>
        <time>2014-07-30T08:23:22Z</time>
      </trkpt>
      <trkpt lat="46.73757" lon="-0.35964">
        <ele>245.0764</ele>
        <time>2014-07-30T08:23:24Z</time>
      </trkpt>
      <trkpt lat="46.73752" lon="-0.3596">
        <ele>244.995729</ele>
        <time>2014-07-30T08:23:26Z</time>
      </trkpt>
      <trkpt lat="46.73748" lon="-0.35955">
        <ele>244.958666</ele>
        <time>2014-07-30T08:23:28Z</time>
      </trkpt>
      <trkpt lat="46.73744" lon="-0.35951">
        <ele>244.852833</ele>
        <time>2014-07-30T08:23:30Z</time>
      </trkpt>
      <trkpt lat="46.73738" lon="-0.35945">
        <ele>244.71028</ele>
        <time>2014-07-30T08:23:32Z</time>
      </trkpt>
      <trkpt lat="46.73733" lon="-0.35939">
        <ele>244.627797</ele>
        <time>2014-07-30T08:23:34Z</time>
      </trkpt>
      <trkpt lat="46.73728" lon="-0.35934">
        <ele>244.58974</ele>
        <time>2014-07-30T08:23:36Z</time>
      </trkpt>
      <trkpt lat="46.73723" lon="-0.35929">
        <ele>244.512845</ele>
        <time>2014-07-30T08:23:38Z</time>
      </trkpt>
      <trkpt lat="46.73718" lon="-0.35923">
        <ele>244.462616</ele>
        <time>2014-07-30T08:23:40Z</time>
      </trkpt>
      <trkpt lat="46.73713" lon="-0.35918">
        <ele>244.275712</ele>
        <time>2014-07-30T08:23:42Z</time>
      </trkpt>
      <trkpt lat="46.73708" lon="-0.35913">
        <ele>244.236635</ele>
        <time>2014-07-30T08:23:44Z</time>
      </trkpt>
      <trkpt lat="46.73703" lon="-0.35907">
        <ele>244.31416</ele>
        <time>2014-07-30T08:23:46Z</time>
      </trkpt>
      <trkpt lat="46.73699" lon="-0.35902">
        <ele>244.262221</ele>
        <time>2014-07-30T08:23:48Z</time>
      </trkpt>
      <trkpt lat="46.73695" lon="-0.35896">
        <ele>244.183972</ele>
        <time>2014-07-30T08:23:50Z</time>
      </trkpt>
      <trkpt lat="46.73691" lon="-0.3589">
        <ele>243.983333</ele>
        <time>2014-07-30T08:23:52Z</time>
      </trkpt>
      <trkpt lat="46.73686" lon="-0.35885">
        <ele>243.796315</ele>
        <time>2014-07-30T08:23:54Z</time>
      </trkpt>
      <trkpt lat="46.73682" lon="-0.35878">
        <ele>243.696983</ele>
        <time>2014-07-30T08:23:56Z</time>
      </trkpt>
      <trkpt lat="46.73678" lon="-0.35871">
        <ele>243.593209</ele>
        <time>2014-07-30T08:23:58Z</time>
      </trkpt>
      <trkpt lat="46.73675" lon="-0.35865">
        <ele>243.425433</ele>
        <time>2014-07-30T08:24:00Z</time>
      </trkpt>
      <trkpt lat="46.73669" lon="-0.35858">
        <ele>243.300747</ele>
        <time>2014-07-30T08:24:02Z</time>
      </trkpt>
      <trkpt lat="46.73665" lon="-0.35853">
        <ele>243.157956</ele>
        <time>2014-07-30T08:24:04Z</time>
      </trkpt>
      <trkpt lat="46.73661" lon="-0.35848">
        <ele>242.948859</ele>
        <time>2014-07-30T08:24:06Z</time>
      </trkpt>
      <trkpt lat="46.73656" lon="-0.35842">
        <ele>242.792991</ele>
        <time>2014-07-30T08:24:08Z</time>
      </trkpt>
      <trkpt lat="46.7365" lon="-0.35835">
        <ele>242.708498</ele>
        <time>2014-07-30T08:24:10Z</time>
      </trkpt>
      <trkpt lat="46.73646" lon="-0.35829">
        <ele>242.577712</ele>
        <time>2014-07-30T08:24:12Z</time>
      </trkpt>
      <trkpt lat="46.73642" lon="-0.35823">
        <ele>242.464968</ele>
        <time>2014-07-30T08:24:14Z</time>
      </trkpt>
      <trkpt lat="46.73638" lon="-0.35816">
        <ele>242.328924</ele>
        <time>2014-07-30T08:24:16Z</time>
      </trkpt>
      <trkpt lat="46.73633" lon="-0.35809">
        <ele>242.300515</ele>
        <time>2014-07-30T08:24:18Z</time>
      </trkpt>
      <trkpt lat="46.7363" lon="-0.35802">
        <ele>242.201034</ele>
        <time>2014-07-30T08:24:20Z</time>
      </trkpt>
      <trkpt lat="46.73626" lon="-0.35796">
        <ele>242.05587</ele>
        <time>2014-07-30T08:24:22Z</time>
      </trkpt>
      <trkpt lat="46.73622" lon="-0.3579">
        <ele>241.943566</ele>
        <time>2014-07-30T08:24:24Z</time>
      </trkpt>
      <trkpt lat="46.73618" lon="-0.35784">
        <ele>241.76274</ele>
        <time>2014-07-30T08:24:26Z</time>
      </trkpt>
      <trkpt lat="46.73613" lon="-0.3578">
        <ele>241.630996</ele>
        <time>2014-07-30T08:24:28Z</time>
      </trkpt>
      <trkpt lat="46.73607" lon="-0.35777">
        <ele>241.556522</ele>
        <time>2014-07-30T08:24:30Z</time>
      </trkpt>
      <trkpt lat="46.73601" lon="-0.35779">
        <ele>241.420987</ele>
        <time>2014-07-30T08:24:32Z</time>
      </trkpt>
      <trkpt lat="46.73597" lon="-0.35787">
        <ele>241.196122</ele>
        <time>2014-07-30T08:24:34Z</time>
      </trkpt>
      <trkpt lat="46.73594" lon="-0.35797">
        <ele>241.051461</ele>
        <time>2014-07-30T08:24:36Z</time>
      </trkpt>
      <trkpt lat="46.73592" lon="-0.35808">
        <ele>240.824542</ele>
        <time>2014-07-30T08:24:38Z</time>
      </trkpt>
      <trkpt lat="46.73591" lon="-0.35816">
        <ele>240.521013</ele>
        <time>2014-07-30T08:24:40Z</time>
      </trkpt>
      <trkpt lat="46.73592" lon="-0.35823">
        <ele>240.190706</ele>
        <time>2014-07-30T08:24:42Z</time>
      </trkpt>
      <trkpt lat="46.73592" lon="-0.35834">
        <ele>239.818508</ele>
        <time>2014-07-30T08:24:44Z</time>
      </trkpt>
      <trkpt lat="46.73592" lon="-0.35845">
        <ele>239.495868</ele>
        <time>2014-07-30T08:24:46Z</time>
      </trkpt>
      <trkpt lat="46.73593" lon="-0.35853">
        <ele>239.171683</ele>
        <time>2014-07-30T08:24:48Z</time>
      </trkpt>
      <trkpt lat="46.73593" lon="-0.35862">
        <ele>238.878606</ele>
        <time>2014-07-30T08:24:50Z</time>
      </trkpt>
      <trkpt lat="46.73594" lon="-0.35871">
        <ele>238.581834</ele>
        <time>2014-07-30T08:24:52Z</time>
      </trkpt>
      <trkpt lat="46.73593" lon="-0.3588">
        <ele>238.265408</ele>
        <time>2014-07-30T08:24:54Z</time>
      </trkpt>
      <trkpt lat="46.73593" lon="-0.35887">
        <ele>238.01465</ele>
        <time>2014-07-30T08:24:56Z</time>
      </trkpt>
      <trkpt lat="46.73592" lon="-0.35896">
        <ele>237.832656</ele>
        <time>2014-07-30T08:24:58Z</time>
      </trkpt>
      <trkpt lat="46.73591" lon="-0.35905">
        <ele>237.737488</ele>
        <time>2014-07-30T08:25:00Z</time>
      </trkpt>
      <trkpt lat="46.73591" lon="-0.35913">
        <ele>237.658427</ele>
        <time>2014-07-30T08:25:02Z</time>
      </trkpt>
      <trkpt lat="46.7359" lon="-0.3592">
        <ele>237.638442</ele>
        <time>2014-07-30T08:25:04Z</time>
      </trkpt>
      <trkpt lat="46.7359" lon="-0.35929">
        <ele>237.451653</ele>
        <time>2014-07-30T08:25:06Z</time>
      </trkpt>
      <trkpt lat="46.7359" lon="-0.35939">
        <ele>237.203726</ele>
        <time>2014-07-30T08:25:08Z</time>
      </trkpt>
      <trkpt lat="46.73589" lon="-0.35949">
        <ele>236.973965</ele>
        <time>2014-07-30T08:25:10Z</time>
      </trkpt>
      <trkpt lat="46.73589" lon="-0.35958">
        <ele>236.810955</ele>
        <time>2014-07-30T08:25:12Z</time>
      </trkpt>
      <trkpt lat="46.73588" lon="-0.35969">
        <ele>236.583714</ele>
        <time>2014-07-30T08:25:15Z</time>
      </trkpt>
      <trkpt lat="46.73588" lon="-0.35978">
        <ele>236.369081</ele>
        <time>2014-07-30T08:25:17Z</time>
      </trkpt>
      <trkpt lat="46.73587" lon="-0.35988">
        <ele>236.204613</ele>
        <time>2014-07-30T08:25:19Z</time>
      </trkpt>
      <trkpt lat="46.73587" lon="-0.35998">
        <ele>236.279821</ele>
        <time>2014-07-30T08:25:21Z</time>
      </trkpt>
      <trkpt lat="46.73587" lon="-0.36008">
        <ele>236.357201</ele>
        <time>2014-07-30T08:25:23Z</time>
      </trkpt>
      <trkpt lat="46.73587" lon="-0.36016">
        <ele>236.483153</ele>
        <time>2014-07-30T08:25:25Z</time>
      </trkpt>
      <trkpt lat="46.73587" lon="-0.36025">
        <ele>236.598749</ele>
        <time>2014-07-30T08:25:27Z</time>
      </trkpt>
      <trkpt lat="46.73588" lon="-0.36032">
        <ele>236.73673</ele>
        <time>2014-07-30T08:25:29Z</time>
      </trkpt>
      <trkpt lat="46.73587" lon="-0.3604">
        <ele>236.76055</ele>
        <time>2014-07-30T08:25:31Z</time>
      </trkpt>
      <trkpt lat="46.73587" lon="-0.36049">
        <ele>236.702973</ele>
        <time>2014-07-30T08:25:33Z</time>
      </trkpt>
      <trkpt lat="46.73586" lon="-0.36058">
        <ele>236.582904</ele>
        <time>2014-07-30T08:25:35Z</time>
      </trkpt>
      <trkpt lat="46.73586" lon="-0.36065">
        <ele>236.478058</ele>
        <time>2014-07-30T08:25:37Z</time>
      </trkpt>
      <trkpt lat="46.73586" lon="-0.36073">
        <ele>236.387798</ele>
        <time>2014-07-30T08:25:39Z</time>
      </trkpt>
      <trkpt lat="46.73586" lon="-0.36082">
        <ele>236.341139</ele>
        <time>2014-07-30T08:25:41Z</time>
      </trkpt>
      <trkpt lat="46.73587" lon="-0.3609">
        <ele>236.289829</ele>
        <time>2014-07-30T08:25:43Z</time>
      </trkpt>
      <trkpt lat="46.73586" lon="-0.36098">
        <ele>236.224731</ele>
        <time>2014-07-30T08:25:45Z</time>
      </trkpt>
      <trkpt lat="46.73586" lon="-0.36108">
        <ele>236.19675</ele>
        <time>2014-07-30T08:25:47Z</time>
      </trkpt>
      <trkpt lat="46.73586" lon="-0.36116">
        <ele>236.126716</ele>
        <time>2014-07-30T08:25:49Z</time>
      </trkpt>
      <trkpt lat="46.73586" lon="-0.36125">
        <ele>236.073743</ele>
        <time>2014-07-30T08:25:51Z</time>
      </trkpt>
      <trkpt lat="46.73585" lon="-0.36133">
        <ele>236.182808</ele>
        <time>2014-07-30T08:25:53Z</time>
      </trkpt>
      <trkpt lat="46.73585" lon="-0.36142">
        <ele>236.314897</ele>
        <time>2014-07-30T08:25:55Z</time>
      </trkpt>
      <trkpt lat="46.73584" lon="-0.3615">
        <ele>236.333489</ele>
        <time>2014-07-30T08:25:57Z</time>
      </trkpt>
      <trkpt lat="46.73583" lon="-0.36158">
        <ele>236.400895</ele>
        <time>2014-07-30T08:25:59Z</time>
      </trkpt>
      <trkpt lat="46.73583" lon="-0.36166">
        <ele>236.442631</ele>
        <time>2014-07-30T08:26:01Z</time>
      </trkpt>
      <trkpt lat="46.73582" lon="-0.36176">
        <ele>236.500498</ele>
        <time>2014-07-30T08:26:03Z</time>
      </trkpt>
      <trkpt lat="46.73581" lon="-0.36184">
        <ele>236.585763</ele>
        <time>2014-07-30T08:26:05Z</time>
      </trkpt>
      <trkpt lat="46.73581" lon="-0.36192">
        <ele>236.689558</ele>
        <time>2014-07-30T08:26:07Z</time>
      </trkpt>
      <trkpt lat="46.7358" lon="-0.36199">
        <ele>236.682393</ele>
        <time>2014-07-30T08:26:09Z</time>
      </trkpt>
      <trkpt lat="46.73579" lon="-0.36207">
        <ele>236.817213</ele>
        <time>2014-07-30T08:26:11Z</time>
      </trkpt>
      <trkpt lat="46.73578" lon="-0.36215">
        <ele>236.873931</ele>
        <time>2014-07-30T08:26:13Z</time>
      </trkpt>
      <trkpt lat="46.73577" lon="-0.36223">
        <ele>236.87559</ele>
        <time>2014-07-30T08:26:15Z</time>
      </trkpt>
      <trkpt lat="46.73575" lon="-0.36231">
        <ele>236.893751</ele>
        <time>2014-07-30T08:26:17Z</time>
      </trkpt>
      <trkpt lat="46.73574" lon="-0.36239">
        <ele>236.894059</ele>
        <time>2014-07-30T08:26:19Z</time>
      </trkpt>
      <trkpt lat="46.73573" lon="-0.36247">
        <ele>236.889254</ele>
        <time>2014-07-30T08:26:21Z</time>
      </trkpt>
      <trkpt lat="46.73572" lon="-0.36255">
        <ele>236.891026</ele>
        <time>2014-07-30T08:26:23Z</time>
      </trkpt>
      <trkpt lat="46.7357" lon="-0.36263">
        <ele>236.846871</ele>
        <time>2014-07-30T08:26:25Z</time>
      </trkpt>
      <trkpt lat="46.73569" lon="-0.36271">
        <ele>236.889722</ele>
        <time>2014-07-30T08:26:27Z</time>
      </trkpt>
      <trkpt lat="46.73567" lon="-0.3628">
        <ele>236.894093</ele>
        <time>2014-07-30T08:26:29Z</time>
      </trkpt>
      <trkpt lat="46.73566" lon="-0.36287">
        <ele>237.021042</ele>
        <time>2014-07-30T08:26:31Z</time>
      </trkpt>
      <trkpt lat="46.73564" lon="-0.36297">
        <ele>237.109984</ele>
        <time>2014-07-30T08:26:33Z</time>
      </trkpt>
      <trkpt lat="46.73563" lon="-0.36305">
        <ele>237.220854</ele>
        <time>2014-07-30T08:26:35Z</time>
      </trkpt>
      <trkpt lat="46.73561" lon="-0.36312">
        <ele>237.384759</ele>
        <time>2014-07-30T08:26:37Z</time>
      </trkpt>
      <trkpt lat="46.7356" lon="-0.36321">
        <ele>237.445492</ele>
        <time>2014-07-30T08:26:39Z</time>
      </trkpt>
      <trkpt lat="46.73557" lon="-0.36328">
        <ele>237.52917</ele>
        <time>2014-07-30T08:26:41Z</time>
      </trkpt>
      <trkpt lat="46.73555" lon="-0.36336">
        <ele>237.558146</ele>
        <time>2014-07-30T08:26:43Z</time>
      </trkpt>
      <trkpt lat="46.73552" lon="-0.36343">
        <ele>237.576566</ele>
        <time>2014-07-30T08:26:45Z</time>
      </trkpt>
      <trkpt lat="46.73549" lon="-0.3635">
        <ele>237.62659</ele>
        <time>2014-07-30T08:26:47Z</time>
      </trkpt>
      <trkpt lat="46.73547" lon="-0.3636">
        <ele>237.671474</ele>
        <time>2014-07-30T08:26:50Z</time>
      </trkpt>
      <trkpt lat="46.73544" lon="-0.36367">
        <ele>237.741981</ele>
        <time>2014-07-30T08:26:52Z</time>
      </trkpt>
      <trkpt lat="46.73542" lon="-0.36374">
        <ele>237.871661</ele>
        <time>2014-07-30T08:26:54Z</time>
      </trkpt>
      <trkpt lat="46.73539" lon="-0.36381">
        <ele>238.091047</ele>
        <time>2014-07-30T08:26:56Z</time>
      </trkpt>
      <trkpt lat="46.73535" lon="-0.36389">
        <ele>238.253936</ele>
        <time>2014-07-30T08:26:58Z</time>
      </trkpt>
      <trkpt lat="46.73532" lon="-0.36397">
        <ele>238.311553</ele>
        <time>2014-07-30T08:27:00Z</time>
      </trkpt>
      <trkpt lat="46.73529" lon="-0.36404">
        <ele>238.359316</ele>
        <time>2014-07-30T08:27:02Z</time>
      </trkpt>
      <trkpt lat="46.73527" lon="-0.36412">
        <ele>238.501419</ele>
        <time>2014-07-30T08:27:04Z</time>
      </trkpt>
      <trkpt lat="46.73526" lon="-0.36419">
        <ele>238.614774</ele>
        <time>2014-07-30T08:27:06Z</time>
      </trkpt>
      <trkpt lat="46.73524" lon="-0.36426">
        <ele>238.753061</ele>
        <time>2014-07-30T08:27:08Z</time>
      </trkpt>
      <trkpt lat="46.73522" lon="-0.36433">
        <ele>238.905253</ele>
        <time>2014-07-30T08:27:10Z</time>
      </trkpt>
      <trkpt lat="46.7352" lon="-0.36439">
        <ele>239.010821</ele>
        <time>2014-07-30T08:27:12Z</time>
      </trkpt>
      <trkpt lat="46.73516" lon="-0.36447">
        <ele>239.002268</ele>
        <time>2014-07-30T08:27:15Z</time>
      </trkpt>
      <trkpt lat="46.73513" lon="-0.36455">
        <ele>239.042578</ele>
        <time>2014-07-30T08:27:17Z</time>
      </trkpt>
      <trkpt lat="46.73511" lon="-0.36461">
        <ele>239.182296</ele>
        <time>2014-07-30T08:27:19Z</time>
      </trkpt>
      <trkpt lat="46.73507" lon="-0.36469">
        <ele>239.326741</ele>
        <time>2014-07-30T08:27:21Z</time>
      </trkpt>
      <trkpt lat="46.73504" lon="-0.36477">
        <ele>239.411857</ele>
        <time>2014-07-30T08:27:23Z</time>
      </trkpt>
      <trkpt lat="46.73501" lon="-0.36485">
        <ele>239.400851</ele>
        <time>2014-07-30T08:27:25Z</time>
      </trkpt>
      <trkpt lat="46.73498" lon="-0.36493">
        <ele>239.348005</ele>
        <time>2014-07-30T08:27:27Z</time>
      </trkpt>
      <trkpt lat="46.73495" lon="-0.36501">
        <ele>239.329111</ele>
        <time>2014-07-30T08:27:29Z</time>
      </trkpt>
      <trkpt lat="46.73493" lon="-0.36509">
        <ele>239.281397</ele>
        <time>2014-07-30T08:27:31Z</time>
      </trkpt>
      <trkpt lat="46.73489" lon="-0.36518">
        <ele>239.195192</ele>
        <time>2014-07-30T08:27:34Z</time>
      </trkpt>
      <trkpt lat="46.73487" lon="-0.36525">
        <ele>239.154788</ele>
        <time>2014-07-30T08:27:36Z</time>
      </trkpt>
      <trkpt lat="46.73484" lon="-0.36531">
        <ele>239.184197</ele>
        <time>2014-07-30T08:27:38Z</time>
      </trkpt>
      <trkpt lat="46.73481" lon="-0.36541">
        <ele>239.357661</ele>
        <time>2014-07-30T08:27:41Z</time>
      </trkpt>
      <trkpt lat="46.73478" lon="-0.36548">
        <ele>239.489755</ele>
        <time>2014-07-30T08:27:43Z</time>
      </trkpt>
      <trkpt lat="46.73476" lon="-0.36554">
        <ele>239.548301</ele>
        <time>2014-07-30T08:27:45Z</time>
      </trkpt>
      <trkpt lat="46.73473" lon="-0.36561">
        <ele>239.624692</ele>
        <time>2014-07-30T08:27:47Z</time>
      </trkpt>
      <trkpt lat="46.73471" lon="-0.36568">
        <ele>239.768469</ele>
        <time>2014-07-30T08:27:49Z</time>
      </trkpt>
      <trkpt lat="46.73468" lon="-0.36576">
        <ele>239.91338</ele>
        <time>2014-07-30T08:27:51Z</time>
      </trkpt>
      <trkpt lat="46.73465" lon="-0.36584">
        <ele>240.025652</ele>
        <time>2014-07-30T08:27:53Z</time>
      </trkpt>
      <trkpt lat="46.73463" lon="-0.36591">
        <ele>240.212355</ele>
        <time>2014-07-30T08:27:55Z</time>
      </trkpt>
      <trkpt lat="46.73459" lon="-0.36599">
        <ele>240.401428</ele>
        <time>2014-07-30T08:27:57Z</time>
      </trkpt>
      <trkpt lat="46.73457" lon="-0.36605">
        <ele>240.612618</ele>
        <time>2014-07-30T08:27:59Z</time>
      </trkpt>
      <trkpt lat="46.73454" lon="-0.36612">
        <ele>240.805871</ele>
        <time>2014-07-30T08:28:01Z</time>
      </trkpt>
      <trkpt lat="46.73452" lon="-0.36618">
        <ele>240.891097</ele>
        <time>2014-07-30T08:28:03Z</time>
      </trkpt>
      <trkpt lat="46.73449" lon="-0.36626">
        <ele>241.007559</ele>
        <time>2014-07-30T08:28:05Z</time>
      </trkpt>
      <trkpt lat="46.73446" lon="-0.36634">
        <ele>241.015361</ele>
        <time>2014-07-30T08:28:07Z</time>
      </trkpt>
      <trkpt lat="46.73444" lon="-0.3664">
        <ele>241.053809</ele>
        <time>2014-07-30T08:28:09Z</time>
      </trkpt>
      <trkpt lat="46.73441" lon="-0.36647">
        <ele>241.054005</ele>
        <time>2014-07-30T08:28:11Z</time>
      </trkpt>
      <trkpt lat="46.73438" lon="-0.36653">
        <ele>241.040743</ele>
        <time>2014-07-30T08:28:13Z</time>
      </trkpt>
      <trkpt lat="46.73435" lon="-0.3666">
        <ele>241.045469</ele>
        <time>2014-07-30T08:28:15Z</time>
      </trkpt>
      <trkpt lat="46.73433" lon="-0.36667">
        <ele>241.04415</ele>
        <time>2014-07-30T08:28:17Z</time>
      </trkpt>
      <trkpt lat="46.73431" lon="-0.36675">
        <ele>241.038746</ele>
        <time>2014-07-30T08:28:19Z</time>
      </trkpt>
      <trkpt lat="46.73428" lon="-0.36682">
        <ele>241.161524</ele>
        <time>2014-07-30T08:28:21Z</time>
      </trkpt>
      <trkpt lat="46.73425" lon="-0.3669">
        <ele>241.242061</ele>
        <time>2014-07-30T08:28:23Z</time>
      </trkpt>
      <trkpt lat="46.73422" lon="-0.36696">
        <ele>241.3929</ele>
        <time>2014-07-30T08:28:25Z</time>
      </trkpt>
      <trkpt lat="46.7342" lon="-0.36704">
        <ele>241.519076</ele>
        <time>2014-07-30T08:28:27Z</time>
      </trkpt>
      <trkpt lat="46.73418" lon="-0.36712">
        <ele>241.620943</ele>
        <time>2014-07-30T08:28:29Z</time>
      </trkpt>
      <trkpt lat="46.73416" lon="-0.36719">
        <ele>241.718627</ele>
        <time>2014-07-30T08:28:31Z</time>
      </trkpt>
      <trkpt lat="46.73413" lon="-0.36727">
        <ele>241.747573</ele>
        <time>2014-07-30T08:28:33Z</time>
      </trkpt>
      <trkpt lat="46.7341" lon="-0.36733">
        <ele>241.792889</ele>
        <time>2014-07-30T08:28:35Z</time>
      </trkpt>
      <trkpt lat="46.73408" lon="-0.3674">
        <ele>241.907337</ele>
        <time>2014-07-30T08:28:37Z</time>
      </trkpt>
      <trkpt lat="46.73405" lon="-0.36747">
        <ele>241.937422</ele>
        <time>2014-07-30T08:28:39Z</time>
      </trkpt>
      <trkpt lat="46.73403" lon="-0.36756">
        <ele>242.022102</ele>
        <time>2014-07-30T08:28:42Z</time>
      </trkpt>
      <trkpt lat="46.734" lon="-0.36763">
        <ele>242.067373</ele>
        <time>2014-07-30T08:28:44Z</time>
      </trkpt>
      <trkpt lat="46.73397" lon="-0.36771">
        <ele>242.063132</ele>
        <time>2014-07-30T08:28:46Z</time>
      </trkpt>
      <trkpt lat="46.73395" lon="-0.36777">
        <ele>242.111603</ele>
        <time>2014-07-30T08:28:48Z</time>
      </trkpt>
      <trkpt lat="46.73393" lon="-0.36784">
        <ele>242.161677</ele>
        <time>2014-07-30T08:28:50Z</time>
      </trkpt>
      <trkpt lat="46.73391" lon="-0.36791">
        <ele>242.280281</ele>
        <time>2014-07-30T08:28:52Z</time>
      </trkpt>
      <trkpt lat="46.73389" lon="-0.36798">
        <ele>242.450942</ele>
        <time>2014-07-30T08:28:54Z</time>
      </trkpt>
      <trkpt lat="46.73386" lon="-0.36803">
        <ele>242.632202</ele>
        <time>2014-07-30T08:28:56Z</time>
      </trkpt>
      <trkpt lat="46.73384" lon="-0.3681">
        <ele>242.790572</ele>
        <time>2014-07-30T08:28:58Z</time>
      </trkpt>
      <trkpt lat="46.7338" lon="-0.36816">
        <ele>242.876136</ele>
        <time>2014-07-30T08:29:00Z</time>
      </trkpt>
      <trkpt lat="46.73377" lon="-0.36823">
        <ele>243.002046</ele>
        <time>2014-07-30T08:29:02Z</time>
      </trkpt>
      <trkpt lat="46.73374" lon="-0.3683">
        <ele>243.145709</ele>
        <time>2014-07-30T08:29:04Z</time>
      </trkpt>
      <trkpt lat="46.7337" lon="-0.36838">
        <ele>243.202291</ele>
        <time>2014-07-30T08:29:06Z</time>
      </trkpt>
      <trkpt lat="46.73368" lon="-0.36844">
        <ele>243.228382</ele>
        <time>2014-07-30T08:29:08Z</time>
      </trkpt>
      <trkpt lat="46.73364" lon="-0.36852">
        <ele>243.274853</ele>
        <time>2014-07-30T08:29:10Z</time>
      </trkpt>
      <trkpt lat="46.73361" lon="-0.3686">
        <ele>243.336791</ele>
        <time>2014-07-30T08:29:12Z</time>
      </trkpt>
      <trkpt lat="46.73357" lon="-0.36866">
        <ele>243.479834</ele>
        <time>2014-07-30T08:29:14Z</time>
      </trkpt>
      <trkpt lat="46.73353" lon="-0.36874">
        <ele>243.642365</ele>
        <time>2014-07-30T08:29:16Z</time>
      </trkpt>
      <trkpt lat="46.7335" lon="-0.36881">
        <ele>243.774717</ele>
        <time>2014-07-30T08:29:18Z</time>
      </trkpt>
      <trkpt lat="46.73347" lon="-0.36888">
        <ele>243.873876</ele>
        <time>2014-07-30T08:29:20Z</time>
      </trkpt>
      <trkpt lat="46.73343" lon="-0.36894">
        <ele>244.108942</ele>
        <time>2014-07-30T08:29:22Z</time>
      </trkpt>
      <trkpt lat="46.73339" lon="-0.369">
        <ele>244.376133</ele>
        <time>2014-07-30T08:29:24Z</time>
      </trkpt>
      <trkpt lat="46.73336" lon="-0.36906">
        <ele>244.613816</ele>
        <time>2014-07-30T08:29:26Z</time>
      </trkpt>
      <trkpt lat="46.73331" lon="-0.36911">
        <ele>244.885325</ele>
        <time>2014-07-30T08:29:28Z</time>
      </trkpt>
      <trkpt lat="46.73327" lon="-0.36918">
        <ele>245.166378</ele>
        <time>2014-07-30T08:29:30Z</time>
      </trkpt>
      <trkpt lat="46.73323" lon="-0.36924">
        <ele>245.423064</ele>
        <time>2014-07-30T08:29:32Z</time>
      </trkpt>
      <trkpt lat="46.73318" lon="-0.36931">
        <ele>245.536676</ele>
        <time>2014-07-30T08:29:35Z</time>
      </trkpt>
      <trkpt lat="46.73313" lon="-0.36937">
        <ele>245.645853</ele>
        <time>2014-07-30T08:29:38Z</time>
      </trkpt>
      <trkpt lat="46.73309" lon="-0.36942">
        <ele>245.822499</ele>
        <time>2014-07-30T08:29:40Z</time>
      </trkpt>
      <trkpt lat="46.73306" lon="-0.36946">
        <ele>246.016588</ele>
        <time>2014-07-30T08:29:42Z</time>
      </trkpt>
      <trkpt lat="46.73302" lon="-0.3695">
        <ele>246.204406</ele>
        <time>2014-07-30T08:29:44Z</time>
      </trkpt>
      <trkpt lat="46.73297" lon="-0.36957">
        <ele>246.589846</ele>
        <time>2014-07-30T08:29:47Z</time>
      </trkpt>
      <trkpt lat="46.73293" lon="-0.36963">
        <ele>246.821175</ele>
        <time>2014-07-30T08:29:49Z</time>
      </trkpt>
      <trkpt lat="46.73289" lon="-0.36969">
        <ele>246.969398</ele>
        <time>2014-07-30T08:29:51Z</time>
      </trkpt>
      <trkpt lat="46.73285" lon="-0.36973">
        <ele>247.174692</ele>
        <time>2014-07-30T08:29:53Z</time>
      </trkpt>
      <trkpt lat="46.73282" lon="-0.36978">
        <ele>247.401016</ele>
        <time>2014-07-30T08:29:55Z</time>
      </trkpt>
      <trkpt lat="46.73278" lon="-0.36983">
        <ele>247.529021</ele>
        <time>2014-07-30T08:29:57Z</time>
      </trkpt>
      <trkpt lat="46.73274" lon="-0.36989">
        <ele>247.735119</ele>
        <time>2014-07-30T08:29:59Z</time>
      </trkpt>
      <trkpt lat="46.73269" lon="-0.36995">
        <ele>247.86825</ele>
        <time>2014-07-30T08:30:01Z</time>
      </trkpt>
      <trkpt lat="46.73265" lon="-0.37">
        <ele>248.03171</ele>
        <time>2014-07-30T08:30:03Z</time>
      </trkpt>
      <trkpt lat="46.73262" lon="-0.37005">
        <ele>248.174485</ele>
        <time>2014-07-30T08:30:05Z</time>
      </trkpt>
      <trkpt lat="46.73258" lon="-0.37011">
        <ele>248.190461</ele>
        <time>2014-07-30T08:30:07Z</time>
      </trkpt>
      <trkpt lat="46.73254" lon="-0.37017">
        <ele>248.165745</ele>
        <time>2014-07-30T08:30:09Z</time>
      </trkpt>
      <trkpt lat="46.7325" lon="-0.37023">
        <ele>248.180839</ele>
        <time>2014-07-30T08:30:11Z</time>
      </trkpt>
      <trkpt lat="46.73245" lon="-0.37029">
        <ele>248.179649</ele>
        <time>2014-07-30T08:30:14Z</time>
      </trkpt>
      <trkpt lat="46.73241" lon="-0.37036">
        <ele>248.241087</ele>
        <time>2014-07-30T08:30:16Z</time>
      </trkpt>
      <trkpt lat="46.73236" lon="-0.37043">
        <ele>248.289916</ele>
        <time>2014-07-30T08:30:19Z</time>
      </trkpt>
      <trkpt lat="46.73232" lon="-0.37049">
        <ele>248.383593</ele>
        <time>2014-07-30T08:30:21Z</time>
      </trkpt>
      <trkpt lat="46.73228" lon="-0.37054">
        <ele>248.394271</ele>
        <time>2014-07-30T08:30:23Z</time>
      </trkpt>
      <trkpt lat="46.73224" lon="-0.37058">
        <ele>248.523545</ele>
        <time>2014-07-30T08:30:25Z</time>
      </trkpt>
      <trkpt lat="46.7322" lon="-0.37063">
        <ele>248.773408</ele>
        <time>2014-07-30T08:30:27Z</time>
      </trkpt>
      <trkpt lat="46.73216" lon="-0.37069">
        <ele>249.073713</ele>
        <time>2014-07-30T08:30:29Z</time>
      </trkpt>
      <trkpt lat="46.73211" lon="-0.37075">
        <ele>249.323535</ele>
        <time>2014-07-30T08:30:31Z</time>
      </trkpt>
      <trkpt lat="46.73207" lon="-0.3708">
        <ele>249.565358</ele>
        <time>2014-07-30T08:30:33Z</time>
      </trkpt>
      <trkpt lat="46.73202" lon="-0.37087">
        <ele>249.883823</ele>
        <time>2014-07-30T08:30:36Z</time>
      </trkpt>
      <trkpt lat="46.73198" lon="-0.37091">
        <ele>250.037248</ele>
        <time>2014-07-30T08:30:38Z</time>
      </trkpt>
      <trkpt lat="46.73193" lon="-0.37098">
        <ele>250.190962</ele>
        <time>2014-07-30T08:30:40Z</time>
      </trkpt>
      <trkpt lat="46.73189" lon="-0.37104">
        <ele>250.425063</ele>
        <time>2014-07-30T08:30:42Z</time>
      </trkpt>
      <trkpt lat="46.73186" lon="-0.37109">
        <ele>250.667694</ele>
        <time>2014-07-30T08:30:44Z</time>
      </trkpt>
      <trkpt lat="46.73183" lon="-0.37114">
        <ele>250.953895</ele>
        <time>2014-07-30T08:30:46Z</time>
      </trkpt>
      <trkpt lat="46.7318" lon="-0.3712">
        <ele>251.192018</ele>
        <time>2014-07-30T08:30:48Z</time>
      </trkpt>
      <trkpt lat="46.73176" lon="-0.37126">
        <ele>251.535885</ele>
        <time>2014-07-30T08:30:50Z</time>
      </trkpt>
      <trkpt lat="46.73173" lon="-0.37132">
        <ele>251.825748</ele>
        <time>2014-07-30T08:30:52Z</time>
      </trkpt>
      <trkpt lat="46.73169" lon="-0.37138">
        <ele>252.057921</ele>
        <time>2014-07-30T08:30:54Z</time>
      </trkpt>
      <trkpt lat="46.73166" lon="-0.37143">
        <ele>252.181855</ele>
        <time>2014-07-30T08:30:56Z</time>
      </trkpt>
      <trkpt lat="46.73163" lon="-0.3715">
        <ele>252.435697</ele>
        <time>2014-07-30T08:30:58Z</time>
      </trkpt>
      <trkpt lat="46.7316" lon="-0.37156">
        <ele>252.636205</ele>
        <time>2014-07-30T08:31:00Z</time>
      </trkpt>
      <trkpt lat="46.73156" lon="-0.37162">
        <ele>252.869837</ele>
        <time>2014-07-30T08:31:02Z</time>
      </trkpt>
      <trkpt lat="46.73153" lon="-0.37168">
        <ele>253.052258</ele>
        <time>2014-07-30T08:31:04Z</time>
      </trkpt>
      <trkpt lat="46.7315" lon="-0.37174">
        <ele>253.107418</ele>
        <time>2014-07-30T08:31:06Z</time>
      </trkpt>
      <trkpt lat="46.73147" lon="-0.3718">
        <ele>253.112737</ele>
        <time>2014-07-30T08:31:08Z</time>
      </trkpt>
      <trkpt lat="46.73144" lon="-0.37186">
        <ele>253.217853</ele>
        <time>2014-07-30T08:31:10Z</time>
      </trkpt>
      <trkpt lat="46.73141" lon="-0.37191">
        <ele>253.284919</ele>
        <time>2014-07-30T08:31:12Z</time>
      </trkpt>
      <trkpt lat="46.73136" lon="-0.37197">
        <ele>253.371086</ele>
        <time>2014-07-30T08:31:14Z</time>
      </trkpt>
      <trkpt lat="46.73133" lon="-0.37202">
        <ele>253.391414</ele>
        <time>2014-07-30T08:31:16Z</time>
      </trkpt>
      <trkpt lat="46.7313" lon="-0.37208">
        <ele>253.522388</ele>
        <time>2014-07-30T08:31:18Z</time>
      </trkpt>
      <trkpt lat="46.73128" lon="-0.37214">
        <ele>253.696727</ele>
        <time>2014-07-30T08:31:20Z</time>
      </trkpt>
      <trkpt lat="46.73125" lon="-0.37221">
        <ele>253.865412</ele>
        <time>2014-07-30T08:31:22Z</time>
      </trkpt>
      <trkpt lat="46.73123" lon="-0.37228">
        <ele>253.977429</ele>
        <time>2014-07-30T08:31:24Z</time>
      </trkpt>
      <trkpt lat="46.7312" lon="-0.37235">
        <ele>254.083518</ele>
        <time>2014-07-30T08:31:26Z</time>
      </trkpt>
      <trkpt lat="46.73116" lon="-0.37243">
        <ele>254.178887</ele>
        <time>2014-07-30T08:31:28Z</time>
      </trkpt>
      <trkpt lat="46.73112" lon="-0.3725">
        <ele>254.305887</ele>
        <time>2014-07-30T08:31:30Z</time>
      </trkpt>
      <trkpt lat="46.73109" lon="-0.37257">
        <ele>254.372324</ele>
        <time>2014-07-30T08:31:32Z</time>
      </trkpt>
      <trkpt lat="46.73107" lon="-0.37263">
        <ele>254.418846</ele>
        <time>2014-07-30T08:31:34Z</time>
      </trkpt>
      <trkpt lat="46.73104" lon="-0.3727">
        <ele>254.40719</ele>
        <time>2014-07-30T08:31:36Z</time>
      </trkpt>
      <trkpt lat="46.73101" lon="-0.37279">
        <ele>254.419279</ele>
        <time>2014-07-30T08:31:39Z</time>
      </trkpt>
      <trkpt lat="46.73098" lon="-0.37287">
        <ele>254.60507</ele>
        <time>2014-07-30T08:31:41Z</time>
      </trkpt>
      <trkpt lat="46.73097" lon="-0.37294">
        <ele>254.673192</ele>
        <time>2014-07-30T08:31:43Z</time>
      </trkpt>
      <trkpt lat="46.73094" lon="-0.37303">
        <ele>254.925553</ele>
        <time>2014-07-30T08:31:46Z</time>
      </trkpt>
      <trkpt lat="46.73091" lon="-0.37312">
        <ele>255.236168</ele>
        <time>2014-07-30T08:31:49Z</time>
      </trkpt>
      <trkpt lat="46.73088" lon="-0.37319">
        <ele>255.409796</ele>
        <time>2014-07-30T08:31:51Z</time>
      </trkpt>
      <trkpt lat="46.73085" lon="-0.37327">
        <ele>255.479012</ele>
        <time>2014-07-30T08:31:53Z</time>
      </trkpt>
      <trkpt lat="46.73082" lon="-0.37334">
        <ele>255.461971</ele>
        <time>2014-07-30T08:31:55Z</time>
      </trkpt>
      <trkpt lat="46.73079" lon="-0.37343">
        <ele>255.405488</ele>
        <time>2014-07-30T08:31:57Z</time>
      </trkpt>
      <trkpt lat="46.73076" lon="-0.37353">
        <ele>255.398128</ele>
        <time>2014-07-30T08:31:59Z</time>
      </trkpt>
      <trkpt lat="46.73073" lon="-0.37361">
        <ele>255.290837</ele>
        <time>2014-07-30T08:32:01Z</time>
      </trkpt>
      <trkpt lat="46.73072" lon="-0.37369">
        <ele>255.279427</ele>
        <time>2014-07-30T08:32:03Z</time>
      </trkpt>
      <trkpt lat="46.73071" lon="-0.37377">
        <ele>255.301722</ele>
        <time>2014-07-30T08:32:05Z</time>
      </trkpt>
      <trkpt lat="46.73069" lon="-0.37385">
        <ele>255.262617</ele>
        <time>2014-07-30T08:32:07Z</time>
      </trkpt>
      <trkpt lat="46.73067" lon="-0.37393">
        <ele>255.199181</ele>
        <time>2014-07-30T08:32:09Z</time>
      </trkpt>
      <trkpt lat="46.73065" lon="-0.37402">
        <ele>255.135479</ele>
        <time>2014-07-30T08:32:11Z</time>
      </trkpt>
      <trkpt lat="46.73063" lon="-0.37409">
        <ele>255.053849</ele>
        <time>2014-07-30T08:32:13Z</time>
      </trkpt>
      <trkpt lat="46.73061" lon="-0.37417">
        <ele>255.009217</ele>
        <time>2014-07-30T08:32:15Z</time>
      </trkpt>
      <trkpt lat="46.73059" lon="-0.37424">
        <ele>255.054856</ele>
        <time>2014-07-30T08:32:17Z</time>
      </trkpt>
      <trkpt lat="46.73057" lon="-0.37432">
        <ele>255.169527</ele>
        <time>2014-07-30T08:32:20Z</time>
      </trkpt>
      <trkpt lat="46.73055" lon="-0.37439">
        <ele>255.29834</ele>
        <time>2014-07-30T08:32:22Z</time>
      </trkpt>
      <trkpt lat="46.73052" lon="-0.37447">
        <ele>255.497191</ele>
        <time>2014-07-30T08:32:24Z</time>
      </trkpt>
      <trkpt lat="46.7305" lon="-0.37455">
        <ele>255.591273</ele>
        <time>2014-07-30T08:32:26Z</time>
      </trkpt>
      <trkpt lat="46.73047" lon="-0.37462">
        <ele>255.635842</ele>
        <time>2014-07-30T08:32:28Z</time>
      </trkpt>
      <trkpt lat="46.73044" lon="-0.3747">
        <ele>255.812344</ele>
        <time>2014-07-30T08:32:30Z</time>
      </trkpt>
      <trkpt lat="46.73041" lon="-0.37477">
        <ele>255.889036</ele>
        <time>2014-07-30T08:32:32Z</time>
      </trkpt>
      <trkpt lat="46.73038" lon="-0.37484">
        <ele>256.054298</ele>
        <time>2014-07-30T08:32:34Z</time>
      </trkpt>
      <trkpt lat="46.73035" lon="-0.37491">
        <ele>256.147986</ele>
        <time>2014-07-30T08:32:36Z</time>
      </trkpt>
      <trkpt lat="46.73032" lon="-0.37498">
        <ele>256.201681</ele>
        <time>2014-07-30T08:32:38Z</time>
      </trkpt>
      <trkpt lat="46.73029" lon="-0.37505">
        <ele>256.297378</ele>
        <time>2014-07-30T08:32:40Z</time>
      </trkpt>
      <trkpt lat="46.73026" lon="-0.37511">
        <ele>256.39612</ele>
        <time>2014-07-30T08:32:42Z</time>
      </trkpt>
      <trkpt lat="46.73024" lon="-0.37517">
        <ele>256.448676</ele>
        <time>2014-07-30T08:32:44Z</time>
      </trkpt>
      <trkpt lat="46.73021" lon="-0.37523">
        <ele>256.412444</ele>
        <time>2014-07-30T08:32:46Z</time>
      </trkpt>
      <trkpt lat="46.73017" lon="-0.3753">
        <ele>256.407175</ele>
        <time>2014-07-30T08:32:49Z</time>
      </trkpt>
      <trkpt lat="46.73013" lon="-0.37536">
        <ele>256.303461</ele>
        <time>2014-07-30T08:32:51Z</time>
      </trkpt>
      <trkpt lat="46.7301" lon="-0.37543">
        <ele>256.365374</ele>
        <time>2014-07-30T08:32:53Z</time>
      </trkpt>
      <trkpt lat="46.73006" lon="-0.37548">
        <ele>256.480839</ele>
        <time>2014-07-30T08:32:55Z</time>
      </trkpt>
      <trkpt lat="46.73002" lon="-0.37553">
        <ele>256.653191</ele>
        <time>2014-07-30T08:32:57Z</time>
      </trkpt>
      <trkpt lat="46.72999" lon="-0.37558">
        <ele>256.701102</ele>
        <time>2014-07-30T08:32:59Z</time>
      </trkpt>
      <trkpt lat="46.72995" lon="-0.37565">
        <ele>256.681125</ele>
        <time>2014-07-30T08:33:01Z</time>
      </trkpt>
      <trkpt lat="46.72991" lon="-0.37572">
        <ele>256.661554</ele>
        <time>2014-07-30T08:33:03Z</time>
      </trkpt>
      <trkpt lat="46.72986" lon="-0.37577">
        <ele>256.624926</ele>
        <time>2014-07-30T08:33:05Z</time>
      </trkpt>
      <trkpt lat="46.72982" lon="-0.37583">
        <ele>256.667738</ele>
        <time>2014-07-30T08:33:07Z</time>
      </trkpt>
      <trkpt lat="46.72977" lon="-0.37589">
        <ele>256.890958</ele>
        <time>2014-07-30T08:33:09Z</time>
      </trkpt>
      <trkpt lat="46.72973" lon="-0.37594">
        <ele>257.222976</ele>
        <time>2014-07-30T08:33:11Z</time>
      </trkpt>
      <trkpt lat="46.72969" lon="-0.37599">
        <ele>257.598636</ele>
        <time>2014-07-30T08:33:13Z</time>
      </trkpt>
      <trkpt lat="46.72965" lon="-0.37604">
        <ele>257.969703</ele>
        <time>2014-07-30T08:33:15Z</time>
      </trkpt>
      <trkpt lat="46.7296" lon="-0.37611">
        <ele>258.249538</ele>
        <time>2014-07-30T08:33:17Z</time>
      </trkpt>
      <trkpt lat="46.72956" lon="-0.37617">
        <ele>258.529491</ele>
        <time>2014-07-30T08:33:19Z</time>
      </trkpt>
      <trkpt lat="46.72952" lon="-0.37622">
        <ele>258.851421</ele>
        <time>2014-07-30T08:33:21Z</time>
      </trkpt>
      <trkpt lat="46.72948" lon="-0.37628">
        <ele>259.104992</ele>
        <time>2014-07-30T08:33:23Z</time>
      </trkpt>
      <trkpt lat="46.72944" lon="-0.37635">
        <ele>259.406086</ele>
        <time>2014-07-30T08:33:26Z</time>
      </trkpt>
      <trkpt lat="46.72941" lon="-0.37641">
        <ele>259.440198</ele>
        <time>2014-07-30T08:33:28Z</time>
      </trkpt>
      <trkpt lat="46.72936" lon="-0.37648">
        <ele>259.511502</ele>
        <time>2014-07-30T08:33:30Z</time>
      </trkpt>
      <trkpt lat="46.72933" lon="-0.37653">
        <ele>259.679151</ele>
        <time>2014-07-30T08:33:32Z</time>
      </trkpt>
      <trkpt lat="46.72929" lon="-0.37658">
        <ele>259.902902</ele>
        <time>2014-07-30T08:33:34Z</time>
      </trkpt>
      <trkpt lat="46.72926" lon="-0.37663">
        <ele>260.193823</ele>
        <time>2014-07-30T08:33:36Z</time>
      </trkpt>
      <trkpt lat="46.72922" lon="-0.37669">
        <ele>260.40109</ele>
        <time>2014-07-30T08:33:38Z</time>
      </trkpt>
      <trkpt lat="46.72918" lon="-0.37675">
        <ele>260.466952</ele>
        <time>2014-07-30T08:33:40Z</time>
      </trkpt>
      <trkpt lat="46.72913" lon="-0.3768">
        <ele>260.493103</ele>
        <time>2014-07-30T08:33:42Z</time>
      </trkpt>
      <trkpt lat="46.72909" lon="-0.37685">
        <ele>260.525396</ele>
        <time>2014-07-30T08:33:44Z</time>
      </trkpt>
      <trkpt lat="46.72906" lon="-0.3769">
        <ele>260.674945</ele>
        <time>2014-07-30T08:33:46Z</time>
      </trkpt>
      <trkpt lat="46.72901" lon="-0.37695">
        <ele>260.851712</ele>
        <time>2014-07-30T08:33:48Z</time>
      </trkpt>
      <trkpt lat="46.72895" lon="-0.377">
        <ele>260.969902</ele>
        <time>2014-07-30T08:33:50Z</time>
      </trkpt>
      <trkpt lat="46.72891" lon="-0.37707">
        <ele>261.158744</ele>
        <time>2014-07-30T08:33:53Z</time>
      </trkpt>
      <trkpt lat="46.72888" lon="-0.37712">
        <ele>261.257106</ele>
        <time>2014-07-30T08:33:55Z</time>
      </trkpt>
      <trkpt lat="46.72883" lon="-0.37718">
        <ele>261.384323</ele>
        <time>2014-07-30T08:33:57Z</time>
      </trkpt>
      <trkpt lat="46.7288" lon="-0.37725">
        <ele>261.501884</ele>
        <time>2014-07-30T08:33:59Z</time>
      </trkpt>
      <trkpt lat="46.72875" lon="-0.37731">
        <ele>261.677172</ele>
        <time>2014-07-30T08:34:01Z</time>
      </trkpt>
      <trkpt lat="46.72871" lon="-0.37738">
        <ele>261.955469</ele>
        <time>2014-07-30T08:34:03Z</time>
      </trkpt>
      <trkpt lat="46.72867" lon="-0.37742">
        <ele>262.127857</ele>
        <time>2014-07-30T08:34:05Z</time>
      </trkpt>
      <trkpt lat="46.72863" lon="-0.37747">
        <ele>262.29279</ele>
        <time>2014-07-30T08:34:07Z</time>
      </trkpt>
      <trkpt lat="46.72859" lon="-0.37752">
        <ele>262.52771</ele>
        <time>2014-07-30T08:34:09Z</time>
      </trkpt>
      <trkpt lat="46.72854" lon="-0.37757">
        <ele>262.766861</ele>
        <time>2014-07-30T08:34:11Z</time>
      </trkpt>
      <trkpt lat="46.72851" lon="-0.37762">
        <ele>262.952969</ele>
        <time>2014-07-30T08:34:13Z</time>
      </trkpt>
      <trkpt lat="46.72847" lon="-0.37768">
        <ele>262.895566</ele>
        <time>2014-07-30T08:34:15Z</time>
      </trkpt>
      <trkpt lat="46.72843" lon="-0.37774">
        <ele>262.851725</ele>
        <time>2014-07-30T08:34:17Z</time>
      </trkpt>
      <trkpt lat="46.72839" lon="-0.3778">
        <ele>262.746445</ele>
        <time>2014-07-30T08:34:19Z</time>
      </trkpt>
      <trkpt lat="46.72835" lon="-0.37786">
        <ele>262.673916</ele>
        <time>2014-07-30T08:34:21Z</time>
      </trkpt>
      <trkpt lat="46.72831" lon="-0.37792">
        <ele>262.655824</ele>
        <time>2014-07-30T08:34:23Z</time>
      </trkpt>
      <trkpt lat="46.72828" lon="-0.37797">
        <ele>262.81378</ele>
        <time>2014-07-30T08:34:25Z</time>
      </trkpt>
      <trkpt lat="46.72825" lon="-0.37802">
        <ele>262.952641</ele>
        <time>2014-07-30T08:34:27Z</time>
      </trkpt>
      <trkpt lat="46.72822" lon="-0.37807">
        <ele>263.104614</ele>
        <time>2014-07-30T08:34:29Z</time>
      </trkpt>
      <trkpt lat="46.72819" lon="-0.37812">
        <ele>263.323893</ele>
        <time>2014-07-30T08:34:31Z</time>
      </trkpt>
      <trkpt lat="46.72814" lon="-0.37819">
        <ele>263.904402</ele>
        <time>2014-07-30T08:34:34Z</time>
      </trkpt>
      <trkpt lat="46.72811" lon="-0.37825">
        <ele>264.181855</ele>
        <time>2014-07-30T08:34:36Z</time>
      </trkpt>
      <trkpt lat="46.72807" lon="-0.3783">
        <ele>264.436519</ele>
        <time>2014-07-30T08:34:38Z</time>
      </trkpt>
      <trkpt lat="46.72805" lon="-0.37836">
        <ele>264.657916</ele>
        <time>2014-07-30T08:34:40Z</time>
      </trkpt>
      <trkpt lat="46.72803" lon="-0.37845">
        <ele>264.764552</ele>
        <time>2014-07-30T08:34:42Z</time>
      </trkpt>
      <trkpt lat="46.72803" lon="-0.37853">
        <ele>264.720719</ele>
        <time>2014-07-30T08:34:44Z</time>
      </trkpt>
      <trkpt lat="46.72804" lon="-0.37863">
        <ele>264.732911</ele>
        <time>2014-07-30T08:34:46Z</time>
      </trkpt>
      <trkpt lat="46.72804" lon="-0.37872">
        <ele>264.78687</ele>
        <time>2014-07-30T08:34:48Z</time>
      </trkpt>
      <trkpt lat="46.72805" lon="-0.3788">
        <ele>264.883562</ele>
        <time>2014-07-30T08:34:50Z</time>
      </trkpt>
      <trkpt lat="46.72805" lon="-0.37887">
        <ele>264.931449</ele>
        <time>2014-07-30T08:34:52Z</time>
      </trkpt>
      <trkpt lat="46.72807" lon="-0.37894">
        <ele>265.031502</ele>
        <time>2014-07-30T08:34:54Z</time>
      </trkpt>
      <trkpt lat="46.7281" lon="-0.37903">
        <ele>265.122525</ele>
        <time>2014-07-30T08:34:56Z</time>
      </trkpt>
      <trkpt lat="46.72812" lon="-0.3791">
        <ele>265.233634</ele>
        <time>2014-07-30T08:34:58Z</time>
      </trkpt>
      <trkpt lat="46.72815" lon="-0.37918">
        <ele>265.322282</ele>
        <time>2014-07-30T08:35:00Z</time>
      </trkpt>
      <trkpt lat="46.72817" lon="-0.37927">
        <ele>265.466068</ele>
        <time>2014-07-30T08:35:02Z</time>
      </trkpt>
      <trkpt lat="46.72819" lon="-0.37933">
        <ele>265.598397</ele>
        <time>2014-07-30T08:35:04Z</time>
      </trkpt>
      <trkpt lat="46.72823" lon="-0.37941">
        <ele>265.716202</ele>
        <time>2014-07-30T08:35:06Z</time>
      </trkpt>
      <trkpt lat="46.72826" lon="-0.37949">
        <ele>265.829613</ele>
        <time>2014-07-30T08:35:08Z</time>
      </trkpt>
      <trkpt lat="46.72828" lon="-0.37955">
        <ele>265.932367</ele>
        <time>2014-07-30T08:35:10Z</time>
      </trkpt>
      <trkpt lat="46.72831" lon="-0.37961">
        <ele>266.135006</ele>
        <time>2014-07-30T08:35:12Z</time>
      </trkpt>
      <trkpt lat="46.72833" lon="-0.37968">
        <ele>266.367129</ele>
        <time>2014-07-30T08:35:14Z</time>
      </trkpt>
      <trkpt lat="46.72835" lon="-0.37975">
        <ele>266.513956</ele>
        <time>2014-07-30T08:35:16Z</time>
      </trkpt>
      <trkpt lat="46.72838" lon="-0.37984">
        <ele>266.798973</ele>
        <time>2014-07-30T08:35:19Z</time>
      </trkpt>
      <trkpt lat="46.7284" lon="-0.37991">
        <ele>266.986086</ele>
        <time>2014-07-30T08:35:21Z</time>
      </trkpt>
      <trkpt lat="46.72843" lon="-0.37999">
        <ele>267.1367</ele>
        <time>2014-07-30T08:35:23Z</time>
      </trkpt>
      <trkpt lat="46.72846" lon="-0.38006">
        <ele>267.094431</ele>
        <time>2014-07-30T08:35:25Z</time>
      </trkpt>
      <trkpt lat="46.72849" lon="-0.38012">
        <ele>267.084003</ele>
        <time>2014-07-30T08:35:27Z</time>
      </trkpt>
      <trkpt lat="46.72851" lon="-0.38018">
        <ele>267.258482</ele>
        <time>2014-07-30T08:35:29Z</time>
      </trkpt>
      <trkpt lat="46.72854" lon="-0.38026">
        <ele>267.603188</ele>
        <time>2014-07-30T08:35:31Z</time>
      </trkpt>
      <trkpt lat="46.72857" lon="-0.38032">
        <ele>267.969261</ele>
        <time>2014-07-30T08:35:33Z</time>
      </trkpt>
      <trkpt lat="46.7286" lon="-0.38038">
        <ele>268.349832</ele>
        <time>2014-07-30T08:35:35Z</time>
      </trkpt>
      <trkpt lat="46.72864" lon="-0.38046">
        <ele>268.587971</ele>
        <time>2014-07-30T08:35:37Z</time>
      </trkpt>
      <trkpt lat="46.72867" lon="-0.38052">
        <ele>268.696075</ele>
        <time>2014-07-30T08:35:39Z</time>
      </trkpt>
      <trkpt lat="46.7287" lon="-0.3806">
        <ele>268.762878</ele>
        <time>2014-07-30T08:35:41Z</time>
      </trkpt>
      <trkpt lat="46.72874" lon="-0.38067">
        <ele>268.751693</ele>
        <time>2014-07-30T08:35:43Z</time>
      </trkpt>
      <trkpt lat="46.72877" lon="-0.38074">
        <ele>268.792768</ele>
        <time>2014-07-30T08:35:45Z</time>
      </trkpt>
      <trkpt lat="46.72879" lon="-0.3808">
        <ele>268.827974</ele>
        <time>2014-07-30T08:35:47Z</time>
      </trkpt>
      <trkpt lat="46.72881" lon="-0.38088">
        <ele>268.805996</ele>
        <time>2014-07-30T08:35:49Z</time>
      </trkpt>
      <trkpt lat="46.72883" lon="-0.38094">
        <ele>268.734672</ele>
        <time>2014-07-30T08:35:51Z</time>
      </trkpt>
      <trkpt lat="46.72886" lon="-0.38101">
        <ele>268.675378</ele>
        <time>2014-07-30T08:35:53Z</time>
      </trkpt>
      <trkpt lat="46.72888" lon="-0.38107">
        <ele>268.610981</ele>
        <time>2014-07-30T08:35:55Z</time>
      </trkpt>
      <trkpt lat="46.72892" lon="-0.38114">
        <ele>268.487771</ele>
        <time>2014-07-30T08:35:57Z</time>
      </trkpt>
      <trkpt lat="46.72895" lon="-0.38122">
        <ele>268.457773</ele>
        <time>2014-07-30T08:35:59Z</time>
      </trkpt>
      <trkpt lat="46.72899" lon="-0.38129">
        <ele>268.478895</ele>
        <time>2014-07-30T08:36:01Z</time>
      </trkpt>
      <trkpt lat="46.72902" lon="-0.38136">
        <ele>268.413083</ele>
        <time>2014-07-30T08:36:03Z</time>
      </trkpt>
      <trkpt lat="46.72906" lon="-0.38143">
        <ele>268.296593</ele>
        <time>2014-07-30T08:36:05Z</time>
      </trkpt>
      <trkpt lat="46.7291" lon="-0.38149">
        <ele>268.155324</ele>
        <time>2014-07-30T08:36:07Z</time>
      </trkpt>
      <trkpt lat="46.72914" lon="-0.38156">
        <ele>268.144552</ele>
        <time>2014-07-30T08:36:09Z</time>
      </trkpt>
      <trkpt lat="46.72918" lon="-0.38163">
        <ele>268.256334</ele>
        <time>2014-07-30T08:36:11Z</time>
      </trkpt>
      <trkpt lat="46.72921" lon="-0.38171">
        <ele>268.539004</ele>
        <time>2014-07-30T08:36:14Z</time>
      </trkpt>
      <trkpt lat="46.72925" lon="-0.38179">
        <ele>268.86094</ele>
        <time>2014-07-30T08:36:17Z</time>
      </trkpt>
      <trkpt lat="46.72928" lon="-0.38186">
        <ele>269.016932</ele>
        <time>2014-07-30T08:36:19Z</time>
      </trkpt>
      <trkpt lat="46.72931" lon="-0.38192">
        <ele>269.034354</ele>
        <time>2014-07-30T08:36:21Z</time>
      </trkpt>
      <trkpt lat="46.72934" lon="-0.38199">
        <ele>269.056718</ele>
        <time>2014-07-30T08:36:23Z</time>
      </trkpt>
      <trkpt lat="46.72938" lon="-0.38205">
        <ele>269.073277</ele>
        <time>2014-07-30T08:36:25Z</time>
      </trkpt>
      <trkpt lat="46.72941" lon="-0.38213">
        <ele>268.982072</ele>
        <time>2014-07-30T08:36:27Z</time>
      </trkpt>
      <trkpt lat="46.72946" lon="-0.38219">
        <ele>268.903092</ele>
        <time>2014-07-30T08:36:29Z</time>
      </trkpt>
      <trkpt lat="46.72951" lon="-0.38226">
        <ele>268.915037</ele>
        <time>2014-07-30T08:36:31Z</time>
      </trkpt>
      <trkpt lat="46.72956" lon="-0.38231">
        <ele>268.92365</ele>
        <time>2014-07-30T08:36:33Z</time>
      </trkpt>
      <trkpt lat="46.7296" lon="-0.38234">
        <ele>269.000072</ele>
        <time>2014-07-30T08:36:35Z</time>
      </trkpt>
      <trkpt lat="46.72966" lon="-0.38236">
        <ele>269.089955</ele>
        <time>2014-07-30T08:36:37Z</time>
      </trkpt>
      <trkpt lat="46.72973" lon="-0.38239">
        <ele>269.085588</ele>
        <time>2014-07-30T08:36:39Z</time>
      </trkpt>
      <trkpt lat="46.7298" lon="-0.38242">
        <ele>269.011813</ele>
        <time>2014-07-30T08:36:41Z</time>
      </trkpt>
      <trkpt lat="46.72986" lon="-0.38243">
        <ele>268.974251</ele>
        <time>2014-07-30T08:36:43Z</time>
      </trkpt>
      <trkpt lat="46.72992" lon="-0.38243">
        <ele>268.893063</ele>
        <time>2014-07-30T08:36:45Z</time>
      </trkpt>
      <trkpt lat="46.73" lon="-0.38242">
        <ele>268.964548</ele>
        <time>2014-07-30T08:36:47Z</time>
      </trkpt>
      <trkpt lat="46.73005" lon="-0.38241">
        <ele>268.955272</ele>
        <time>2014-07-30T08:36:49Z</time>
      </trkpt>
      <trkpt lat="46.73011" lon="-0.38239">
        <ele>268.951331</ele>
        <time>2014-07-30T08:36:51Z</time>
      </trkpt>
      <trkpt lat="46.73016" lon="-0.38237">
        <ele>268.835096</ele>
        <time>2014-07-30T08:36:53Z</time>
      </trkpt>
      <trkpt lat="46.73022" lon="-0.38235">
        <ele>268.7271</ele>
        <time>2014-07-30T08:36:55Z</time>
      </trkpt>
      <trkpt lat="46.73027" lon="-0.38233">
        <ele>268.545834</ele>
        <time>2014-07-30T08:36:57Z</time>
      </trkpt>
      <trkpt lat="46.73033" lon="-0.38231">
        <ele>268.295207</ele>
        <time>2014-07-30T08:36:59Z</time>
      </trkpt>
      <trkpt lat="46.7304" lon="-0.3823">
        <ele>268.007419</ele>
        <time>2014-07-30T08:37:01Z</time>
      </trkpt>
      <trkpt lat="46.73047" lon="-0.38228">
        <ele>267.766919</ele>
        <time>2014-07-30T08:37:03Z</time>
      </trkpt>
      <trkpt lat="46.73052" lon="-0.38225">
        <ele>267.500055</ele>
        <time>2014-07-30T08:37:05Z</time>
      </trkpt>
      <trkpt lat="46.73057" lon="-0.38223">
        <ele>267.28444</ele>
        <time>2014-07-30T08:37:07Z</time>
      </trkpt>
      <trkpt lat="46.73064" lon="-0.3822">
        <ele>267.077334</ele>
        <time>2014-07-30T08:37:09Z</time>
      </trkpt>
      <trkpt lat="46.73069" lon="-0.38217">
        <ele>266.883473</ele>
        <time>2014-07-30T08:37:11Z</time>
      </trkpt>
      <trkpt lat="46.73074" lon="-0.38214">
        <ele>266.686294</ele>
        <time>2014-07-30T08:37:13Z</time>
      </trkpt>
      <trkpt lat="46.7308" lon="-0.3821">
        <ele>266.515468</ele>
        <time>2014-07-30T08:37:15Z</time>
      </trkpt>
      <trkpt lat="46.73086" lon="-0.38207">
        <ele>266.378882</ele>
        <time>2014-07-30T08:37:17Z</time>
      </trkpt>
      <trkpt lat="46.73092" lon="-0.38204">
        <ele>266.212752</ele>
        <time>2014-07-30T08:37:19Z</time>
      </trkpt>
      <trkpt lat="46.73098" lon="-0.382">
        <ele>265.999334</ele>
        <time>2014-07-30T08:37:21Z</time>
      </trkpt>
      <trkpt lat="46.73105" lon="-0.38197">
        <ele>265.730362</ele>
        <time>2014-07-30T08:37:23Z</time>
      </trkpt>
      <trkpt lat="46.73111" lon="-0.38194">
        <ele>265.465793</ele>
        <time>2014-07-30T08:37:25Z</time>
      </trkpt>
      <trkpt lat="46.73117" lon="-0.38191">
        <ele>265.283583</ele>
        <time>2014-07-30T08:37:27Z</time>
      </trkpt>
      <trkpt lat="46.73122" lon="-0.38188">
        <ele>265.013614</ele>
        <time>2014-07-30T08:37:29Z</time>
      </trkpt>
      <trkpt lat="46.73128" lon="-0.38186">
        <ele>264.820556</ele>
        <time>2014-07-30T08:37:31Z</time>
      </trkpt>
      <trkpt lat="46.73134" lon="-0.38183">
        <ele>264.801592</ele>
        <time>2014-07-30T08:37:33Z</time>
      </trkpt>
      <trkpt lat="46.73139" lon="-0.38181">
        <ele>264.76231</ele>
        <time>2014-07-30T08:37:35Z</time>
      </trkpt>
      <trkpt lat="46.73144" lon="-0.38178">
        <ele>264.725409</ele>
        <time>2014-07-30T08:37:37Z</time>
      </trkpt>
      <trkpt lat="46.73149" lon="-0.38176">
        <ele>264.651765</ele>
        <time>2014-07-30T08:37:39Z</time>
      </trkpt>
      <trkpt lat="46.73153" lon="-0.38174">
        <ele>264.553388</ele>
        <time>2014-07-30T08:37:41Z</time>
      </trkpt>
      <trkpt lat="46.7316" lon="-0.3817">
        <ele>264.326667</ele>
        <time>2014-07-30T08:37:43Z</time>
      </trkpt>
      <trkpt lat="46.73167" lon="-0.38167">
        <ele>264.058697</ele>
        <time>2014-07-30T08:37:45Z</time>
      </trkpt>
      <trkpt lat="46.73172" lon="-0.38164">
        <ele>263.94353</ele>
        <time>2014-07-30T08:37:47Z</time>
      </trkpt>
      <trkpt lat="46.73177" lon="-0.38162">
        <ele>263.793909</ele>
        <time>2014-07-30T08:37:49Z</time>
      </trkpt>
      <trkpt lat="46.73183" lon="-0.38159">
        <ele>263.673881</ele>
        <time>2014-07-30T08:37:51Z</time>
      </trkpt>
      <trkpt lat="46.73188" lon="-0.38156">
        <ele>263.485166</ele>
        <time>2014-07-30T08:37:53Z</time>
      </trkpt>
      <trkpt lat="46.73193" lon="-0.38152">
        <ele>263.350524</ele>
        <time>2014-07-30T08:37:55Z</time>
      </trkpt>
      <trkpt lat="46.73198" lon="-0.38147">
        <ele>263.262517</ele>
        <time>2014-07-30T08:37:57Z</time>
      </trkpt>
      <trkpt lat="46.73204" lon="-0.38143">
        <ele>263.103765</ele>
        <time>2014-07-30T08:37:59Z</time>
      </trkpt>
      <trkpt lat="46.73207" lon="-0.38138">
        <ele>262.970067</ele>
        <time>2014-07-30T08:38:01Z</time>
      </trkpt>
      <trkpt lat="46.73212" lon="-0.38133">
        <ele>262.797592</ele>
        <time>2014-07-30T08:38:03Z</time>
      </trkpt>
      <trkpt lat="46.73217" lon="-0.38126">
        <ele>262.598407</ele>
        <time>2014-07-30T08:38:05Z</time>
      </trkpt>
      <trkpt lat="46.7322" lon="-0.3812">
        <ele>262.337132</ele>
        <time>2014-07-30T08:38:07Z</time>
      </trkpt>
      <trkpt lat="46.73225" lon="-0.38112">
        <ele>262.227248</ele>
        <time>2014-07-30T08:38:09Z</time>
      </trkpt>
      <trkpt lat="46.73231" lon="-0.38105">
        <ele>262.097823</ele>
        <time>2014-07-30T08:38:11Z</time>
      </trkpt>
      <trkpt lat="46.73235" lon="-0.38098">
        <ele>262.066006</ele>
        <time>2014-07-30T08:38:13Z</time>
      </trkpt>
      <trkpt lat="46.7324" lon="-0.38092">
        <ele>262.09496</ele>
        <time>2014-07-30T08:38:15Z</time>
      </trkpt>
      <trkpt lat="46.73244" lon="-0.38086">
        <ele>262.113915</ele>
        <time>2014-07-30T08:38:17Z</time>
      </trkpt>
      <trkpt lat="46.73248" lon="-0.38082">
        <ele>261.994936</ele>
        <time>2014-07-30T08:38:19Z</time>
      </trkpt>
      <trkpt lat="46.73252" lon="-0.38076">
        <ele>261.82907</ele>
        <time>2014-07-30T08:38:21Z</time>
      </trkpt>
      <trkpt lat="46.73255" lon="-0.38068">
        <ele>261.600698</ele>
        <time>2014-07-30T08:38:24Z</time>
      </trkpt>
      <trkpt lat="46.73259" lon="-0.38061">
        <ele>261.560153</ele>
        <time>2014-07-30T08:38:26Z</time>
      </trkpt>
      <trkpt lat="46.73263" lon="-0.38057">
        <ele>261.53864</ele>
        <time>2014-07-30T08:38:28Z</time>
      </trkpt>
      <trkpt lat="46.73269" lon="-0.38051">
        <ele>261.498835</ele>
        <time>2014-07-30T08:38:30Z</time>
      </trkpt>
      <trkpt lat="46.73274" lon="-0.38046">
        <ele>261.247875</ele>
        <time>2014-07-30T08:38:32Z</time>
      </trkpt>
      <trkpt lat="46.73279" lon="-0.38041">
        <ele>261.105964</ele>
        <time>2014-07-30T08:38:34Z</time>
      </trkpt>
      <trkpt lat="46.73284" lon="-0.38036">
        <ele>261.014386</ele>
        <time>2014-07-30T08:38:36Z</time>
      </trkpt>
      <trkpt lat="46.7329" lon="-0.38031">
        <ele>261.001317</ele>
        <time>2014-07-30T08:38:38Z</time>
      </trkpt>
      <trkpt lat="46.73294" lon="-0.38026">
        <ele>260.933873</ele>
        <time>2014-07-30T08:38:40Z</time>
      </trkpt>
      <trkpt lat="46.73299" lon="-0.3802">
        <ele>260.802204</ele>
        <time>2014-07-30T08:38:42Z</time>
      </trkpt>
      <trkpt lat="46.73303" lon="-0.38015">
        <ele>260.710369</ele>
        <time>2014-07-30T08:38:44Z</time>
      </trkpt>
      <trkpt lat="46.73308" lon="-0.3801">
        <ele>260.658659</ele>
        <time>2014-07-30T08:38:46Z</time>
      </trkpt>
      <trkpt lat="46.73313" lon="-0.38006">
        <ele>260.676172</ele>
        <time>2014-07-30T08:38:48Z</time>
      </trkpt>
      <trkpt lat="46.73318" lon="-0.38002">
        <ele>260.762022</ele>
        <time>2014-07-30T08:38:50Z</time>
      </trkpt>
      <trkpt lat="46.73323" lon="-0.37997">
        <ele>260.870748</ele>
        <time>2014-07-30T08:38:52Z</time>
      </trkpt>
      <trkpt lat="46.73328" lon="-0.37992">
        <ele>260.920119</ele>
        <time>2014-07-30T08:38:54Z</time>
      </trkpt>
      <trkpt lat="46.73332" lon="-0.37987">
        <ele>260.933276</ele>
        <time>2014-07-30T08:38:56Z</time>
      </trkpt>
      <trkpt lat="46.73337" lon="-0.37983">
        <ele>260.827165</ele>
        <time>2014-07-30T08:38:58Z</time>
      </trkpt>
      <trkpt lat="46.73342" lon="-0.37979">
        <ele>260.836632</ele>
        <time>2014-07-30T08:39:00Z</time>
      </trkpt>
      <trkpt lat="46.73347" lon="-0.37975">
        <ele>260.938327</ele>
        <time>2014-07-30T08:39:02Z</time>
      </trkpt>
      <trkpt lat="46.73353" lon="-0.37972">
        <ele>261.010956</ele>
        <time>2014-07-30T08:39:04Z</time>
      </trkpt>
      <trkpt lat="46.73359" lon="-0.3797">
        <ele>261.065502</ele>
        <time>2014-07-30T08:39:06Z</time>
      </trkpt>
      <trkpt lat="46.73364" lon="-0.37971">
        <ele>261.153221</ele>
        <time>2014-07-30T08:39:08Z</time>
      </trkpt>
      <trkpt lat="46.73371" lon="-0.37972">
        <ele>261.273717</ele>
        <time>2014-07-30T08:39:10Z</time>
      </trkpt>
      <trkpt lat="46.73377" lon="-0.37973">
        <ele>261.392036</ele>
        <time>2014-07-30T08:39:12Z</time>
      </trkpt>
      <trkpt lat="46.73382" lon="-0.37973">
        <ele>261.575829</ele>
        <time>2014-07-30T08:39:14Z</time>
      </trkpt>
      <trkpt lat="46.73387" lon="-0.37974">
        <ele>261.619297</ele>
        <time>2014-07-30T08:39:16Z</time>
      </trkpt>
      <trkpt lat="46.73392" lon="-0.37975">
        <ele>261.709157</ele>
        <time>2014-07-30T08:39:18Z</time>
      </trkpt>
      <trkpt lat="46.73397" lon="-0.37976">
        <ele>261.854422</ele>
        <time>2014-07-30T08:39:20Z</time>
      </trkpt>
      <trkpt lat="46.73404" lon="-0.37978">
        <ele>261.958211</ele>
        <time>2014-07-30T08:39:22Z</time>
      </trkpt>
      <trkpt lat="46.73409" lon="-0.37979">
        <ele>262.091888</ele>
        <time>2014-07-30T08:39:24Z</time>
      </trkpt>
      <trkpt lat="46.73415" lon="-0.37981">
        <ele>262.073345</ele>
        <time>2014-07-30T08:39:26Z</time>
      </trkpt>
      <trkpt lat="46.73421" lon="-0.37984">
        <ele>261.950503</ele>
        <time>2014-07-30T08:39:28Z</time>
      </trkpt>
      <trkpt lat="46.73428" lon="-0.37986">
        <ele>261.917271</ele>
        <time>2014-07-30T08:39:30Z</time>
      </trkpt>
      <trkpt lat="46.73433" lon="-0.37988">
        <ele>261.911154</ele>
        <time>2014-07-30T08:39:32Z</time>
      </trkpt>
      <trkpt lat="46.73439" lon="-0.37989">
        <ele>261.957041</ele>
        <time>2014-07-30T08:39:34Z</time>
      </trkpt>
      <trkpt lat="46.73445" lon="-0.37991">
        <ele>261.998988</ele>
        <time>2014-07-30T08:39:36Z</time>
      </trkpt>
      <trkpt lat="46.73451" lon="-0.37994">
        <ele>261.961645</ele>
        <time>2014-07-30T08:39:38Z</time>
      </trkpt>
      <trkpt lat="46.73456" lon="-0.37995">
        <ele>261.976714</ele>
        <time>2014-07-30T08:39:40Z</time>
      </trkpt>
      <trkpt lat="46.73461" lon="-0.37996">
        <ele>262.128122</ele>
        <time>2014-07-30T08:39:42Z</time>
      </trkpt>
      <trkpt lat="46.73466" lon="-0.37998">
        <ele>262.145027</ele>
        <time>2014-07-30T08:39:44Z</time>
      </trkpt>
      <trkpt lat="46.73472" lon="-0.38001">
        <ele>262.135684</ele>
        <time>2014-07-30T08:39:46Z</time>
      </trkpt>
      <trkpt lat="46.73477" lon="-0.38003">
        <ele>262.039143</ele>
        <time>2014-07-30T08:39:48Z</time>
      </trkpt>
      <trkpt lat="46.73483" lon="-0.38004">
        <ele>261.904522</ele>
        <time>2014-07-30T08:39:50Z</time>
      </trkpt>
      <trkpt lat="46.73489" lon="-0.38005">
        <ele>261.94823</ele>
        <time>2014-07-30T08:39:52Z</time>
      </trkpt>
      <trkpt lat="46.73494" lon="-0.38008">
        <ele>262.086997</ele>
        <time>2014-07-30T08:39:54Z</time>
      </trkpt>
      <trkpt lat="46.735" lon="-0.38012">
        <ele>262.085985</ele>
        <time>2014-07-30T08:39:56Z</time>
      </trkpt>
      <trkpt lat="46.73506" lon="-0.38015">
        <ele>261.95476</ele>
        <time>2014-07-30T08:39:58Z</time>
      </trkpt>
      <trkpt lat="46.73512" lon="-0.38018">
        <ele>261.78834</ele>
        <time>2014-07-30T08:40:00Z</time>
      </trkpt>
      <trkpt lat="46.73517" lon="-0.38021">
        <ele>261.711215</ele>
        <time>2014-07-30T08:40:02Z</time>
      </trkpt>
      <trkpt lat="46.73522" lon="-0.38025">
        <ele>261.542963</ele>
        <time>2014-07-30T08:40:04Z</time>
      </trkpt>
      <trkpt lat="46.73527" lon="-0.38029">
        <ele>261.342633</ele>
        <time>2014-07-30T08:40:06Z</time>
      </trkpt>
      <trkpt lat="46.73532" lon="-0.38031">
        <ele>261.290329</ele>
        <time>2014-07-30T08:40:08Z</time>
      </trkpt>
      <trkpt lat="46.73538" lon="-0.38034">
        <ele>261.256199</ele>
        <time>2014-07-30T08:40:10Z</time>
      </trkpt>
      <trkpt lat="46.73544" lon="-0.38039">
        <ele>261.201624</ele>
        <time>2014-07-30T08:40:12Z</time>
      </trkpt>
      <trkpt lat="46.73549" lon="-0.38043">
        <ele>261.120133</ele>
        <time>2014-07-30T08:40:14Z</time>
      </trkpt>
      <trkpt lat="46.73554" lon="-0.38049">
        <ele>261.095759</ele>
        <time>2014-07-30T08:40:16Z</time>
      </trkpt>
      <trkpt lat="46.73558" lon="-0.38054">
        <ele>261.067165</ele>
        <time>2014-07-30T08:40:18Z</time>
      </trkpt>
      <trkpt lat="46.73562" lon="-0.3806">
        <ele>260.952455</ele>
        <time>2014-07-30T08:40:20Z</time>
      </trkpt>
      <trkpt lat="46.73566" lon="-0.38066">
        <ele>260.835334</ele>
        <time>2014-07-30T08:40:22Z</time>
      </trkpt>
      <trkpt lat="46.73569" lon="-0.38074">
        <ele>260.748485</ele>
        <time>2014-07-30T08:40:24Z</time>
      </trkpt>
      <trkpt lat="46.73573" lon="-0.38081">
        <ele>260.647475</ele>
        <time>2014-07-30T08:40:26Z</time>
      </trkpt>
      <trkpt lat="46.73576" lon="-0.38088">
        <ele>260.550072</ele>
        <time>2014-07-30T08:40:28Z</time>
      </trkpt>
      <trkpt lat="46.73581" lon="-0.38095">
        <ele>260.446201</ele>
        <time>2014-07-30T08:40:30Z</time>
      </trkpt>
      <trkpt lat="46.73585" lon="-0.38101">
        <ele>260.437871</ele>
        <time>2014-07-30T08:40:32Z</time>
      </trkpt>
      <trkpt lat="46.73589" lon="-0.38106">
        <ele>260.393682</ele>
        <time>2014-07-30T08:40:34Z</time>
      </trkpt>
      <trkpt lat="46.73594" lon="-0.38112">
        <ele>260.160706</ele>
        <time>2014-07-30T08:40:36Z</time>
      </trkpt>
      <trkpt lat="46.73599" lon="-0.38117">
        <ele>259.889993</ele>
        <time>2014-07-30T08:40:38Z</time>
      </trkpt>
      <trkpt lat="46.73603" lon="-0.38123">
        <ele>259.627268</ele>
        <time>2014-07-30T08:40:40Z</time>
      </trkpt>
      <trkpt lat="46.73607" lon="-0.38127">
        <ele>259.287252</ele>
        <time>2014-07-30T08:40:42Z</time>
      </trkpt>
      <trkpt lat="46.73612" lon="-0.38132">
        <ele>259.075234</ele>
        <time>2014-07-30T08:40:44Z</time>
      </trkpt>
      <trkpt lat="46.73616" lon="-0.38137">
        <ele>258.962899</ele>
        <time>2014-07-30T08:40:46Z</time>
      </trkpt>
      <trkpt lat="46.73621" lon="-0.38142">
        <ele>258.792613</ele>
        <time>2014-07-30T08:40:48Z</time>
      </trkpt>
      <trkpt lat="46.73625" lon="-0.38148">
        <ele>258.712869</ele>
        <time>2014-07-30T08:40:50Z</time>
      </trkpt>
      <trkpt lat="46.7363" lon="-0.38152">
        <ele>258.545075</ele>
        <time>2014-07-30T08:40:52Z</time>
      </trkpt>
      <trkpt lat="46.73635" lon="-0.38157">
        <ele>258.386229</ele>
        <time>2014-07-30T08:40:54Z</time>
      </trkpt>
      <trkpt lat="46.73641" lon="-0.38162">
        <ele>258.145509</ele>
        <time>2014-07-30T08:40:56Z</time>
      </trkpt>
      <trkpt lat="46.73646" lon="-0.38166">
        <ele>257.87412</ele>
        <time>2014-07-30T08:40:58Z</time>
      </trkpt>
      <trkpt lat="46.73651" lon="-0.38169">
        <ele>257.769377</ele>
        <time>2014-07-30T08:41:00Z</time>
      </trkpt>
      <trkpt lat="46.73658" lon="-0.38173">
        <ele>257.729441</ele>
        <time>2014-07-30T08:41:02Z</time>
      </trkpt>
      <trkpt lat="46.73665" lon="-0.38177">
        <ele>257.644732</ele>
        <time>2014-07-30T08:41:04Z</time>
      </trkpt>
      <trkpt lat="46.73672" lon="-0.38179">
        <ele>257.50647</ele>
        <time>2014-07-30T08:41:06Z</time>
      </trkpt>
      <trkpt lat="46.73678" lon="-0.38181">
        <ele>257.408267</ele>
        <time>2014-07-30T08:41:08Z</time>
      </trkpt>
      <trkpt lat="46.73685" lon="-0.38182">
        <ele>257.362658</ele>
        <time>2014-07-30T08:41:10Z</time>
      </trkpt>
      <trkpt lat="46.73691" lon="-0.38184">
        <ele>257.270567</ele>
        <time>2014-07-30T08:41:12Z</time>
      </trkpt>
      <trkpt lat="46.73696" lon="-0.38185">
        <ele>257.051066</ele>
        <time>2014-07-30T08:41:14Z</time>
      </trkpt>
      <trkpt lat="46.73701" lon="-0.38186">
        <ele>256.915277</ele>
        <time>2014-07-30T08:41:16Z</time>
      </trkpt>
      <trkpt lat="46.73707" lon="-0.38187">
        <ele>256.905346</ele>
        <time>2014-07-30T08:41:18Z</time>
      </trkpt>
      <trkpt lat="46.73713" lon="-0.38189">
        <ele>256.819571</ele>
        <time>2014-07-30T08:41:20Z</time>
      </trkpt>
      <trkpt lat="46.73719" lon="-0.3819">
        <ele>256.694855</ele>
        <time>2014-07-30T08:41:22Z</time>
      </trkpt>
      <trkpt lat="46.73725" lon="-0.38193">
        <ele>256.591062</ele>
        <time>2014-07-30T08:41:24Z</time>
      </trkpt>
      <trkpt lat="46.7373" lon="-0.38196">
        <ele>256.523006</ele>
        <time>2014-07-30T08:41:26Z</time>
      </trkpt>
      <trkpt lat="46.73735" lon="-0.38199">
        <ele>256.497395</ele>
        <time>2014-07-30T08:41:28Z</time>
      </trkpt>
      <trkpt lat="46.7374" lon="-0.38202">
        <ele>256.439428</ele>
        <time>2014-07-30T08:41:30Z</time>
      </trkpt>
      <trkpt lat="46.73745" lon="-0.38205">
        <ele>256.328187</ele>
        <time>2014-07-30T08:41:32Z</time>
      </trkpt>
      <trkpt lat="46.73751" lon="-0.38209">
        <ele>256.135174</ele>
        <time>2014-07-30T08:41:34Z</time>
      </trkpt>
      <trkpt lat="46.73757" lon="-0.38213">
        <ele>256.015885</ele>
        <time>2014-07-30T08:41:36Z</time>
      </trkpt>
      <trkpt lat="46.73763" lon="-0.38217">
        <ele>256.02821</ele>
        <time>2014-07-30T08:41:38Z</time>
      </trkpt>
      <trkpt lat="46.73769" lon="-0.3822">
        <ele>256.074054</ele>
        <time>2014-07-30T08:41:40Z</time>
      </trkpt>
      <trkpt lat="46.73774" lon="-0.38223">
        <ele>256.036768</ele>
        <time>2014-07-30T08:41:42Z</time>
      </trkpt>
      <trkpt lat="46.73779" lon="-0.38227">
        <ele>256.032654</ele>
        <time>2014-07-30T08:41:44Z</time>
      </trkpt>
      <trkpt lat="46.73784" lon="-0.3823">
        <ele>255.99901</ele>
        <time>2014-07-30T08:41:46Z</time>
      </trkpt>
      <trkpt lat="46.73788" lon="-0.38234">
        <ele>255.924209</ele>
        <time>2014-07-30T08:41:48Z</time>
      </trkpt>
      <trkpt lat="46.73793" lon="-0.38237">
        <ele>255.912061</ele>
        <time>2014-07-30T08:41:50Z</time>
      </trkpt>
      <trkpt lat="46.73797" lon="-0.3824">
        <ele>256.00043</ele>
        <time>2014-07-30T08:41:52Z</time>
      </trkpt>
      <trkpt lat="46.73803" lon="-0.38244">
        <ele>255.99792</ele>
        <time>2014-07-30T08:41:54Z</time>
      </trkpt>
      <trkpt lat="46.73808" lon="-0.38248">
        <ele>255.97601</ele>
        <time>2014-07-30T08:41:56Z</time>
      </trkpt>
      <trkpt lat="46.73812" lon="-0.38251">
        <ele>255.928472</ele>
        <time>2014-07-30T08:41:58Z</time>
      </trkpt>
      <trkpt lat="46.73817" lon="-0.38255">
        <ele>255.973504</ele>
        <time>2014-07-30T08:42:00Z</time>
      </trkpt>
      <trkpt lat="46.73822" lon="-0.38259">
        <ele>255.887558</ele>
        <time>2014-07-30T08:42:02Z</time>
      </trkpt>
      <trkpt lat="46.73827" lon="-0.38262">
        <ele>255.825183</ele>
        <time>2014-07-30T08:42:04Z</time>
      </trkpt>
      <trkpt lat="46.73833" lon="-0.38265">
        <ele>255.826846</ele>
        <time>2014-07-30T08:42:06Z</time>
      </trkpt>
      <trkpt lat="46.73838" lon="-0.38269">
        <ele>255.70216</ele>
        <time>2014-07-30T08:42:08Z</time>
      </trkpt>
      <trkpt lat="46.73844" lon="-0.38273">
        <ele>255.561602</ele>
        <time>2014-07-30T08:42:10Z</time>
      </trkpt>
      <trkpt lat="46.73848" lon="-0.38277">
        <ele>255.442772</ele>
        <time>2014-07-30T08:42:12Z</time>
      </trkpt>
      <trkpt lat="46.73852" lon="-0.38281">
        <ele>255.301815</ele>
        <time>2014-07-30T08:42:14Z</time>
      </trkpt>
      <trkpt lat="46.73857" lon="-0.38283">
        <ele>255.130492</ele>
        <time>2014-07-30T08:42:16Z</time>
      </trkpt>
      <trkpt lat="46.73863" lon="-0.38287">
        <ele>254.835845</ele>
        <time>2014-07-30T08:42:18Z</time>
      </trkpt>
      <trkpt lat="46.7387" lon="-0.38291">
        <ele>254.632515</ele>
        <time>2014-07-30T08:42:20Z</time>
      </trkpt>
      <trkpt lat="46.73875" lon="-0.38294">
        <ele>254.508855</ele>
        <time>2014-07-30T08:42:22Z</time>
      </trkpt>
      <trkpt lat="46.73881" lon="-0.38298">
        <ele>254.372165</ele>
        <time>2014-07-30T08:42:24Z</time>
      </trkpt>
      <trkpt lat="46.73886" lon="-0.38301">
        <ele>254.100118</ele>
        <time>2014-07-30T08:42:26Z</time>
      </trkpt>
      <trkpt lat="46.73891" lon="-0.38303">
        <ele>253.811306</ele>
        <time>2014-07-30T08:42:28Z</time>
      </trkpt>
      <trkpt lat="46.73896" lon="-0.38306">
        <ele>253.541713</ele>
        <time>2014-07-30T08:42:30Z</time>
      </trkpt>
      <trkpt lat="46.73901" lon="-0.38309">
        <ele>253.31945</ele>
        <time>2014-07-30T08:42:32Z</time>
      </trkpt>
      <trkpt lat="46.73906" lon="-0.38311">
        <ele>253.282528</ele>
        <time>2014-07-30T08:42:34Z</time>
      </trkpt>
      <trkpt lat="46.73912" lon="-0.38314">
        <ele>253.378231</ele>
        <time>2014-07-30T08:42:36Z</time>
      </trkpt>
      <trkpt lat="46.73918" lon="-0.38318">
        <ele>253.445279</ele>
        <time>2014-07-30T08:42:38Z</time>
      </trkpt>
      <trkpt lat="46.73925" lon="-0.38321">
        <ele>253.444213</ele>
        <time>2014-07-30T08:42:40Z</time>
      </trkpt>
      <trkpt lat="46.73931" lon="-0.38324">
        <ele>253.469977</ele>
        <time>2014-07-30T08:42:42Z</time>
      </trkpt>
      <trkpt lat="46.73937" lon="-0.38328">
        <ele>253.474397</ele>
        <time>2014-07-30T08:42:44Z</time>
      </trkpt>
      <trkpt lat="46.73942" lon="-0.3833">
        <ele>253.489259</ele>
        <time>2014-07-30T08:42:46Z</time>
      </trkpt>
      <trkpt lat="46.73949" lon="-0.38332">
        <ele>253.667735</ele>
        <time>2014-07-30T08:42:49Z</time>
      </trkpt>
      <trkpt lat="46.73954" lon="-0.38334">
        <ele>253.756074</ele>
        <time>2014-07-30T08:42:51Z</time>
      </trkpt>
      <trkpt lat="46.73959" lon="-0.38336">
        <ele>253.831006</ele>
        <time>2014-07-30T08:42:53Z</time>
      </trkpt>
      <trkpt lat="46.73965" lon="-0.3834">
        <ele>253.942768</ele>
        <time>2014-07-30T08:42:55Z</time>
      </trkpt>
      <trkpt lat="46.73971" lon="-0.38343">
        <ele>253.97832</ele>
        <time>2014-07-30T08:42:57Z</time>
      </trkpt>
      <trkpt lat="46.73977" lon="-0.38344">
        <ele>254.017659</ele>
        <time>2014-07-30T08:42:59Z</time>
      </trkpt>
      <trkpt lat="46.73982" lon="-0.38345">
        <ele>254.023041</ele>
        <time>2014-07-30T08:43:01Z</time>
      </trkpt>
      <trkpt lat="46.73988" lon="-0.38347">
        <ele>254.005215</ele>
        <time>2014-07-30T08:43:03Z</time>
      </trkpt>
      <trkpt lat="46.73992" lon="-0.38349">
        <ele>253.979517</ele>
        <time>2014-07-30T08:43:05Z</time>
      </trkpt>
      <trkpt lat="46.73998" lon="-0.38351">
        <ele>254.026191</ele>
        <time>2014-07-30T08:43:07Z</time>
      </trkpt>
      <trkpt lat="46.74003" lon="-0.38353">
        <ele>254.172624</ele>
        <time>2014-07-30T08:43:09Z</time>
      </trkpt>
      <trkpt lat="46.74009" lon="-0.38356">
        <ele>254.327993</ele>
        <time>2014-07-30T08:43:11Z</time>
      </trkpt>
      <trkpt lat="46.74015" lon="-0.38359">
        <ele>254.416893</ele>
        <time>2014-07-30T08:43:13Z</time>
      </trkpt>
      <trkpt lat="46.74021" lon="-0.38362">
        <ele>254.369891</ele>
        <time>2014-07-30T08:43:15Z</time>
      </trkpt>
      <trkpt lat="46.74026" lon="-0.38364">
        <ele>254.244577</ele>
        <time>2014-07-30T08:43:17Z</time>
      </trkpt>
      <trkpt lat="46.74033" lon="-0.38365">
        <ele>254.150745</ele>
        <time>2014-07-30T08:43:19Z</time>
      </trkpt>
      <trkpt lat="46.74039" lon="-0.38368">
        <ele>253.998301</ele>
        <time>2014-07-30T08:43:21Z</time>
      </trkpt>
      <trkpt lat="46.74044" lon="-0.38371">
        <ele>253.885322</ele>
        <time>2014-07-30T08:43:23Z</time>
      </trkpt>
      <trkpt lat="46.7405" lon="-0.38373">
        <ele>253.841898</ele>
        <time>2014-07-30T08:43:25Z</time>
      </trkpt>
      <trkpt lat="46.74055" lon="-0.38375">
        <ele>253.8191</ele>
        <time>2014-07-30T08:43:27Z</time>
      </trkpt>
      <trkpt lat="46.74061" lon="-0.38376">
        <ele>253.69888</ele>
        <time>2014-07-30T08:43:29Z</time>
      </trkpt>
      <trkpt lat="46.74067" lon="-0.38378">
        <ele>253.729069</ele>
        <time>2014-07-30T08:43:31Z</time>
      </trkpt>
      <trkpt lat="46.74074" lon="-0.3838">
        <ele>253.741768</ele>
        <time>2014-07-30T08:43:33Z</time>
      </trkpt>
      <trkpt lat="46.7408" lon="-0.38382">
        <ele>253.725111</ele>
        <time>2014-07-30T08:43:35Z</time>
      </trkpt>
      <trkpt lat="46.74086" lon="-0.38385">
        <ele>253.624465</ele>
        <time>2014-07-30T08:43:37Z</time>
      </trkpt>
      <trkpt lat="46.74092" lon="-0.38387">
        <ele>253.441413</ele>
        <time>2014-07-30T08:43:39Z</time>
      </trkpt>
      <trkpt lat="46.74099" lon="-0.38389">
        <ele>253.328909</ele>
        <time>2014-07-30T08:43:41Z</time>
      </trkpt>
      <trkpt lat="46.74105" lon="-0.38391">
        <ele>253.217284</ele>
        <time>2014-07-30T08:43:43Z</time>
      </trkpt>
      <trkpt lat="46.74111" lon="-0.38393">
        <ele>253.09172</ele>
        <time>2014-07-30T08:43:45Z</time>
      </trkpt>
      <trkpt lat="46.74117" lon="-0.38395">
        <ele>252.985874</ele>
        <time>2014-07-30T08:43:47Z</time>
      </trkpt>
      <trkpt lat="46.74122" lon="-0.38397">
        <ele>252.846968</ele>
        <time>2014-07-30T08:43:49Z</time>
      </trkpt>
      <trkpt lat="46.74127" lon="-0.38399">
        <ele>252.59907</ele>
        <time>2014-07-30T08:43:52Z</time>
      </trkpt>
      <trkpt lat="46.74134" lon="-0.38403">
        <ele>252.401195</ele>
        <time>2014-07-30T08:43:54Z</time>
      </trkpt>
      <trkpt lat="46.74142" lon="-0.38406">
        <ele>252.304707</ele>
        <time>2014-07-30T08:43:56Z</time>
      </trkpt>
      <trkpt lat="46.74149" lon="-0.38408">
        <ele>252.274285</ele>
        <time>2014-07-30T08:43:58Z</time>
      </trkpt>
      <trkpt lat="46.74155" lon="-0.38409">
        <ele>252.272826</ele>
        <time>2014-07-30T08:44:00Z</time>
      </trkpt>
      <trkpt lat="46.74161" lon="-0.38411">
        <ele>252.195705</ele>
        <time>2014-07-30T08:44:02Z</time>
      </trkpt>
      <trkpt lat="46.74168" lon="-0.38413">
        <ele>252.101708</ele>
        <time>2014-07-30T08:44:04Z</time>
      </trkpt>
      <trkpt lat="46.74173" lon="-0.38415">
        <ele>252.007619</ele>
        <time>2014-07-30T08:44:06Z</time>
      </trkpt>
      <trkpt lat="46.74179" lon="-0.38417">
        <ele>251.785074</ele>
        <time>2014-07-30T08:44:08Z</time>
      </trkpt>
      <trkpt lat="46.74184" lon="-0.3842">
        <ele>251.579415</ele>
        <time>2014-07-30T08:44:10Z</time>
      </trkpt>
      <trkpt lat="46.7419" lon="-0.38421">
        <ele>251.34697</ele>
        <time>2014-07-30T08:44:12Z</time>
      </trkpt>
      <trkpt lat="46.74195" lon="-0.38422">
        <ele>251.119479</ele>
        <time>2014-07-30T08:44:14Z</time>
      </trkpt>
      <trkpt lat="46.74201" lon="-0.38424">
        <ele>250.936285</ele>
        <time>2014-07-30T08:44:16Z</time>
      </trkpt>
      <trkpt lat="46.74208" lon="-0.38425">
        <ele>250.747233</ele>
        <time>2014-07-30T08:44:18Z</time>
      </trkpt>
      <trkpt lat="46.74214" lon="-0.38425">
        <ele>250.535279</ele>
        <time>2014-07-30T08:44:20Z</time>
      </trkpt>
      <trkpt lat="46.7422" lon="-0.38426">
        <ele>250.340735</ele>
        <time>2014-07-30T08:44:22Z</time>
      </trkpt>
      <trkpt lat="46.74225" lon="-0.38424">
        <ele>250.042923</ele>
        <time>2014-07-30T08:44:26Z</time>
      </trkpt>
      <trkpt lat="46.74231" lon="-0.3842">
        <ele>249.864003</ele>
        <time>2014-07-30T08:44:28Z</time>
      </trkpt>
      <trkpt lat="46.74238" lon="-0.38418">
        <ele>249.768034</ele>
        <time>2014-07-30T08:44:30Z</time>
      </trkpt>
      <trkpt lat="46.74244" lon="-0.38416">
        <ele>249.651641</ele>
        <time>2014-07-30T08:44:32Z</time>
      </trkpt>
      <trkpt lat="46.7425" lon="-0.38417">
        <ele>249.509546</ele>
        <time>2014-07-30T08:44:34Z</time>
      </trkpt>
      <trkpt lat="46.74255" lon="-0.38418">
        <ele>249.249666</ele>
        <time>2014-07-30T08:44:36Z</time>
      </trkpt>
      <trkpt lat="46.74261" lon="-0.38419">
        <ele>249.061549</ele>
        <time>2014-07-30T08:44:38Z</time>
      </trkpt>
      <trkpt lat="46.74269" lon="-0.3842">
        <ele>248.862772</ele>
        <time>2014-07-30T08:44:40Z</time>
      </trkpt>
      <trkpt lat="46.74277" lon="-0.38422">
        <ele>248.582473</ele>
        <time>2014-07-30T08:44:42Z</time>
      </trkpt>
      <trkpt lat="46.74282" lon="-0.38424">
        <ele>248.325498</ele>
        <time>2014-07-30T08:44:44Z</time>
      </trkpt>
      <trkpt lat="46.74287" lon="-0.38426">
        <ele>248.117526</ele>
        <time>2014-07-30T08:44:46Z</time>
      </trkpt>
      <trkpt lat="46.74293" lon="-0.3843">
        <ele>248.106969</ele>
        <time>2014-07-30T08:44:49Z</time>
      </trkpt>
      <trkpt lat="46.74298" lon="-0.38433">
        <ele>247.891145</ele>
        <time>2014-07-30T08:44:51Z</time>
      </trkpt>
      <trkpt lat="46.74304" lon="-0.38436">
        <ele>247.59669</ele>
        <time>2014-07-30T08:44:53Z</time>
      </trkpt>
      <trkpt lat="46.74309" lon="-0.38441">
        <ele>247.257666</ele>
        <time>2014-07-30T08:44:55Z</time>
      </trkpt>
      <trkpt lat="46.74315" lon="-0.38445">
        <ele>246.992879</ele>
        <time>2014-07-30T08:44:57Z</time>
      </trkpt>
      <trkpt lat="46.7432" lon="-0.3845">
        <ele>246.725674</ele>
        <time>2014-07-30T08:44:59Z</time>
      </trkpt>
      <trkpt lat="46.74325" lon="-0.38453">
        <ele>246.449693</ele>
        <time>2014-07-30T08:45:01Z</time>
      </trkpt>
      <trkpt lat="46.7433" lon="-0.38458">
        <ele>246.144764</ele>
        <time>2014-07-30T08:45:03Z</time>
      </trkpt>
      <trkpt lat="46.74336" lon="-0.38462">
        <ele>245.889628</ele>
        <time>2014-07-30T08:45:05Z</time>
      </trkpt>
      <trkpt lat="46.7434" lon="-0.38465">
        <ele>245.651468</ele>
        <time>2014-07-30T08:45:07Z</time>
      </trkpt>
      <trkpt lat="46.74346" lon="-0.38468">
        <ele>245.541655</ele>
        <time>2014-07-30T08:45:09Z</time>
      </trkpt>
      <trkpt lat="46.74351" lon="-0.38471">
        <ele>245.42181</ele>
        <time>2014-07-30T08:45:11Z</time>
      </trkpt>
      <trkpt lat="46.74357" lon="-0.38475">
        <ele>245.33421</ele>
        <time>2014-07-30T08:45:13Z</time>
      </trkpt>
      <trkpt lat="46.74363" lon="-0.38479">
        <ele>245.27619</ele>
        <time>2014-07-30T08:45:15Z</time>
      </trkpt>
      <trkpt lat="46.74369" lon="-0.38482">
        <ele>245.239706</ele>
        <time>2014-07-30T08:45:17Z</time>
      </trkpt>
      <trkpt lat="46.74376" lon="-0.38487">
        <ele>245.105114</ele>
        <time>2014-07-30T08:45:19Z</time>
      </trkpt>
      <trkpt lat="46.74383" lon="-0.38491">
        <ele>245.126435</ele>
        <time>2014-07-30T08:45:21Z</time>
      </trkpt>
      <trkpt lat="46.74389" lon="-0.38494">
        <ele>245.024166</ele>
        <time>2014-07-30T08:45:23Z</time>
      </trkpt>
      <trkpt lat="46.74395" lon="-0.38497">
        <ele>244.822711</ele>
        <time>2014-07-30T08:45:25Z</time>
      </trkpt>
      <trkpt lat="46.74401" lon="-0.385">
        <ele>244.674324</ele>
        <time>2014-07-30T08:45:27Z</time>
      </trkpt>
      <trkpt lat="46.74406" lon="-0.38504">
        <ele>244.616189</ele>
        <time>2014-07-30T08:45:29Z</time>
      </trkpt>
      <trkpt lat="46.74411" lon="-0.38507">
        <ele>244.411556</ele>
        <time>2014-07-30T08:45:31Z</time>
      </trkpt>
      <trkpt lat="46.74416" lon="-0.3851">
        <ele>244.140403</ele>
        <time>2014-07-30T08:45:33Z</time>
      </trkpt>
      <trkpt lat="46.74421" lon="-0.38513">
        <ele>243.881736</ele>
        <time>2014-07-30T08:45:35Z</time>
      </trkpt>
      <trkpt lat="46.74426" lon="-0.38515">
        <ele>243.628779</ele>
        <time>2014-07-30T08:45:37Z</time>
      </trkpt>
      <trkpt lat="46.74433" lon="-0.38519">
        <ele>243.320255</ele>
        <time>2014-07-30T08:45:40Z</time>
      </trkpt>
      <trkpt lat="46.74439" lon="-0.38522">
        <ele>243.131009</ele>
        <time>2014-07-30T08:45:42Z</time>
      </trkpt>
      <trkpt lat="46.74444" lon="-0.38525">
        <ele>242.971746</ele>
        <time>2014-07-30T08:45:44Z</time>
      </trkpt>
      <trkpt lat="46.74449" lon="-0.38528">
        <ele>242.936629</ele>
        <time>2014-07-30T08:45:46Z</time>
      </trkpt>
      <trkpt lat="46.74455" lon="-0.3853">
        <ele>242.859994</ele>
        <time>2014-07-30T08:45:48Z</time>
      </trkpt>
      <trkpt lat="46.74461" lon="-0.38533">
        <ele>242.792929</ele>
        <time>2014-07-30T08:45:50Z</time>
      </trkpt>
      <trkpt lat="46.74467" lon="-0.38536">
        <ele>242.726472</ele>
        <time>2014-07-30T08:45:52Z</time>
      </trkpt>
      <trkpt lat="46.74473" lon="-0.38538">
        <ele>242.463275</ele>
        <time>2014-07-30T08:45:54Z</time>
      </trkpt>
      <trkpt lat="46.74479" lon="-0.38539">
        <ele>242.251738</ele>
        <time>2014-07-30T08:45:56Z</time>
      </trkpt>
      <trkpt lat="46.74486" lon="-0.38539">
        <ele>242.067887</ele>
        <time>2014-07-30T08:45:58Z</time>
      </trkpt>
      <trkpt lat="46.74493" lon="-0.38539">
        <ele>241.850359</ele>
        <time>2014-07-30T08:46:00Z</time>
      </trkpt>
      <trkpt lat="46.74498" lon="-0.3854">
        <ele>241.670508</ele>
        <time>2014-07-30T08:46:02Z</time>
      </trkpt>
      <trkpt lat="46.74506" lon="-0.3854">
        <ele>241.475449</ele>
        <time>2014-07-30T08:46:04Z</time>
      </trkpt>
      <trkpt lat="46.74513" lon="-0.38539">
        <ele>241.289848</ele>
        <time>2014-07-30T08:46:06Z</time>
      </trkpt>
      <trkpt lat="46.74518" lon="-0.38539">
        <ele>241.06906</ele>
        <time>2014-07-30T08:46:08Z</time>
      </trkpt>
      <trkpt lat="46.74523" lon="-0.38538">
        <ele>240.837821</ele>
        <time>2014-07-30T08:46:10Z</time>
      </trkpt>
      <trkpt lat="46.74528" lon="-0.38538">
        <ele>240.642339</ele>
        <time>2014-07-30T08:46:12Z</time>
      </trkpt>
      <trkpt lat="46.74535" lon="-0.38536">
        <ele>240.438823</ele>
        <time>2014-07-30T08:46:14Z</time>
      </trkpt>
      <trkpt lat="46.74543" lon="-0.38534">
        <ele>240.337701</ele>
        <time>2014-07-30T08:46:16Z</time>
      </trkpt>
      <trkpt lat="46.74548" lon="-0.38531">
        <ele>240.178385</ele>
        <time>2014-07-30T08:46:18Z</time>
      </trkpt>
      <trkpt lat="46.74552" lon="-0.38529">
        <ele>239.909704</ele>
        <time>2014-07-30T08:46:20Z</time>
      </trkpt>
      <trkpt lat="46.74559" lon="-0.38525">
        <ele>239.718259</ele>
        <time>2014-07-30T08:46:22Z</time>
      </trkpt>
      <trkpt lat="46.74564" lon="-0.38522">
        <ele>239.443003</ele>
        <time>2014-07-30T08:46:24Z</time>
      </trkpt>
      <trkpt lat="46.74569" lon="-0.38519">
        <ele>239.351178</ele>
        <time>2014-07-30T08:46:26Z</time>
      </trkpt>
      <trkpt lat="46.74575" lon="-0.38516">
        <ele>239.281775</ele>
        <time>2014-07-30T08:46:28Z</time>
      </trkpt>
      <trkpt lat="46.74581" lon="-0.3851">
        <ele>239.258593</ele>
        <time>2014-07-30T08:46:30Z</time>
      </trkpt>
      <trkpt lat="46.74585" lon="-0.38506">
        <ele>239.115679</ele>
        <time>2014-07-30T08:46:32Z</time>
      </trkpt>
      <trkpt lat="46.74589" lon="-0.38501">
        <ele>238.778344</ele>
        <time>2014-07-30T08:46:34Z</time>
      </trkpt>
      <trkpt lat="46.74593" lon="-0.38496">
        <ele>238.581115</ele>
        <time>2014-07-30T08:46:36Z</time>
      </trkpt>
      <trkpt lat="46.74597" lon="-0.38492">
        <ele>238.426838</ele>
        <time>2014-07-30T08:46:38Z</time>
      </trkpt>
      <trkpt lat="46.74602" lon="-0.38488">
        <ele>238.347701</ele>
        <time>2014-07-30T08:46:40Z</time>
      </trkpt>
      <trkpt lat="46.74606" lon="-0.38484">
        <ele>238.31057</ele>
        <time>2014-07-30T08:46:42Z</time>
      </trkpt>
      <trkpt lat="46.7461" lon="-0.38481">
        <ele>238.404099</ele>
        <time>2014-07-30T08:46:44Z</time>
      </trkpt>
      <trkpt lat="46.74615" lon="-0.38478">
        <ele>238.425827</ele>
        <time>2014-07-30T08:46:46Z</time>
      </trkpt>
      <trkpt lat="46.7462" lon="-0.38476">
        <ele>238.458824</ele>
        <time>2014-07-30T08:46:48Z</time>
      </trkpt>
      <trkpt lat="46.74625" lon="-0.38473">
        <ele>238.368461</ele>
        <time>2014-07-30T08:46:50Z</time>
      </trkpt>
      <trkpt lat="46.7463" lon="-0.38471">
        <ele>238.176962</ele>
        <time>2014-07-30T08:46:52Z</time>
      </trkpt>
      <trkpt lat="46.74635" lon="-0.38468">
        <ele>237.944913</ele>
        <time>2014-07-30T08:46:54Z</time>
      </trkpt>
      <trkpt lat="46.7464" lon="-0.38467">
        <ele>237.84085</ele>
        <time>2014-07-30T08:46:56Z</time>
      </trkpt>
      <trkpt lat="46.74645" lon="-0.38465">
        <ele>237.819177</ele>
        <time>2014-07-30T08:46:58Z</time>
      </trkpt>
      <trkpt lat="46.74651" lon="-0.38465">
        <ele>237.762166</ele>
        <time>2014-07-30T08:47:00Z</time>
      </trkpt>
      <trkpt lat="46.74658" lon="-0.38464">
        <ele>237.805418</ele>
        <time>2014-07-30T08:47:02Z</time>
      </trkpt>
      <trkpt lat="46.74663" lon="-0.38464">
        <ele>237.842442</ele>
        <time>2014-07-30T08:47:04Z</time>
      </trkpt>
      <trkpt lat="46.74669" lon="-0.38464">
        <ele>237.730232</ele>
        <time>2014-07-30T08:47:06Z</time>
      </trkpt>
      <trkpt lat="46.74675" lon="-0.38464">
        <ele>237.732567</ele>
        <time>2014-07-30T08:47:08Z</time>
      </trkpt>
      <trkpt lat="46.74679" lon="-0.38464">
        <ele>237.774787</ele>
        <time>2014-07-30T08:47:10Z</time>
      </trkpt>
      <trkpt lat="46.74684" lon="-0.38463">
        <ele>237.755291</ele>
        <time>2014-07-30T08:47:12Z</time>
      </trkpt>
      <trkpt lat="46.7469" lon="-0.38462">
        <ele>237.725988</ele>
        <time>2014-07-30T08:47:14Z</time>
      </trkpt>
      <trkpt lat="46.74696" lon="-0.38462">
        <ele>237.622456</ele>
        <time>2014-07-30T08:47:16Z</time>
      </trkpt>
      <trkpt lat="46.74702" lon="-0.38461">
        <ele>237.6508</ele>
        <time>2014-07-30T08:47:18Z</time>
      </trkpt>
      <trkpt lat="46.74708" lon="-0.38461">
        <ele>237.729688</ele>
        <time>2014-07-30T08:47:20Z</time>
      </trkpt>
      <trkpt lat="46.74713" lon="-0.3846">
        <ele>237.826409</ele>
        <time>2014-07-30T08:47:22Z</time>
      </trkpt>
      <trkpt lat="46.74718" lon="-0.38459">
        <ele>237.901146</ele>
        <time>2014-07-30T08:47:24Z</time>
      </trkpt>
      <trkpt lat="46.74724" lon="-0.38459">
        <ele>237.96172</ele>
        <time>2014-07-30T08:47:26Z</time>
      </trkpt>
      <trkpt lat="46.74729" lon="-0.38459">
        <ele>237.97019</ele>
        <time>2014-07-30T08:47:28Z</time>
      </trkpt>
      <trkpt lat="46.74735" lon="-0.38459">
        <ele>237.994118</ele>
        <time>2014-07-30T08:47:30Z</time>
      </trkpt>
      <trkpt lat="46.74741" lon="-0.38459">
        <ele>238.058694</ele>
        <time>2014-07-30T08:47:32Z</time>
      </trkpt>
      <trkpt lat="46.74747" lon="-0.38459">
        <ele>238.22469</ele>
        <time>2014-07-30T08:47:34Z</time>
      </trkpt>
      <trkpt lat="46.74753" lon="-0.38458">
        <ele>238.432445</ele>
        <time>2014-07-30T08:47:36Z</time>
      </trkpt>
      <trkpt lat="46.74759" lon="-0.38453">
        <ele>238.612476</ele>
        <time>2014-07-30T08:47:39Z</time>
      </trkpt>
      <trkpt lat="46.74764" lon="-0.3845">
        <ele>238.766235</ele>
        <time>2014-07-30T08:47:41Z</time>
      </trkpt>
      <trkpt lat="46.7477" lon="-0.38449">
        <ele>238.91059</ele>
        <time>2014-07-30T08:47:43Z</time>
      </trkpt>
      <trkpt lat="46.74776" lon="-0.38449">
        <ele>238.914967</ele>
        <time>2014-07-30T08:47:45Z</time>
      </trkpt>
      <trkpt lat="46.74783" lon="-0.38449">
        <ele>238.976564</ele>
        <time>2014-07-30T08:47:48Z</time>
      </trkpt>
      <trkpt lat="46.74788" lon="-0.38451">
        <ele>239.012825</ele>
        <time>2014-07-30T08:47:50Z</time>
      </trkpt>
      <trkpt lat="46.74794" lon="-0.38453">
        <ele>239.029406</ele>
        <time>2014-07-30T08:47:52Z</time>
      </trkpt>
      <trkpt lat="46.748" lon="-0.38455">
        <ele>239.108104</ele>
        <time>2014-07-30T08:47:54Z</time>
      </trkpt>
      <trkpt lat="46.74807" lon="-0.38455">
        <ele>239.179507</ele>
        <time>2014-07-30T08:47:56Z</time>
      </trkpt>
      <trkpt lat="46.74814" lon="-0.38455">
        <ele>239.28807</ele>
        <time>2014-07-30T08:47:58Z</time>
      </trkpt>
      <trkpt lat="46.74819" lon="-0.38454">
        <ele>239.446058</ele>
        <time>2014-07-30T08:48:00Z</time>
      </trkpt>
      <trkpt lat="46.74825" lon="-0.38454">
        <ele>239.527969</ele>
        <time>2014-07-30T08:48:02Z</time>
      </trkpt>
      <trkpt lat="46.74831" lon="-0.38453">
        <ele>239.589366</ele>
        <time>2014-07-30T08:48:04Z</time>
      </trkpt>
      <trkpt lat="46.74837" lon="-0.38452">
        <ele>239.578127</ele>
        <time>2014-07-30T08:48:06Z</time>
      </trkpt>
      <trkpt lat="46.74843" lon="-0.38451">
        <ele>239.461059</ele>
        <time>2014-07-30T08:48:08Z</time>
      </trkpt>
      <trkpt lat="46.74848" lon="-0.3845">
        <ele>239.426727</ele>
        <time>2014-07-30T08:48:10Z</time>
      </trkpt>
      <trkpt lat="46.74854" lon="-0.38448">
        <ele>239.346123</ele>
        <time>2014-07-30T08:48:12Z</time>
      </trkpt>
      <trkpt lat="46.7486" lon="-0.38447">
        <ele>239.326506</ele>
        <time>2014-07-30T08:48:14Z</time>
      </trkpt>
      <trkpt lat="46.74867" lon="-0.38446">
        <ele>239.315128</ele>
        <time>2014-07-30T08:48:17Z</time>
      </trkpt>
      <trkpt lat="46.74873" lon="-0.38445">
        <ele>239.275864</ele>
        <time>2014-07-30T08:48:19Z</time>
      </trkpt>
      <trkpt lat="46.74879" lon="-0.38444">
        <ele>239.281747</ele>
        <time>2014-07-30T08:48:21Z</time>
      </trkpt>
      <trkpt lat="46.74885" lon="-0.38443">
        <ele>239.33908</ele>
        <time>2014-07-30T08:48:23Z</time>
      </trkpt>
      <trkpt lat="46.74891" lon="-0.38442">
        <ele>239.344124</ele>
        <time>2014-07-30T08:48:25Z</time>
      </trkpt>
      <trkpt lat="46.74899" lon="-0.38441">
        <ele>239.419835</ele>
        <time>2014-07-30T08:48:28Z</time>
      </trkpt>
      <trkpt lat="46.74907" lon="-0.38441">
        <ele>239.357059</ele>
        <time>2014-07-30T08:48:30Z</time>
      </trkpt>
      <trkpt lat="46.74912" lon="-0.3844">
        <ele>239.204412</ele>
        <time>2014-07-30T08:48:32Z</time>
      </trkpt>
      <trkpt lat="46.74918" lon="-0.38439">
        <ele>239.146732</ele>
        <time>2014-07-30T08:48:34Z</time>
      </trkpt>
      <trkpt lat="46.74923" lon="-0.38439">
        <ele>239.063432</ele>
        <time>2014-07-30T08:48:36Z</time>
      </trkpt>
      <trkpt lat="46.74928" lon="-0.38439">
        <ele>238.906515</ele>
        <time>2014-07-30T08:48:38Z</time>
      </trkpt>
      <trkpt lat="46.74934" lon="-0.3844">
        <ele>238.786431</ele>
        <time>2014-07-30T08:48:40Z</time>
      </trkpt>
      <trkpt lat="46.7494" lon="-0.38442">
        <ele>238.711848</ele>
        <time>2014-07-30T08:48:42Z</time>
      </trkpt>
      <trkpt lat="46.74945" lon="-0.38445">
        <ele>238.693374</ele>
        <time>2014-07-30T08:48:44Z</time>
      </trkpt>
      <trkpt lat="46.7495" lon="-0.38447">
        <ele>238.599303</ele>
        <time>2014-07-30T08:48:46Z</time>
      </trkpt>
      <trkpt lat="46.74955" lon="-0.38451">
        <ele>238.570164</ele>
        <time>2014-07-30T08:48:48Z</time>
      </trkpt>
      <trkpt lat="46.74959" lon="-0.38455">
        <ele>238.629467</ele>
        <time>2014-07-30T08:48:50Z</time>
      </trkpt>
      <trkpt lat="46.74963" lon="-0.3846">
        <ele>238.705998</ele>
        <time>2014-07-30T08:48:52Z</time>
      </trkpt>
      <trkpt lat="46.74968" lon="-0.38467">
        <ele>238.818086</ele>
        <time>2014-07-30T08:48:54Z</time>
      </trkpt>
      <trkpt lat="46.74972" lon="-0.38476">
        <ele>238.829747</ele>
        <time>2014-07-30T08:48:56Z</time>
      </trkpt>
      <trkpt lat="46.74975" lon="-0.38482">
        <ele>238.930575</ele>
        <time>2014-07-30T08:48:58Z</time>
      </trkpt>
      <trkpt lat="46.74978" lon="-0.38489">
        <ele>239.011743</ele>
        <time>2014-07-30T08:49:00Z</time>
      </trkpt>
      <trkpt lat="46.74981" lon="-0.38497">
        <ele>239.047775</ele>
        <time>2014-07-30T08:49:02Z</time>
      </trkpt>
      <trkpt lat="46.74984" lon="-0.38504">
        <ele>239.014093</ele>
        <time>2014-07-30T08:49:04Z</time>
      </trkpt>
      <trkpt lat="46.74986" lon="-0.38511">
        <ele>238.980687</ele>
        <time>2014-07-30T08:49:06Z</time>
      </trkpt>
      <trkpt lat="46.74989" lon="-0.38518">
        <ele>238.896994</ele>
        <time>2014-07-30T08:49:08Z</time>
      </trkpt>
      <trkpt lat="46.74992" lon="-0.38525">
        <ele>238.77352</ele>
        <time>2014-07-30T08:49:10Z</time>
      </trkpt>
      <trkpt lat="46.74995" lon="-0.38533">
        <ele>238.717866</ele>
        <time>2014-07-30T08:49:12Z</time>
      </trkpt>
      <trkpt lat="46.74998" lon="-0.38542">
        <ele>238.669551</ele>
        <time>2014-07-30T08:49:14Z</time>
      </trkpt>
      <trkpt lat="46.75001" lon="-0.38551">
        <ele>238.628966</ele>
        <time>2014-07-30T08:49:16Z</time>
      </trkpt>
      <trkpt lat="46.75004" lon="-0.38558">
        <ele>238.653189</ele>
        <time>2014-07-30T08:49:18Z</time>
      </trkpt>
      <trkpt lat="46.75006" lon="-0.38564">
        <ele>238.63194</ele>
        <time>2014-07-30T08:49:20Z</time>
      </trkpt>
      <trkpt lat="46.75009" lon="-0.38572">
        <ele>238.518817</ele>
        <time>2014-07-30T08:49:22Z</time>
      </trkpt>
      <trkpt lat="46.75012" lon="-0.3858">
        <ele>238.462997</ele>
        <time>2014-07-30T08:49:24Z</time>
      </trkpt>
      <trkpt lat="46.75015" lon="-0.38587">
        <ele>238.406835</ele>
        <time>2014-07-30T08:49:26Z</time>
      </trkpt>
      <trkpt lat="46.75018" lon="-0.38593">
        <ele>238.386009</ele>
        <time>2014-07-30T08:49:28Z</time>
      </trkpt>
      <trkpt lat="46.75021" lon="-0.38601">
        <ele>238.306313</ele>
        <time>2014-07-30T08:49:31Z</time>
      </trkpt>
      <trkpt lat="46.75022" lon="-0.38608">
        <ele>238.335141</ele>
        <time>2014-07-30T08:49:33Z</time>
      </trkpt>
      <trkpt lat="46.75022" lon="-0.38615">
        <ele>238.290262</ele>
        <time>2014-07-30T08:49:35Z</time>
      </trkpt>
      <trkpt lat="46.75023" lon="-0.38623">
        <ele>238.220675</ele>
        <time>2014-07-30T08:49:37Z</time>
      </trkpt>
      <trkpt lat="46.75023" lon="-0.38631">
        <ele>238.116895</ele>
        <time>2014-07-30T08:49:39Z</time>
      </trkpt>
      <trkpt lat="46.75024" lon="-0.38639">
        <ele>238.008349</ele>
        <time>2014-07-30T08:49:41Z</time>
      </trkpt>
      <trkpt lat="46.75026" lon="-0.38648">
        <ele>237.983424</ele>
        <time>2014-07-30T08:49:43Z</time>
      </trkpt>
      <trkpt lat="46.75027" lon="-0.38655">
        <ele>237.834111</ele>
        <time>2014-07-30T08:49:45Z</time>
      </trkpt>
      <trkpt lat="46.75029" lon="-0.38663">
        <ele>237.642729</ele>
        <time>2014-07-30T08:49:47Z</time>
      </trkpt>
      <trkpt lat="46.75031" lon="-0.38671">
        <ele>237.500299</ele>
        <time>2014-07-30T08:49:49Z</time>
      </trkpt>
      <trkpt lat="46.75033" lon="-0.38679">
        <ele>237.319038</ele>
        <time>2014-07-30T08:49:51Z</time>
      </trkpt>
      <trkpt lat="46.75035" lon="-0.38685">
        <ele>237.23874</ele>
        <time>2014-07-30T08:49:53Z</time>
      </trkpt>
      <trkpt lat="46.75037" lon="-0.38693">
        <ele>237.283954</ele>
        <time>2014-07-30T08:49:55Z</time>
      </trkpt>
      <trkpt lat="46.75039" lon="-0.387">
        <ele>237.280328</ele>
        <time>2014-07-30T08:49:57Z</time>
      </trkpt>
      <trkpt lat="46.75041" lon="-0.38709">
        <ele>237.371668</ele>
        <time>2014-07-30T08:49:59Z</time>
      </trkpt>
      <trkpt lat="46.75043" lon="-0.38718">
        <ele>237.472308</ele>
        <time>2014-07-30T08:50:01Z</time>
      </trkpt>
      <trkpt lat="46.75044" lon="-0.38726">
        <ele>237.46798</ele>
        <time>2014-07-30T08:50:03Z</time>
      </trkpt>
      <trkpt lat="46.75044" lon="-0.38734">
        <ele>237.356349</ele>
        <time>2014-07-30T08:50:05Z</time>
      </trkpt>
      <trkpt lat="46.75045" lon="-0.38744">
        <ele>237.258319</ele>
        <time>2014-07-30T08:50:07Z</time>
      </trkpt>
      <trkpt lat="46.75045" lon="-0.38753">
        <ele>237.03999</ele>
        <time>2014-07-30T08:50:09Z</time>
      </trkpt>
      <trkpt lat="46.75044" lon="-0.38762">
        <ele>236.868483</ele>
        <time>2014-07-30T08:50:12Z</time>
      </trkpt>
      <trkpt lat="46.75044" lon="-0.38771">
        <ele>236.668165</ele>
        <time>2014-07-30T08:50:14Z</time>
      </trkpt>
      <trkpt lat="46.75046" lon="-0.38779">
        <ele>236.472979</ele>
        <time>2014-07-30T08:50:16Z</time>
      </trkpt>
      <trkpt lat="46.75047" lon="-0.38788">
        <ele>236.358412</ele>
        <time>2014-07-30T08:50:18Z</time>
      </trkpt>
      <trkpt lat="46.75048" lon="-0.38798">
        <ele>236.248038</ele>
        <time>2014-07-30T08:50:20Z</time>
      </trkpt>
      <trkpt lat="46.7505" lon="-0.38807">
        <ele>236.238633</ele>
        <time>2014-07-30T08:50:22Z</time>
      </trkpt>
      <trkpt lat="46.75052" lon="-0.38815">
        <ele>236.190158</ele>
        <time>2014-07-30T08:50:24Z</time>
      </trkpt>
      <trkpt lat="46.75052" lon="-0.38823">
        <ele>236.09013</ele>
        <time>2014-07-30T08:50:26Z</time>
      </trkpt>
      <trkpt lat="46.75052" lon="-0.3883">
        <ele>236.041866</ele>
        <time>2014-07-30T08:50:28Z</time>
      </trkpt>
      <trkpt lat="46.75052" lon="-0.3884">
        <ele>235.964966</ele>
        <time>2014-07-30T08:50:30Z</time>
      </trkpt>
      <trkpt lat="46.75051" lon="-0.38849">
        <ele>235.742858</ele>
        <time>2014-07-30T08:50:32Z</time>
      </trkpt>
      <trkpt lat="46.75049" lon="-0.38856">
        <ele>235.65076</ele>
        <time>2014-07-30T08:50:34Z</time>
      </trkpt>
      <trkpt lat="46.75049" lon="-0.38866">
        <ele>235.590818</ele>
        <time>2014-07-30T08:50:36Z</time>
      </trkpt>
      <trkpt lat="46.75048" lon="-0.38875">
        <ele>235.500105</ele>
        <time>2014-07-30T08:50:38Z</time>
      </trkpt>
      <trkpt lat="46.75049" lon="-0.38884">
        <ele>235.39518</ele>
        <time>2014-07-30T08:50:40Z</time>
      </trkpt>
      <trkpt lat="46.7505" lon="-0.38893">
        <ele>235.327172</ele>
        <time>2014-07-30T08:50:42Z</time>
      </trkpt>
      <trkpt lat="46.7505" lon="-0.38902">
        <ele>235.100581</ele>
        <time>2014-07-30T08:50:44Z</time>
      </trkpt>
      <trkpt lat="46.7505" lon="-0.38909">
        <ele>234.96637</ele>
        <time>2014-07-30T08:50:46Z</time>
      </trkpt>
      <trkpt lat="46.7505" lon="-0.38916">
        <ele>234.815802</ele>
        <time>2014-07-30T08:50:48Z</time>
      </trkpt>
      <trkpt lat="46.75051" lon="-0.38924">
        <ele>234.508799</ele>
        <time>2014-07-30T08:50:51Z</time>
      </trkpt>
      <trkpt lat="46.75053" lon="-0.38932">
        <ele>234.336112</ele>
        <time>2014-07-30T08:50:53Z</time>
      </trkpt>
      <trkpt lat="46.75056" lon="-0.38937">
        <ele>234.148961</ele>
        <time>2014-07-30T08:50:55Z</time>
      </trkpt>
      <trkpt lat="46.75062" lon="-0.38939">
        <ele>234.026232</ele>
        <time>2014-07-30T08:50:57Z</time>
      </trkpt>
      <trkpt lat="46.75068" lon="-0.38938">
        <ele>233.788068</ele>
        <time>2014-07-30T08:50:59Z</time>
      </trkpt>
      <trkpt lat="46.75073" lon="-0.38936">
        <ele>233.657233</ele>
        <time>2014-07-30T08:51:01Z</time>
      </trkpt>
      <trkpt lat="46.7508" lon="-0.38934">
        <ele>233.403385</ele>
        <time>2014-07-30T08:51:03Z</time>
      </trkpt>
      <trkpt lat="46.75086" lon="-0.38932">
        <ele>233.143724</ele>
        <time>2014-07-30T08:51:05Z</time>
      </trkpt>
      <trkpt lat="46.75091" lon="-0.38928">
        <ele>232.88518</ele>
        <time>2014-07-30T08:51:08Z</time>
      </trkpt>
      <trkpt lat="46.75097" lon="-0.38926">
        <ele>232.698019</ele>
        <time>2014-07-30T08:51:10Z</time>
      </trkpt>
      <trkpt lat="46.75102" lon="-0.38924">
        <ele>232.518787</ele>
        <time>2014-07-30T08:51:12Z</time>
      </trkpt>
      <trkpt lat="46.75107" lon="-0.38923">
        <ele>232.327096</ele>
        <time>2014-07-30T08:51:14Z</time>
      </trkpt>
      <trkpt lat="46.75113" lon="-0.38921">
        <ele>232.067967</ele>
        <time>2014-07-30T08:51:16Z</time>
      </trkpt>
      <trkpt lat="46.75119" lon="-0.38919">
        <ele>231.954735</ele>
        <time>2014-07-30T08:51:18Z</time>
      </trkpt>
      <trkpt lat="46.75124" lon="-0.38919">
        <ele>231.890148</ele>
        <time>2014-07-30T08:51:20Z</time>
      </trkpt>
      <trkpt lat="46.7513" lon="-0.38922">
        <ele>231.782153</ele>
        <time>2014-07-30T08:51:22Z</time>
      </trkpt>
      <trkpt lat="46.75135" lon="-0.38924">
        <ele>231.764667</ele>
        <time>2014-07-30T08:51:24Z</time>
      </trkpt>
      <trkpt lat="46.7514" lon="-0.38927">
        <ele>231.730211</ele>
        <time>2014-07-30T08:51:26Z</time>
      </trkpt>
      <trkpt lat="46.75145" lon="-0.3893">
        <ele>231.650465</ele>
        <time>2014-07-30T08:51:28Z</time>
      </trkpt>
      <trkpt lat="46.75151" lon="-0.38932">
        <ele>231.492548</ele>
        <time>2014-07-30T08:51:30Z</time>
      </trkpt>
      <trkpt lat="46.75155" lon="-0.38936">
        <ele>231.216119</ele>
        <time>2014-07-30T08:51:32Z</time>
      </trkpt>
      <trkpt lat="46.75159" lon="-0.38941">
        <ele>230.852744</ele>
        <time>2014-07-30T08:51:34Z</time>
      </trkpt>
      <trkpt lat="46.75164" lon="-0.38946">
        <ele>230.489773</ele>
        <time>2014-07-30T08:51:36Z</time>
      </trkpt>
      <trkpt lat="46.75169" lon="-0.38951">
        <ele>230.175441</ele>
        <time>2014-07-30T08:51:38Z</time>
      </trkpt>
      <trkpt lat="46.75173" lon="-0.38956">
        <ele>229.8199</ele>
        <time>2014-07-30T08:51:40Z</time>
      </trkpt>
      <trkpt lat="46.75179" lon="-0.38962">
        <ele>229.37645</ele>
        <time>2014-07-30T08:51:43Z</time>
      </trkpt>
      <trkpt lat="46.75184" lon="-0.38967">
        <ele>229.213539</ele>
        <time>2014-07-30T08:51:45Z</time>
      </trkpt>
      <trkpt lat="46.75189" lon="-0.38972">
        <ele>228.996046</ele>
        <time>2014-07-30T08:51:47Z</time>
      </trkpt>
      <trkpt lat="46.75196" lon="-0.38977">
        <ele>228.624305</ele>
        <time>2014-07-30T08:51:50Z</time>
      </trkpt>
      <trkpt lat="46.75201" lon="-0.38981">
        <ele>228.335143</ele>
        <time>2014-07-30T08:51:52Z</time>
      </trkpt>
      <trkpt lat="46.75206" lon="-0.38983">
        <ele>228.065055</ele>
        <time>2014-07-30T08:51:54Z</time>
      </trkpt>
      <trkpt lat="46.7521" lon="-0.38983">
        <ele>227.952714</ele>
        <time>2014-07-30T08:51:56Z</time>
      </trkpt>
      <trkpt lat="46.75214" lon="-0.38978">
        <ele>227.915419</ele>
        <time>2014-07-30T08:51:58Z</time>
      </trkpt>
      <trkpt lat="46.75218" lon="-0.38971">
        <ele>227.782132</ele>
        <time>2014-07-30T08:52:00Z</time>
      </trkpt>
      <trkpt lat="46.75221" lon="-0.38965">
        <ele>227.688846</ele>
        <time>2014-07-30T08:52:02Z</time>
      </trkpt>
      <trkpt lat="46.75226" lon="-0.38963">
        <ele>227.190339</ele>
        <time>2014-07-30T08:52:05Z</time>
      </trkpt>
      <trkpt lat="46.75232" lon="-0.38967">
        <ele>226.779618</ele>
        <time>2014-07-30T08:52:07Z</time>
      </trkpt>
      <trkpt lat="46.75239" lon="-0.38971">
        <ele>226.417476</ele>
        <time>2014-07-30T08:52:09Z</time>
      </trkpt>
      <trkpt lat="46.75243" lon="-0.38974">
        <ele>225.193279</ele>
        <time>2014-07-30T08:52:10Z</time>
      </trkpt>
      <trkpt lat="46.75249" lon="-0.38979">
        <ele>224.967818</ele>
        <time>2014-07-30T08:52:12Z</time>
      </trkpt>
      <trkpt lat="46.75255" lon="-0.38982">
        <ele>224.709203</ele>
        <time>2014-07-30T08:52:14Z</time>
      </trkpt>
      <trkpt lat="46.7526" lon="-0.38986">
        <ele>224.447042</ele>
        <time>2014-07-30T08:52:16Z</time>
      </trkpt>
      <trkpt lat="46.75266" lon="-0.38992">
        <ele>224.272548</ele>
        <time>2014-07-30T08:52:18Z</time>
      </trkpt>
      <trkpt lat="46.7527" lon="-0.38997">
        <ele>224.101637</ele>
        <time>2014-07-30T08:52:20Z</time>
      </trkpt>
      <trkpt lat="46.75274" lon="-0.39">
        <ele>223.906346</ele>
        <time>2014-07-30T08:52:22Z</time>
      </trkpt>
      <trkpt lat="46.75279" lon="-0.39003">
        <ele>223.702186</ele>
        <time>2014-07-30T08:52:24Z</time>
      </trkpt>
      <trkpt lat="46.75285" lon="-0.39005">
        <ele>223.524066</ele>
        <time>2014-07-30T08:52:26Z</time>
      </trkpt>
      <trkpt lat="46.75291" lon="-0.39005">
        <ele>223.429348</ele>
        <time>2014-07-30T08:52:28Z</time>
      </trkpt>
      <trkpt lat="46.75297" lon="-0.39004">
        <ele>223.322803</ele>
        <time>2014-07-30T08:52:30Z</time>
      </trkpt>
      <trkpt lat="46.75302" lon="-0.39001">
        <ele>223.258297</ele>
        <time>2014-07-30T08:52:32Z</time>
      </trkpt>
      <trkpt lat="46.75306" lon="-0.38995">
        <ele>223.225079</ele>
        <time>2014-07-30T08:52:35Z</time>
      </trkpt>
      <trkpt lat="46.75308" lon="-0.38989">
        <ele>222.914119</ele>
        <time>2014-07-30T08:52:38Z</time>
      </trkpt>
      <trkpt lat="46.75311" lon="-0.38983">
        <ele>222.43062</ele>
        <time>2014-07-30T08:52:43Z</time>
      </trkpt>
      <trkpt lat="46.75313" lon="-0.3898">
        <ele>222.026537</ele>
        <time>2014-07-30T08:52:51Z</time>
      </trkpt>
    </trkseg>
  </trk>
</gpx>